<?xml version="1.0" encoding="UTF-8" standalone="no" ?>
<gpx xmlns="http://www.topografix.com/GPX/1/1" xmlns:xsi="http://www.w3.org/2001/XMLSchema-instance" xsi:schemaLocation="http://www.topografix.com/GPX/1/1 http://www.topografix.com/GPX/1/1/gpx.xsd" version="1.1" creator="VisuGPX - https://www.visugpx.com">
  <metadata>
    <name>160622HR3ROBBenjamins</name>
    <desc><![CDATA[Avant derniere sortie]]></desc>
  </metadata>
  <trk>
    <name><![CDATA[160622HR3ROBBenjamins]]></name>
    <cmt><![CDATA[Poignet]]></cmt>
    <trkseg>
      <trkpt lat="43.41574" lon="6.07031">
        <ele>219.60000610352</ele>
        <time>2016-06-22T12:09:31Z</time>
      </trkpt>
      <trkpt lat="43.41578" lon="6.07041">
        <ele>219.60000610352</ele>
        <time>2016-06-22T12:09:40Z</time>
      </trkpt>
      <trkpt lat="43.41582" lon="6.07048">
        <ele>219.60000610352</ele>
        <time>2016-06-22T12:09:49Z</time>
      </trkpt>
      <trkpt lat="43.41582" lon="6.0705">
        <ele>219.60000610352</ele>
        <time>2016-06-22T12:09:50Z</time>
      </trkpt>
      <trkpt lat="43.41583" lon="6.07054">
        <ele>219.60000610352</ele>
        <time>2016-06-22T12:09:51Z</time>
      </trkpt>
      <trkpt lat="43.41584" lon="6.07058">
        <ele>219.39999389648</ele>
        <time>2016-06-22T12:09:52Z</time>
      </trkpt>
      <trkpt lat="43.41586" lon="6.07068">
        <ele>219.39999389648</ele>
        <time>2016-06-22T12:09:54Z</time>
      </trkpt>
      <trkpt lat="43.41587" lon="6.07091">
        <ele>219.39999389648</ele>
        <time>2016-06-22T12:09:58Z</time>
      </trkpt>
      <trkpt lat="43.41588" lon="6.071">
        <ele>219</ele>
        <time>2016-06-22T12:10:00Z</time>
      </trkpt>
      <trkpt lat="43.41585" lon="6.07108">
        <ele>218.80000305176</ele>
        <time>2016-06-22T12:10:03Z</time>
      </trkpt>
      <trkpt lat="43.41579" lon="6.07113">
        <ele>218.80000305176</ele>
        <time>2016-06-22T12:10:06Z</time>
      </trkpt>
      <trkpt lat="43.4157" lon="6.07117">
        <ele>218.60000610352</ele>
        <time>2016-06-22T12:10:10Z</time>
      </trkpt>
      <trkpt lat="43.41555" lon="6.07116">
        <ele>218.80000305176</ele>
        <time>2016-06-22T12:10:17Z</time>
      </trkpt>
      <trkpt lat="43.41551" lon="6.07107">
        <ele>219</ele>
        <time>2016-06-22T12:10:20Z</time>
      </trkpt>
      <trkpt lat="43.41544" lon="6.07079">
        <ele>219</ele>
        <time>2016-06-22T12:10:27Z</time>
      </trkpt>
      <trkpt lat="43.41538" lon="6.07076">
        <ele>218.80000305176</ele>
        <time>2016-06-22T12:10:29Z</time>
      </trkpt>
      <trkpt lat="43.41534" lon="6.07076">
        <ele>218.60000610352</ele>
        <time>2016-06-22T12:10:30Z</time>
      </trkpt>
      <trkpt lat="43.41504" lon="6.07081">
        <ele>218</ele>
        <time>2016-06-22T12:10:37Z</time>
      </trkpt>
      <trkpt lat="43.41495" lon="6.0708">
        <ele>217.80000305176</ele>
        <time>2016-06-22T12:10:39Z</time>
      </trkpt>
      <trkpt lat="43.41491" lon="6.07078">
        <ele>217.60000610352</ele>
        <time>2016-06-22T12:10:40Z</time>
      </trkpt>
      <trkpt lat="43.41468" lon="6.0707">
        <ele>217</ele>
        <time>2016-06-22T12:10:47Z</time>
      </trkpt>
      <trkpt lat="43.41466" lon="6.07067">
        <ele>216.60000610352</ele>
        <time>2016-06-22T12:10:49Z</time>
      </trkpt>
      <trkpt lat="43.41465" lon="6.07065">
        <ele>216.60000610352</ele>
        <time>2016-06-22T12:10:50Z</time>
      </trkpt>
      <trkpt lat="43.41465" lon="6.07062">
        <ele>216.60000610352</ele>
        <time>2016-06-22T12:10:51Z</time>
      </trkpt>
      <trkpt lat="43.41479" lon="6.07024">
        <ele>216.80000305176</ele>
        <time>2016-06-22T12:11:00Z</time>
      </trkpt>
      <trkpt lat="43.41488" lon="6.07004">
        <ele>217.19999694824</ele>
        <time>2016-06-22T12:11:04Z</time>
      </trkpt>
      <trkpt lat="43.41492" lon="6.06993">
        <ele>217.19999694824</ele>
        <time>2016-06-22T12:11:06Z</time>
      </trkpt>
      <trkpt lat="43.41492" lon="6.06981">
        <ele>217.19999694824</ele>
        <time>2016-06-22T12:11:08Z</time>
      </trkpt>
      <trkpt lat="43.4149" lon="6.06969">
        <ele>217.19999694824</ele>
        <time>2016-06-22T12:11:10Z</time>
      </trkpt>
      <trkpt lat="43.41486" lon="6.06959">
        <ele>217.19999694824</ele>
        <time>2016-06-22T12:11:12Z</time>
      </trkpt>
      <trkpt lat="43.41468" lon="6.06931">
        <ele>217.80000305176</ele>
        <time>2016-06-22T12:11:19Z</time>
      </trkpt>
      <trkpt lat="43.41467" lon="6.06928">
        <ele>217.80000305176</ele>
        <time>2016-06-22T12:11:20Z</time>
      </trkpt>
      <trkpt lat="43.41464" lon="6.06924">
        <ele>218</ele>
        <time>2016-06-22T12:11:22Z</time>
      </trkpt>
      <trkpt lat="43.41463" lon="6.06899">
        <ele>218.19999694824</ele>
        <time>2016-06-22T12:11:30Z</time>
      </trkpt>
      <trkpt lat="43.41464" lon="6.06893">
        <ele>218.19999694824</ele>
        <time>2016-06-22T12:11:31Z</time>
      </trkpt>
      <trkpt lat="43.41464" lon="6.06881">
        <ele>218.19999694824</ele>
        <time>2016-06-22T12:11:33Z</time>
      </trkpt>
      <trkpt lat="43.41461" lon="6.0687">
        <ele>218.60000610352</ele>
        <time>2016-06-22T12:11:35Z</time>
      </trkpt>
      <trkpt lat="43.41455" lon="6.06861">
        <ele>218.80000305176</ele>
        <time>2016-06-22T12:11:37Z</time>
      </trkpt>
      <trkpt lat="43.41447" lon="6.06857">
        <ele>219</ele>
        <time>2016-06-22T12:11:39Z</time>
      </trkpt>
      <trkpt lat="43.41442" lon="6.06857">
        <ele>219</ele>
        <time>2016-06-22T12:11:40Z</time>
      </trkpt>
      <trkpt lat="43.41418" lon="6.06857">
        <ele>219</ele>
        <time>2016-06-22T12:11:45Z</time>
      </trkpt>
      <trkpt lat="43.41409" lon="6.06851">
        <ele>219</ele>
        <time>2016-06-22T12:11:47Z</time>
      </trkpt>
      <trkpt lat="43.41397" lon="6.0684">
        <ele>219</ele>
        <time>2016-06-22T12:11:50Z</time>
      </trkpt>
      <trkpt lat="43.41393" lon="6.06836">
        <ele>219</ele>
        <time>2016-06-22T12:11:51Z</time>
      </trkpt>
      <trkpt lat="43.41354" lon="6.06814">
        <ele>219.60000610352</ele>
        <time>2016-06-22T12:12:00Z</time>
      </trkpt>
      <trkpt lat="43.4132" lon="6.06795">
        <ele>218.39999389648</ele>
        <time>2016-06-22T12:12:07Z</time>
      </trkpt>
      <trkpt lat="43.41304" lon="6.06782">
        <ele>217.80000305176</ele>
        <time>2016-06-22T12:12:10Z</time>
      </trkpt>
      <trkpt lat="43.41295" lon="6.06771">
        <ele>217.60000610352</ele>
        <time>2016-06-22T12:12:12Z</time>
      </trkpt>
      <trkpt lat="43.41279" lon="6.06746">
        <ele>217.19999694824</ele>
        <time>2016-06-22T12:12:16Z</time>
      </trkpt>
      <trkpt lat="43.41276" lon="6.06732">
        <ele>217.19999694824</ele>
        <time>2016-06-22T12:12:18Z</time>
      </trkpt>
      <trkpt lat="43.41275" lon="6.06717">
        <ele>217.39999389648</ele>
        <time>2016-06-22T12:12:20Z</time>
      </trkpt>
      <trkpt lat="43.4127" lon="6.06685">
        <ele>218</ele>
        <time>2016-06-22T12:12:26Z</time>
      </trkpt>
      <trkpt lat="43.41262" lon="6.06683">
        <ele>218</ele>
        <time>2016-06-22T12:12:28Z</time>
      </trkpt>
      <trkpt lat="43.41254" lon="6.06684">
        <ele>217.60000610352</ele>
        <time>2016-06-22T12:12:30Z</time>
      </trkpt>
      <trkpt lat="43.41247" lon="6.06691">
        <ele>216.60000610352</ele>
        <time>2016-06-22T12:12:33Z</time>
      </trkpt>
      <trkpt lat="43.41247" lon="6.06706">
        <ele>216.39999389648</ele>
        <time>2016-06-22T12:12:40Z</time>
      </trkpt>
      <trkpt lat="43.41249" lon="6.0671">
        <ele>216.19999694824</ele>
        <time>2016-06-22T12:12:46Z</time>
      </trkpt>
      <trkpt lat="43.41235" lon="6.06711">
        <ele>215.39999389648</ele>
        <time>2016-06-22T12:12:50Z</time>
      </trkpt>
      <trkpt lat="43.41211" lon="6.06717">
        <ele>214.60000610352</ele>
        <time>2016-06-22T12:12:55Z</time>
      </trkpt>
      <trkpt lat="43.41199" lon="6.06719">
        <ele>214.80000305176</ele>
        <time>2016-06-22T12:12:57Z</time>
      </trkpt>
      <trkpt lat="43.41181" lon="6.0672">
        <ele>214.60000610352</ele>
        <time>2016-06-22T12:13:00Z</time>
      </trkpt>
      <trkpt lat="43.41169" lon="6.06719">
        <ele>214.39999389648</ele>
        <time>2016-06-22T12:13:02Z</time>
      </trkpt>
      <trkpt lat="43.4115" lon="6.06719">
        <ele>213.80000305176</ele>
        <time>2016-06-22T12:13:05Z</time>
      </trkpt>
      <trkpt lat="43.41125" lon="6.06729">
        <ele>213.19999694824</ele>
        <time>2016-06-22T12:13:10Z</time>
      </trkpt>
      <trkpt lat="43.41103" lon="6.06743">
        <ele>213.60000610352</ele>
        <time>2016-06-22T12:13:15Z</time>
      </trkpt>
      <trkpt lat="43.4109" lon="6.06749">
        <ele>213.39999389648</ele>
        <time>2016-06-22T12:13:20Z</time>
      </trkpt>
      <trkpt lat="43.4108" lon="6.06759">
        <ele>213.39999389648</ele>
        <time>2016-06-22T12:13:25Z</time>
      </trkpt>
      <trkpt lat="43.4108" lon="6.0678">
        <ele>213.60000610352</ele>
        <time>2016-06-22T12:13:30Z</time>
      </trkpt>
      <trkpt lat="43.41072" lon="6.06829">
        <ele>213.60000610352</ele>
        <time>2016-06-22T12:13:40Z</time>
      </trkpt>
      <trkpt lat="43.41068" lon="6.06865">
        <ele>214.60000610352</ele>
        <time>2016-06-22T12:13:49Z</time>
      </trkpt>
      <trkpt lat="43.41067" lon="6.06867">
        <ele>214.80000305176</ele>
        <time>2016-06-22T12:13:50Z</time>
      </trkpt>
      <trkpt lat="43.41036" lon="6.06881">
        <ele>214.39999389648</ele>
        <time>2016-06-22T12:14:00Z</time>
      </trkpt>
      <trkpt lat="43.41021" lon="6.06895">
        <ele>213.80000305176</ele>
        <time>2016-06-22T12:14:05Z</time>
      </trkpt>
      <trkpt lat="43.41012" lon="6.06911">
        <ele>213.80000305176</ele>
        <time>2016-06-22T12:14:09Z</time>
      </trkpt>
      <trkpt lat="43.41008" lon="6.06915">
        <ele>213.80000305176</ele>
        <time>2016-06-22T12:14:10Z</time>
      </trkpt>
      <trkpt lat="43.40969" lon="6.06936">
        <ele>213.39999389648</ele>
        <time>2016-06-22T12:14:19Z</time>
      </trkpt>
      <trkpt lat="43.40963" lon="6.06937">
        <ele>213.39999389648</ele>
        <time>2016-06-22T12:14:20Z</time>
      </trkpt>
      <trkpt lat="43.40918" lon="6.06952">
        <ele>213.60000610352</ele>
        <time>2016-06-22T12:14:30Z</time>
      </trkpt>
      <trkpt lat="43.40899" lon="6.06978">
        <ele>213.80000305176</ele>
        <time>2016-06-22T12:14:37Z</time>
      </trkpt>
      <trkpt lat="43.40885" lon="6.06988">
        <ele>214</ele>
        <time>2016-06-22T12:14:40Z</time>
      </trkpt>
      <trkpt lat="43.40867" lon="6.06995">
        <ele>214.39999389648</ele>
        <time>2016-06-22T12:14:43Z</time>
      </trkpt>
      <trkpt lat="43.40855" lon="6.06999">
        <ele>214.19999694824</ele>
        <time>2016-06-22T12:14:45Z</time>
      </trkpt>
      <trkpt lat="43.4085" lon="6.07001">
        <ele>214.19999694824</ele>
        <time>2016-06-22T12:14:46Z</time>
      </trkpt>
      <trkpt lat="43.40846" lon="6.07004">
        <ele>214.19999694824</ele>
        <time>2016-06-22T12:14:48Z</time>
      </trkpt>
      <trkpt lat="43.40845" lon="6.07005">
        <ele>214.60000610352</ele>
        <time>2016-06-22T12:14:50Z</time>
      </trkpt>
      <trkpt lat="43.40845" lon="6.07005">
        <ele>214.80000305176</ele>
        <time>2016-06-22T12:14:52Z</time>
      </trkpt>
      <trkpt lat="43.40845" lon="6.07007">
        <ele>214.80000305176</ele>
        <time>2016-06-22T12:14:54Z</time>
      </trkpt>
      <trkpt lat="43.40843" lon="6.07013">
        <ele>214.60000610352</ele>
        <time>2016-06-22T12:14:56Z</time>
      </trkpt>
      <trkpt lat="43.40842" lon="6.07022">
        <ele>214.39999389648</ele>
        <time>2016-06-22T12:14:58Z</time>
      </trkpt>
      <trkpt lat="43.40842" lon="6.07027">
        <ele>214.39999389648</ele>
        <time>2016-06-22T12:14:59Z</time>
      </trkpt>
      <trkpt lat="43.40842" lon="6.07032">
        <ele>214.19999694824</ele>
        <time>2016-06-22T12:15:00Z</time>
      </trkpt>
      <trkpt lat="43.40844" lon="6.07043">
        <ele>214</ele>
        <time>2016-06-22T12:15:02Z</time>
      </trkpt>
      <trkpt lat="43.40845" lon="6.07056">
        <ele>214</ele>
        <time>2016-06-22T12:15:04Z</time>
      </trkpt>
      <trkpt lat="43.40847" lon="6.07076">
        <ele>214</ele>
        <time>2016-06-22T12:15:07Z</time>
      </trkpt>
      <trkpt lat="43.40847" lon="6.07098">
        <ele>213.60000610352</ele>
        <time>2016-06-22T12:15:10Z</time>
      </trkpt>
      <trkpt lat="43.40845" lon="6.07113">
        <ele>213.39999389648</ele>
        <time>2016-06-22T12:15:12Z</time>
      </trkpt>
      <trkpt lat="43.40833" lon="6.07166">
        <ele>213.39999389648</ele>
        <time>2016-06-22T12:15:20Z</time>
      </trkpt>
      <trkpt lat="43.40824" lon="6.07183">
        <ele>213.80000305176</ele>
        <time>2016-06-22T12:15:23Z</time>
      </trkpt>
      <trkpt lat="43.40802" lon="6.07218">
        <ele>214.19999694824</ele>
        <time>2016-06-22T12:15:30Z</time>
      </trkpt>
      <trkpt lat="43.40777" lon="6.0724">
        <ele>214.39999389648</ele>
        <time>2016-06-22T12:15:36Z</time>
      </trkpt>
      <trkpt lat="43.40759" lon="6.07251">
        <ele>214.60000610352</ele>
        <time>2016-06-22T12:15:40Z</time>
      </trkpt>
      <trkpt lat="43.40713" lon="6.07277">
        <ele>214.80000305176</ele>
        <time>2016-06-22T12:15:50Z</time>
      </trkpt>
      <trkpt lat="43.40691" lon="6.07289">
        <ele>215.60000610352</ele>
        <time>2016-06-22T12:15:55Z</time>
      </trkpt>
      <trkpt lat="43.40672" lon="6.073">
        <ele>216</ele>
        <time>2016-06-22T12:16:00Z</time>
      </trkpt>
      <trkpt lat="43.40649" lon="6.07313">
        <ele>216.80000305176</ele>
        <time>2016-06-22T12:16:06Z</time>
      </trkpt>
      <trkpt lat="43.40635" lon="6.0732">
        <ele>217.80000305176</ele>
        <time>2016-06-22T12:16:10Z</time>
      </trkpt>
      <trkpt lat="43.40631" lon="6.0732">
        <ele>217.80000305176</ele>
        <time>2016-06-22T12:16:11Z</time>
      </trkpt>
      <trkpt lat="43.40609" lon="6.07299">
        <ele>218.80000305176</ele>
        <time>2016-06-22T12:16:19Z</time>
      </trkpt>
      <trkpt lat="43.40607" lon="6.07296">
        <ele>219</ele>
        <time>2016-06-22T12:16:20Z</time>
      </trkpt>
      <trkpt lat="43.40602" lon="6.07289">
        <ele>219.39999389648</ele>
        <time>2016-06-22T12:16:25Z</time>
      </trkpt>
      <trkpt lat="43.40601" lon="6.07288">
        <ele>219.39999389648</ele>
        <time>2016-06-22T12:16:26Z</time>
      </trkpt>
      <trkpt lat="43.406" lon="6.07286">
        <ele>219.39999389648</ele>
        <time>2016-06-22T12:16:30Z</time>
      </trkpt>
      <trkpt lat="43.40601" lon="6.07286">
        <ele>219.60000610352</ele>
        <time>2016-06-22T12:16:33Z</time>
      </trkpt>
      <trkpt lat="43.40601" lon="6.07286">
        <ele>219.80000305176</ele>
        <time>2016-06-22T12:16:38Z</time>
      </trkpt>
      <trkpt lat="43.40601" lon="6.07286">
        <ele>219.80000305176</ele>
        <time>2016-06-22T12:16:40Z</time>
      </trkpt>
      <trkpt lat="43.40601" lon="6.07287">
        <ele>219.60000610352</ele>
        <time>2016-06-22T12:16:50Z</time>
      </trkpt>
      <trkpt lat="43.406" lon="6.07286">
        <ele>219.39999389648</ele>
        <time>2016-06-22T12:16:53Z</time>
      </trkpt>
      <trkpt lat="43.40594" lon="6.07285">
        <ele>219.39999389648</ele>
        <time>2016-06-22T12:16:57Z</time>
      </trkpt>
      <trkpt lat="43.40588" lon="6.0729">
        <ele>219.39999389648</ele>
        <time>2016-06-22T12:17:00Z</time>
      </trkpt>
      <trkpt lat="43.40551" lon="6.07294">
        <ele>219.80000305176</ele>
        <time>2016-06-22T12:17:10Z</time>
      </trkpt>
      <trkpt lat="43.4053" lon="6.0729">
        <ele>219.80000305176</ele>
        <time>2016-06-22T12:17:15Z</time>
      </trkpt>
      <trkpt lat="43.40525" lon="6.07288">
        <ele>220</ele>
        <time>2016-06-22T12:17:16Z</time>
      </trkpt>
      <trkpt lat="43.40509" lon="6.07279">
        <ele>220.39999389648</ele>
        <time>2016-06-22T12:17:20Z</time>
      </trkpt>
      <trkpt lat="43.405" lon="6.07275">
        <ele>220.39999389648</ele>
        <time>2016-06-22T12:17:22Z</time>
      </trkpt>
      <trkpt lat="43.4048" lon="6.07274">
        <ele>221</ele>
        <time>2016-06-22T12:17:27Z</time>
      </trkpt>
      <trkpt lat="43.40469" lon="6.07274">
        <ele>221.39999389648</ele>
        <time>2016-06-22T12:17:30Z</time>
      </trkpt>
      <trkpt lat="43.40451" lon="6.07277">
        <ele>222</ele>
        <time>2016-06-22T12:17:34Z</time>
      </trkpt>
      <trkpt lat="43.40434" lon="6.07278">
        <ele>222.60000610352</ele>
        <time>2016-06-22T12:17:38Z</time>
      </trkpt>
      <trkpt lat="43.40423" lon="6.07278">
        <ele>223.19999694824</ele>
        <time>2016-06-22T12:17:41Z</time>
      </trkpt>
      <trkpt lat="43.40404" lon="6.07271">
        <ele>224.39999389648</ele>
        <time>2016-06-22T12:17:47Z</time>
      </trkpt>
      <trkpt lat="43.404" lon="6.07264">
        <ele>224.60000610352</ele>
        <time>2016-06-22T12:17:50Z</time>
      </trkpt>
      <trkpt lat="43.40369" lon="6.07241">
        <ele>225</ele>
        <time>2016-06-22T12:18:00Z</time>
      </trkpt>
      <trkpt lat="43.40359" lon="6.07233">
        <ele>225.39999389648</ele>
        <time>2016-06-22T12:18:03Z</time>
      </trkpt>
      <trkpt lat="43.40341" lon="6.07221">
        <ele>226.60000610352</ele>
        <time>2016-06-22T12:18:09Z</time>
      </trkpt>
      <trkpt lat="43.40338" lon="6.07219">
        <ele>226.60000610352</ele>
        <time>2016-06-22T12:18:10Z</time>
      </trkpt>
      <trkpt lat="43.40305" lon="6.07205">
        <ele>227.60000610352</ele>
        <time>2016-06-22T12:18:19Z</time>
      </trkpt>
      <trkpt lat="43.40302" lon="6.07202">
        <ele>227.80000305176</ele>
        <time>2016-06-22T12:18:20Z</time>
      </trkpt>
      <trkpt lat="43.40273" lon="6.07168">
        <ele>227.60000610352</ele>
        <time>2016-06-22T12:18:30Z</time>
      </trkpt>
      <trkpt lat="43.4024" lon="6.07164">
        <ele>228.60000610352</ele>
        <time>2016-06-22T12:18:40Z</time>
      </trkpt>
      <trkpt lat="43.40222" lon="6.07172">
        <ele>229.80000305176</ele>
        <time>2016-06-22T12:18:46Z</time>
      </trkpt>
      <trkpt lat="43.40211" lon="6.07177">
        <ele>230.60000610352</ele>
        <time>2016-06-22T12:18:50Z</time>
      </trkpt>
      <trkpt lat="43.40208" lon="6.07178">
        <ele>230.80000305176</ele>
        <time>2016-06-22T12:18:51Z</time>
      </trkpt>
      <trkpt lat="43.40197" lon="6.07186">
        <ele>231.80000305176</ele>
        <time>2016-06-22T12:18:55Z</time>
      </trkpt>
      <trkpt lat="43.40189" lon="6.07192">
        <ele>232.80000305176</ele>
        <time>2016-06-22T12:18:58Z</time>
      </trkpt>
      <trkpt lat="43.40183" lon="6.07195">
        <ele>233.39999389648</ele>
        <time>2016-06-22T12:19:00Z</time>
      </trkpt>
      <trkpt lat="43.40175" lon="6.07201">
        <ele>234.19999694824</ele>
        <time>2016-06-22T12:19:03Z</time>
      </trkpt>
      <trkpt lat="43.40165" lon="6.0721">
        <ele>235.39999389648</ele>
        <time>2016-06-22T12:19:07Z</time>
      </trkpt>
      <trkpt lat="43.40157" lon="6.07217">
        <ele>235.80000305176</ele>
        <time>2016-06-22T12:19:10Z</time>
      </trkpt>
      <trkpt lat="43.4015" lon="6.07225">
        <ele>236.39999389648</ele>
        <time>2016-06-22T12:19:13Z</time>
      </trkpt>
      <trkpt lat="43.40145" lon="6.07247">
        <ele>237</ele>
        <time>2016-06-22T12:19:20Z</time>
      </trkpt>
      <trkpt lat="43.40145" lon="6.07282">
        <ele>237</ele>
        <time>2016-06-22T12:19:28Z</time>
      </trkpt>
      <trkpt lat="43.40144" lon="6.07291">
        <ele>237</ele>
        <time>2016-06-22T12:19:30Z</time>
      </trkpt>
      <trkpt lat="43.40141" lon="6.07324">
        <ele>237</ele>
        <time>2016-06-22T12:19:37Z</time>
      </trkpt>
      <trkpt lat="43.40139" lon="6.07338">
        <ele>237</ele>
        <time>2016-06-22T12:19:40Z</time>
      </trkpt>
      <trkpt lat="43.40135" lon="6.0736">
        <ele>237.60000610352</ele>
        <time>2016-06-22T12:19:45Z</time>
      </trkpt>
      <trkpt lat="43.40137" lon="6.07384">
        <ele>238</ele>
        <time>2016-06-22T12:19:50Z</time>
      </trkpt>
      <trkpt lat="43.40146" lon="6.07425">
        <ele>238.19999694824</ele>
        <time>2016-06-22T12:19:58Z</time>
      </trkpt>
      <trkpt lat="43.40147" lon="6.07434">
        <ele>238.39999389648</ele>
        <time>2016-06-22T12:20:00Z</time>
      </trkpt>
      <trkpt lat="43.40147" lon="6.07438">
        <ele>238.80000305176</ele>
        <time>2016-06-22T12:20:01Z</time>
      </trkpt>
      <trkpt lat="43.40142" lon="6.0748">
        <ele>239.80000305176</ele>
        <time>2016-06-22T12:20:10Z</time>
      </trkpt>
      <trkpt lat="43.40135" lon="6.075">
        <ele>241</ele>
        <time>2016-06-22T12:20:15Z</time>
      </trkpt>
      <trkpt lat="43.4013" lon="6.07521">
        <ele>242.19999694824</ele>
        <time>2016-06-22T12:20:20Z</time>
      </trkpt>
      <trkpt lat="43.4011" lon="6.07559">
        <ele>243</ele>
        <time>2016-06-22T12:20:30Z</time>
      </trkpt>
      <trkpt lat="43.40107" lon="6.07563">
        <ele>243.19999694824</ele>
        <time>2016-06-22T12:20:31Z</time>
      </trkpt>
      <trkpt lat="43.40094" lon="6.07598">
        <ele>243.60000610352</ele>
        <time>2016-06-22T12:20:40Z</time>
      </trkpt>
      <trkpt lat="43.40092" lon="6.07611">
        <ele>244.19999694824</ele>
        <time>2016-06-22T12:20:43Z</time>
      </trkpt>
      <trkpt lat="43.40092" lon="6.07632">
        <ele>245.19999694824</ele>
        <time>2016-06-22T12:20:48Z</time>
      </trkpt>
      <trkpt lat="43.40091" lon="6.0764">
        <ele>245.60000610352</ele>
        <time>2016-06-22T12:20:50Z</time>
      </trkpt>
      <trkpt lat="43.4009" lon="6.07651">
        <ele>246.19999694824</ele>
        <time>2016-06-22T12:20:53Z</time>
      </trkpt>
      <trkpt lat="43.40086" lon="6.07664">
        <ele>247.39999389648</ele>
        <time>2016-06-22T12:20:57Z</time>
      </trkpt>
      <trkpt lat="43.40083" lon="6.07674">
        <ele>248.60000610352</ele>
        <time>2016-06-22T12:21:00Z</time>
      </trkpt>
      <trkpt lat="43.40077" lon="6.07686">
        <ele>249.39999389648</ele>
        <time>2016-06-22T12:21:04Z</time>
      </trkpt>
      <trkpt lat="43.40074" lon="6.07692">
        <ele>249.60000610352</ele>
        <time>2016-06-22T12:21:06Z</time>
      </trkpt>
      <trkpt lat="43.40066" lon="6.07703">
        <ele>249.80000305176</ele>
        <time>2016-06-22T12:21:10Z</time>
      </trkpt>
      <trkpt lat="43.40051" lon="6.07721">
        <ele>250.19999694824</ele>
        <time>2016-06-22T12:21:17Z</time>
      </trkpt>
      <trkpt lat="43.40045" lon="6.0773">
        <ele>250.39999389648</ele>
        <time>2016-06-22T12:21:20Z</time>
      </trkpt>
      <trkpt lat="43.4004" lon="6.07738">
        <ele>250.60000610352</ele>
        <time>2016-06-22T12:21:23Z</time>
      </trkpt>
      <trkpt lat="43.40032" lon="6.07762">
        <ele>250.80000305176</ele>
        <time>2016-06-22T12:21:30Z</time>
      </trkpt>
      <trkpt lat="43.40023" lon="6.07787">
        <ele>251.19999694824</ele>
        <time>2016-06-22T12:21:37Z</time>
      </trkpt>
      <trkpt lat="43.4002" lon="6.07799">
        <ele>251.19999694824</ele>
        <time>2016-06-22T12:21:40Z</time>
      </trkpt>
      <trkpt lat="43.4001" lon="6.07839">
        <ele>251.60000610352</ele>
        <time>2016-06-22T12:21:50Z</time>
      </trkpt>
      <trkpt lat="43.40004" lon="6.07856">
        <ele>251.60000610352</ele>
        <time>2016-06-22T12:21:54Z</time>
      </trkpt>
      <trkpt lat="43.39996" lon="6.07882">
        <ele>252.39999389648</ele>
        <time>2016-06-22T12:22:00Z</time>
      </trkpt>
      <trkpt lat="43.39994" lon="6.07898">
        <ele>252.60000610352</ele>
        <time>2016-06-22T12:22:03Z</time>
      </trkpt>
      <trkpt lat="43.3999" lon="6.07925">
        <ele>253.60000610352</ele>
        <time>2016-06-22T12:22:10Z</time>
      </trkpt>
      <trkpt lat="43.39988" lon="6.07932">
        <ele>253.80000305176</ele>
        <time>2016-06-22T12:22:12Z</time>
      </trkpt>
      <trkpt lat="43.39983" lon="6.07952">
        <ele>254.80000305176</ele>
        <time>2016-06-22T12:22:18Z</time>
      </trkpt>
      <trkpt lat="43.39982" lon="6.07958">
        <ele>255.19999694824</ele>
        <time>2016-06-22T12:22:20Z</time>
      </trkpt>
      <trkpt lat="43.39978" lon="6.07964">
        <ele>256</ele>
        <time>2016-06-22T12:22:23Z</time>
      </trkpt>
      <trkpt lat="43.39975" lon="6.07969">
        <ele>256.39999389648</ele>
        <time>2016-06-22T12:22:26Z</time>
      </trkpt>
      <trkpt lat="43.3997" lon="6.07972">
        <ele>256.60000610352</ele>
        <time>2016-06-22T12:22:30Z</time>
      </trkpt>
      <trkpt lat="43.3997" lon="6.07974">
        <ele>256.79998779297</ele>
        <time>2016-06-22T12:22:33Z</time>
      </trkpt>
      <trkpt lat="43.39968" lon="6.07978">
        <ele>257</ele>
        <time>2016-06-22T12:22:40Z</time>
      </trkpt>
      <trkpt lat="43.39964" lon="6.07983">
        <ele>257</ele>
        <time>2016-06-22T12:22:46Z</time>
      </trkpt>
      <trkpt lat="43.39957" lon="6.07987">
        <ele>257.60000610352</ele>
        <time>2016-06-22T12:22:50Z</time>
      </trkpt>
      <trkpt lat="43.39941" lon="6.07993">
        <ele>257.79998779297</ele>
        <time>2016-06-22T12:22:58Z</time>
      </trkpt>
      <trkpt lat="43.39936" lon="6.07995">
        <ele>257.79998779297</ele>
        <time>2016-06-22T12:23:00Z</time>
      </trkpt>
      <trkpt lat="43.39918" lon="6.08008">
        <ele>257.60000610352</ele>
        <time>2016-06-22T12:23:06Z</time>
      </trkpt>
      <trkpt lat="43.39906" lon="6.08023">
        <ele>256.79998779297</ele>
        <time>2016-06-22T12:23:10Z</time>
      </trkpt>
      <trkpt lat="43.39882" lon="6.08023">
        <ele>256.79998779297</ele>
        <time>2016-06-22T12:23:17Z</time>
      </trkpt>
      <trkpt lat="43.39851" lon="6.08001">
        <ele>256</ele>
        <time>2016-06-22T12:23:26Z</time>
      </trkpt>
      <trkpt lat="43.39834" lon="6.07995">
        <ele>256</ele>
        <time>2016-06-22T12:23:30Z</time>
      </trkpt>
      <trkpt lat="43.39806" lon="6.07983">
        <ele>256.39999389648</ele>
        <time>2016-06-22T12:23:40Z</time>
      </trkpt>
      <trkpt lat="43.39794" lon="6.07979">
        <ele>257.20001220703</ele>
        <time>2016-06-22T12:23:46Z</time>
      </trkpt>
      <trkpt lat="43.39783" lon="6.07974">
        <ele>258</ele>
        <time>2016-06-22T12:23:50Z</time>
      </trkpt>
      <trkpt lat="43.3978" lon="6.07973">
        <ele>258.20001220703</ele>
        <time>2016-06-22T12:23:51Z</time>
      </trkpt>
      <trkpt lat="43.39772" lon="6.07968">
        <ele>258.79998779297</ele>
        <time>2016-06-22T12:23:55Z</time>
      </trkpt>
      <trkpt lat="43.39762" lon="6.07962">
        <ele>259.39999389648</ele>
        <time>2016-06-22T12:24:00Z</time>
      </trkpt>
      <trkpt lat="43.39753" lon="6.07956">
        <ele>260.39999389648</ele>
        <time>2016-06-22T12:24:04Z</time>
      </trkpt>
      <trkpt lat="43.39751" lon="6.07955">
        <ele>260.60000610352</ele>
        <time>2016-06-22T12:24:05Z</time>
      </trkpt>
      <trkpt lat="43.39738" lon="6.07946">
        <ele>260.60000610352</ele>
        <time>2016-06-22T12:24:10Z</time>
      </trkpt>
      <trkpt lat="43.39726" lon="6.0793">
        <ele>261.60000610352</ele>
        <time>2016-06-22T12:24:17Z</time>
      </trkpt>
      <trkpt lat="43.39722" lon="6.07925">
        <ele>262.20001220703</ele>
        <time>2016-06-22T12:24:20Z</time>
      </trkpt>
      <trkpt lat="43.39718" lon="6.07918">
        <ele>262.79998779297</ele>
        <time>2016-06-22T12:24:23Z</time>
      </trkpt>
      <trkpt lat="43.39712" lon="6.07912">
        <ele>263.79998779297</ele>
        <time>2016-06-22T12:24:26Z</time>
      </trkpt>
      <trkpt lat="43.3971" lon="6.07909">
        <ele>264</ele>
        <time>2016-06-22T12:24:27Z</time>
      </trkpt>
      <trkpt lat="43.39705" lon="6.07903">
        <ele>264.60000610352</ele>
        <time>2016-06-22T12:24:30Z</time>
      </trkpt>
      <trkpt lat="43.397" lon="6.07897">
        <ele>265.20001220703</ele>
        <time>2016-06-22T12:24:33Z</time>
      </trkpt>
      <trkpt lat="43.39693" lon="6.07894">
        <ele>266.20001220703</ele>
        <time>2016-06-22T12:24:37Z</time>
      </trkpt>
      <trkpt lat="43.39687" lon="6.0789">
        <ele>266.60000610352</ele>
        <time>2016-06-22T12:24:40Z</time>
      </trkpt>
      <trkpt lat="43.39676" lon="6.07888">
        <ele>267.20001220703</ele>
        <time>2016-06-22T12:24:45Z</time>
      </trkpt>
      <trkpt lat="43.39664" lon="6.07885">
        <ele>267.60000610352</ele>
        <time>2016-06-22T12:24:50Z</time>
      </trkpt>
      <trkpt lat="43.39641" lon="6.07886">
        <ele>268.20001220703</ele>
        <time>2016-06-22T12:25:00Z</time>
      </trkpt>
      <trkpt lat="43.39638" lon="6.07886">
        <ele>268.39999389648</ele>
        <time>2016-06-22T12:25:01Z</time>
      </trkpt>
      <trkpt lat="43.39617" lon="6.07894">
        <ele>269.39999389648</ele>
        <time>2016-06-22T12:25:10Z</time>
      </trkpt>
      <trkpt lat="43.39604" lon="6.07899">
        <ele>270.39999389648</ele>
        <time>2016-06-22T12:25:16Z</time>
      </trkpt>
      <trkpt lat="43.39595" lon="6.079">
        <ele>271.60000610352</ele>
        <time>2016-06-22T12:25:20Z</time>
      </trkpt>
      <trkpt lat="43.39591" lon="6.07902">
        <ele>272.60000610352</ele>
        <time>2016-06-22T12:25:24Z</time>
      </trkpt>
      <trkpt lat="43.39585" lon="6.07908">
        <ele>273</ele>
        <time>2016-06-22T12:25:30Z</time>
      </trkpt>
      <trkpt lat="43.3958" lon="6.07916">
        <ele>273.79998779297</ele>
        <time>2016-06-22T12:25:36Z</time>
      </trkpt>
      <trkpt lat="43.3958" lon="6.07919">
        <ele>274</ele>
        <time>2016-06-22T12:25:40Z</time>
      </trkpt>
      <trkpt lat="43.3958" lon="6.07919">
        <ele>274</ele>
        <time>2016-06-22T12:25:42Z</time>
      </trkpt>
      <trkpt lat="43.3958" lon="6.07918">
        <ele>273.79998779297</ele>
        <time>2016-06-22T12:25:46Z</time>
      </trkpt>
      <trkpt lat="43.3958" lon="6.07918">
        <ele>273.79998779297</ele>
        <time>2016-06-22T12:25:50Z</time>
      </trkpt>
      <trkpt lat="43.39581" lon="6.07918">
        <ele>274</ele>
        <time>2016-06-22T12:25:54Z</time>
      </trkpt>
      <trkpt lat="43.39582" lon="6.07917">
        <ele>273.79998779297</ele>
        <time>2016-06-22T12:26:00Z</time>
      </trkpt>
      <trkpt lat="43.39582" lon="6.07915">
        <ele>273.79998779297</ele>
        <time>2016-06-22T12:26:05Z</time>
      </trkpt>
      <trkpt lat="43.39582" lon="6.07917">
        <ele>273.60000610352</ele>
        <time>2016-06-22T12:26:13Z</time>
      </trkpt>
      <trkpt lat="43.39583" lon="6.07918">
        <ele>273.60000610352</ele>
        <time>2016-06-22T12:26:16Z</time>
      </trkpt>
      <trkpt lat="43.39583" lon="6.07919">
        <ele>273.39999389648</ele>
        <time>2016-06-22T12:26:20Z</time>
      </trkpt>
      <trkpt lat="43.39579" lon="6.07916">
        <ele>274</ele>
        <time>2016-06-22T12:26:30Z</time>
      </trkpt>
      <trkpt lat="43.39579" lon="6.07915">
        <ele>274</ele>
        <time>2016-06-22T12:26:35Z</time>
      </trkpt>
      <trkpt lat="43.39577" lon="6.07919">
        <ele>273.79998779297</ele>
        <time>2016-06-22T12:26:40Z</time>
      </trkpt>
      <trkpt lat="43.39579" lon="6.07922">
        <ele>274</ele>
        <time>2016-06-22T12:26:50Z</time>
      </trkpt>
      <trkpt lat="43.39577" lon="6.07928">
        <ele>273.79998779297</ele>
        <time>2016-06-22T12:26:54Z</time>
      </trkpt>
      <trkpt lat="43.39573" lon="6.07931">
        <ele>274.20001220703</ele>
        <time>2016-06-22T12:26:57Z</time>
      </trkpt>
      <trkpt lat="43.39568" lon="6.07931">
        <ele>274.39999389648</ele>
        <time>2016-06-22T12:27:00Z</time>
      </trkpt>
      <trkpt lat="43.39565" lon="6.07931">
        <ele>274.79998779297</ele>
        <time>2016-06-22T12:27:02Z</time>
      </trkpt>
      <trkpt lat="43.3956" lon="6.07931">
        <ele>275.39999389648</ele>
        <time>2016-06-22T12:27:05Z</time>
      </trkpt>
      <trkpt lat="43.39553" lon="6.07932">
        <ele>275.79998779297</ele>
        <time>2016-06-22T12:27:08Z</time>
      </trkpt>
      <trkpt lat="43.39551" lon="6.07932">
        <ele>276</ele>
        <time>2016-06-22T12:27:09Z</time>
      </trkpt>
      <trkpt lat="43.39549" lon="6.07932">
        <ele>276.20001220703</ele>
        <time>2016-06-22T12:27:10Z</time>
      </trkpt>
      <trkpt lat="43.39544" lon="6.07935">
        <ele>276.79998779297</ele>
        <time>2016-06-22T12:27:14Z</time>
      </trkpt>
      <trkpt lat="43.39541" lon="6.07937">
        <ele>277</ele>
        <time>2016-06-22T12:27:16Z</time>
      </trkpt>
      <trkpt lat="43.39537" lon="6.07942">
        <ele>278</ele>
        <time>2016-06-22T12:27:20Z</time>
      </trkpt>
      <trkpt lat="43.39529" lon="6.07947">
        <ele>278.79998779297</ele>
        <time>2016-06-22T12:27:25Z</time>
      </trkpt>
      <trkpt lat="43.39525" lon="6.07948">
        <ele>279.20001220703</ele>
        <time>2016-06-22T12:27:28Z</time>
      </trkpt>
      <trkpt lat="43.39522" lon="6.07949">
        <ele>279.60000610352</ele>
        <time>2016-06-22T12:27:30Z</time>
      </trkpt>
      <trkpt lat="43.39516" lon="6.07952">
        <ele>280.39999389648</ele>
        <time>2016-06-22T12:27:34Z</time>
      </trkpt>
      <trkpt lat="43.39507" lon="6.07957">
        <ele>280.79998779297</ele>
        <time>2016-06-22T12:27:40Z</time>
      </trkpt>
      <trkpt lat="43.39501" lon="6.07959">
        <ele>281.39999389648</ele>
        <time>2016-06-22T12:27:45Z</time>
      </trkpt>
      <trkpt lat="43.39496" lon="6.07961">
        <ele>281.79998779297</ele>
        <time>2016-06-22T12:27:50Z</time>
      </trkpt>
      <trkpt lat="43.39494" lon="6.07961">
        <ele>281.79998779297</ele>
        <time>2016-06-22T12:27:56Z</time>
      </trkpt>
      <trkpt lat="43.39494" lon="6.07959">
        <ele>282</ele>
        <time>2016-06-22T12:28:00Z</time>
      </trkpt>
      <trkpt lat="43.39492" lon="6.07958">
        <ele>281.79998779297</ele>
        <time>2016-06-22T12:28:08Z</time>
      </trkpt>
      <trkpt lat="43.39491" lon="6.07958">
        <ele>281.60000610352</ele>
        <time>2016-06-22T12:28:10Z</time>
      </trkpt>
      <trkpt lat="43.39489" lon="6.07958">
        <ele>281.79998779297</ele>
        <time>2016-06-22T12:28:14Z</time>
      </trkpt>
      <trkpt lat="43.39489" lon="6.07958">
        <ele>281.79998779297</ele>
        <time>2016-06-22T12:28:17Z</time>
      </trkpt>
      <trkpt lat="43.3949" lon="6.07957">
        <ele>281.79998779297</ele>
        <time>2016-06-22T12:28:20Z</time>
      </trkpt>
      <trkpt lat="43.39492" lon="6.07957">
        <ele>281.79998779297</ele>
        <time>2016-06-22T12:28:23Z</time>
      </trkpt>
      <trkpt lat="43.39492" lon="6.07957">
        <ele>281.79998779297</ele>
        <time>2016-06-22T12:28:26Z</time>
      </trkpt>
      <trkpt lat="43.39491" lon="6.07958">
        <ele>281.60000610352</ele>
        <time>2016-06-22T12:28:30Z</time>
      </trkpt>
      <trkpt lat="43.39491" lon="6.07958">
        <ele>281.39999389648</ele>
        <time>2016-06-22T12:28:37Z</time>
      </trkpt>
      <trkpt lat="43.39491" lon="6.07959">
        <ele>281.39999389648</ele>
        <time>2016-06-22T12:28:40Z</time>
      </trkpt>
      <trkpt lat="43.39495" lon="6.07965">
        <ele>281.60000610352</ele>
        <time>2016-06-22T12:28:50Z</time>
      </trkpt>
      <trkpt lat="43.39491" lon="6.07964">
        <ele>282</ele>
        <time>2016-06-22T12:29:00Z</time>
      </trkpt>
      <trkpt lat="43.39487" lon="6.07961">
        <ele>282</ele>
        <time>2016-06-22T12:29:10Z</time>
      </trkpt>
      <trkpt lat="43.39484" lon="6.07962">
        <ele>281.79998779297</ele>
        <time>2016-06-22T12:29:14Z</time>
      </trkpt>
      <trkpt lat="43.39483" lon="6.07962">
        <ele>282.20001220703</ele>
        <time>2016-06-22T12:29:15Z</time>
      </trkpt>
      <trkpt lat="43.39479" lon="6.07955">
        <ele>281.79998779297</ele>
        <time>2016-06-22T12:29:20Z</time>
      </trkpt>
      <trkpt lat="43.39479" lon="6.07954">
        <ele>282</ele>
        <time>2016-06-22T12:29:21Z</time>
      </trkpt>
      <trkpt lat="43.39479" lon="6.07959">
        <ele>282.20001220703</ele>
        <time>2016-06-22T12:29:30Z</time>
      </trkpt>
      <trkpt lat="43.39481" lon="6.07961">
        <ele>282.20001220703</ele>
        <time>2016-06-22T12:29:40Z</time>
      </trkpt>
      <trkpt lat="43.39482" lon="6.07961">
        <ele>282.20001220703</ele>
        <time>2016-06-22T12:29:50Z</time>
      </trkpt>
      <trkpt lat="43.39481" lon="6.07958">
        <ele>282</ele>
        <time>2016-06-22T12:30:00Z</time>
      </trkpt>
      <trkpt lat="43.39482" lon="6.07957">
        <ele>281.60000610352</ele>
        <time>2016-06-22T12:30:09Z</time>
      </trkpt>
      <trkpt lat="43.39483" lon="6.07958">
        <ele>281.60000610352</ele>
        <time>2016-06-22T12:30:10Z</time>
      </trkpt>
      <trkpt lat="43.39483" lon="6.07958">
        <ele>281.79998779297</ele>
        <time>2016-06-22T12:30:15Z</time>
      </trkpt>
      <trkpt lat="43.39483" lon="6.07959">
        <ele>282</ele>
        <time>2016-06-22T12:30:20Z</time>
      </trkpt>
      <trkpt lat="43.39485" lon="6.07961">
        <ele>281.79998779297</ele>
        <time>2016-06-22T12:30:30Z</time>
      </trkpt>
      <trkpt lat="43.39486" lon="6.07962">
        <ele>281.79998779297</ele>
        <time>2016-06-22T12:30:40Z</time>
      </trkpt>
      <trkpt lat="43.39484" lon="6.07967">
        <ele>281.79998779297</ele>
        <time>2016-06-22T12:30:50Z</time>
      </trkpt>
      <trkpt lat="43.39483" lon="6.07968">
        <ele>281.79998779297</ele>
        <time>2016-06-22T12:30:59Z</time>
      </trkpt>
      <trkpt lat="43.39482" lon="6.07968">
        <ele>281.79998779297</ele>
        <time>2016-06-22T12:31:10Z</time>
      </trkpt>
      <trkpt lat="43.39484" lon="6.07967">
        <ele>281.79998779297</ele>
        <time>2016-06-22T12:31:20Z</time>
      </trkpt>
      <trkpt lat="43.39482" lon="6.07965">
        <ele>281.79998779297</ele>
        <time>2016-06-22T12:31:30Z</time>
      </trkpt>
      <trkpt lat="43.39483" lon="6.07964">
        <ele>281.79998779297</ele>
        <time>2016-06-22T12:31:40Z</time>
      </trkpt>
      <trkpt lat="43.39482" lon="6.07965">
        <ele>281.79998779297</ele>
        <time>2016-06-22T12:31:50Z</time>
      </trkpt>
      <trkpt lat="43.39478" lon="6.07962">
        <ele>281.79998779297</ele>
        <time>2016-06-22T12:32:00Z</time>
      </trkpt>
      <trkpt lat="43.39475" lon="6.0796">
        <ele>281.79998779297</ele>
        <time>2016-06-22T12:32:10Z</time>
      </trkpt>
      <trkpt lat="43.39475" lon="6.07962">
        <ele>281.79998779297</ele>
        <time>2016-06-22T12:32:20Z</time>
      </trkpt>
      <trkpt lat="43.39477" lon="6.07963">
        <ele>281.79998779297</ele>
        <time>2016-06-22T12:32:30Z</time>
      </trkpt>
      <trkpt lat="43.39478" lon="6.07965">
        <ele>281.79998779297</ele>
        <time>2016-06-22T12:32:40Z</time>
      </trkpt>
      <trkpt lat="43.39478" lon="6.07965">
        <ele>281.79998779297</ele>
        <time>2016-06-22T12:32:50Z</time>
      </trkpt>
      <trkpt lat="43.39483" lon="6.07965">
        <ele>281.79998779297</ele>
        <time>2016-06-22T12:33:00Z</time>
      </trkpt>
      <trkpt lat="43.39484" lon="6.07964">
        <ele>281.79998779297</ele>
        <time>2016-06-22T12:33:10Z</time>
      </trkpt>
      <trkpt lat="43.39487" lon="6.07965">
        <ele>281.79998779297</ele>
        <time>2016-06-22T12:33:20Z</time>
      </trkpt>
      <trkpt lat="43.39487" lon="6.07963">
        <ele>281.79998779297</ele>
        <time>2016-06-22T12:33:30Z</time>
      </trkpt>
      <trkpt lat="43.39485" lon="6.07959">
        <ele>281.79998779297</ele>
        <time>2016-06-22T12:33:40Z</time>
      </trkpt>
      <trkpt lat="43.39481" lon="6.07957">
        <ele>281.79998779297</ele>
        <time>2016-06-22T12:33:50Z</time>
      </trkpt>
      <trkpt lat="43.39483" lon="6.07956">
        <ele>281.79998779297</ele>
        <time>2016-06-22T12:34:00Z</time>
      </trkpt>
      <trkpt lat="43.39479" lon="6.07954">
        <ele>281.79998779297</ele>
        <time>2016-06-22T12:34:10Z</time>
      </trkpt>
      <trkpt lat="43.39479" lon="6.07953">
        <ele>281.79998779297</ele>
        <time>2016-06-22T12:34:20Z</time>
      </trkpt>
      <trkpt lat="43.39478" lon="6.07958">
        <ele>281.79998779297</ele>
        <time>2016-06-22T12:34:30Z</time>
      </trkpt>
      <trkpt lat="43.39478" lon="6.07964">
        <ele>281.79998779297</ele>
        <time>2016-06-22T12:34:40Z</time>
      </trkpt>
      <trkpt lat="43.39479" lon="6.07965">
        <ele>281.79998779297</ele>
        <time>2016-06-22T12:34:50Z</time>
      </trkpt>
      <trkpt lat="43.39479" lon="6.0796">
        <ele>281.79998779297</ele>
        <time>2016-06-22T12:35:00Z</time>
      </trkpt>
      <trkpt lat="43.39482" lon="6.07959">
        <ele>281.79998779297</ele>
        <time>2016-06-22T12:35:10Z</time>
      </trkpt>
      <trkpt lat="43.39487" lon="6.07962">
        <ele>281.79998779297</ele>
        <time>2016-06-22T12:35:15Z</time>
      </trkpt>
      <trkpt lat="43.39483" lon="6.07962">
        <ele>281.79998779297</ele>
        <time>2016-06-22T12:35:20Z</time>
      </trkpt>
      <trkpt lat="43.3948" lon="6.07962">
        <ele>281.79998779297</ele>
        <time>2016-06-22T12:35:30Z</time>
      </trkpt>
      <trkpt lat="43.3948" lon="6.07961">
        <ele>281.79998779297</ele>
        <time>2016-06-22T12:35:38Z</time>
      </trkpt>
      <trkpt lat="43.3948" lon="6.07961">
        <ele>281.79998779297</ele>
        <time>2016-06-22T12:35:40Z</time>
      </trkpt>
      <trkpt lat="43.3948" lon="6.07961">
        <ele>281.79998779297</ele>
        <time>2016-06-22T12:35:44Z</time>
      </trkpt>
      <trkpt lat="43.3948" lon="6.0796">
        <ele>281.79998779297</ele>
        <time>2016-06-22T12:35:50Z</time>
      </trkpt>
      <trkpt lat="43.39478" lon="6.07957">
        <ele>281.60000610352</ele>
        <time>2016-06-22T12:36:00Z</time>
      </trkpt>
      <trkpt lat="43.39478" lon="6.07954">
        <ele>281.39999389648</ele>
        <time>2016-06-22T12:36:04Z</time>
      </trkpt>
      <trkpt lat="43.39477" lon="6.07953">
        <ele>281.39999389648</ele>
        <time>2016-06-22T12:36:10Z</time>
      </trkpt>
      <trkpt lat="43.3947" lon="6.07932">
        <ele>281.39999389648</ele>
        <time>2016-06-22T12:36:20Z</time>
      </trkpt>
      <trkpt lat="43.39468" lon="6.07918">
        <ele>282.20001220703</ele>
        <time>2016-06-22T12:36:30Z</time>
      </trkpt>
      <trkpt lat="43.39466" lon="6.07912">
        <ele>282.60000610352</ele>
        <time>2016-06-22T12:36:33Z</time>
      </trkpt>
      <trkpt lat="43.39464" lon="6.07903">
        <ele>283</ele>
        <time>2016-06-22T12:36:38Z</time>
      </trkpt>
      <trkpt lat="43.39463" lon="6.079">
        <ele>283.39999389648</ele>
        <time>2016-06-22T12:36:40Z</time>
      </trkpt>
      <trkpt lat="43.39463" lon="6.07898">
        <ele>283.60000610352</ele>
        <time>2016-06-22T12:36:41Z</time>
      </trkpt>
      <trkpt lat="43.3946" lon="6.07894">
        <ele>283.79998779297</ele>
        <time>2016-06-22T12:36:45Z</time>
      </trkpt>
      <trkpt lat="43.39457" lon="6.07894">
        <ele>284.60000610352</ele>
        <time>2016-06-22T12:36:48Z</time>
      </trkpt>
      <trkpt lat="43.39454" lon="6.07896">
        <ele>285</ele>
        <time>2016-06-22T12:36:50Z</time>
      </trkpt>
      <trkpt lat="43.39452" lon="6.07899">
        <ele>286.20001220703</ele>
        <time>2016-06-22T12:36:53Z</time>
      </trkpt>
      <trkpt lat="43.39449" lon="6.07899">
        <ele>286.79998779297</ele>
        <time>2016-06-22T12:36:55Z</time>
      </trkpt>
      <trkpt lat="43.39448" lon="6.07899">
        <ele>287</ele>
        <time>2016-06-22T12:36:56Z</time>
      </trkpt>
      <trkpt lat="43.39446" lon="6.07898">
        <ele>288</ele>
        <time>2016-06-22T12:36:59Z</time>
      </trkpt>
      <trkpt lat="43.39445" lon="6.07898">
        <ele>288.20001220703</ele>
        <time>2016-06-22T12:37:00Z</time>
      </trkpt>
      <trkpt lat="43.39445" lon="6.07898">
        <ele>288.39999389648</ele>
        <time>2016-06-22T12:37:02Z</time>
      </trkpt>
      <trkpt lat="43.39445" lon="6.07898">
        <ele>288.39999389648</ele>
        <time>2016-06-22T12:37:10Z</time>
      </trkpt>
      <trkpt lat="43.39445" lon="6.07898">
        <ele>288</ele>
        <time>2016-06-22T12:37:15Z</time>
      </trkpt>
      <trkpt lat="43.39445" lon="6.07899">
        <ele>288</ele>
        <time>2016-06-22T12:37:20Z</time>
      </trkpt>
      <trkpt lat="43.39447" lon="6.07896">
        <ele>288</ele>
        <time>2016-06-22T12:37:30Z</time>
      </trkpt>
      <trkpt lat="43.39449" lon="6.07894">
        <ele>287.79998779297</ele>
        <time>2016-06-22T12:37:38Z</time>
      </trkpt>
      <trkpt lat="43.39449" lon="6.07894">
        <ele>288</ele>
        <time>2016-06-22T12:37:40Z</time>
      </trkpt>
      <trkpt lat="43.39449" lon="6.07894">
        <ele>288</ele>
        <time>2016-06-22T12:37:43Z</time>
      </trkpt>
      <trkpt lat="43.39449" lon="6.07893">
        <ele>288</ele>
        <time>2016-06-22T12:37:50Z</time>
      </trkpt>
      <trkpt lat="43.39448" lon="6.07892">
        <ele>288</ele>
        <time>2016-06-22T12:37:53Z</time>
      </trkpt>
      <trkpt lat="43.39448" lon="6.07892">
        <ele>288</ele>
        <time>2016-06-22T12:37:57Z</time>
      </trkpt>
      <trkpt lat="43.39448" lon="6.07892">
        <ele>288.20001220703</ele>
        <time>2016-06-22T12:38:00Z</time>
      </trkpt>
      <trkpt lat="43.39447" lon="6.07891">
        <ele>288.20001220703</ele>
        <time>2016-06-22T12:38:06Z</time>
      </trkpt>
      <trkpt lat="43.39447" lon="6.07891">
        <ele>287.79998779297</ele>
        <time>2016-06-22T12:38:10Z</time>
      </trkpt>
      <trkpt lat="43.39446" lon="6.07892">
        <ele>287.79998779297</ele>
        <time>2016-06-22T12:38:14Z</time>
      </trkpt>
      <trkpt lat="43.39444" lon="6.07893">
        <ele>287.60000610352</ele>
        <time>2016-06-22T12:38:18Z</time>
      </trkpt>
      <trkpt lat="43.39444" lon="6.07893">
        <ele>287.60000610352</ele>
        <time>2016-06-22T12:38:20Z</time>
      </trkpt>
      <trkpt lat="43.39443" lon="6.07893">
        <ele>287.39999389648</ele>
        <time>2016-06-22T12:38:25Z</time>
      </trkpt>
      <trkpt lat="43.39444" lon="6.07895">
        <ele>287.39999389648</ele>
        <time>2016-06-22T12:38:30Z</time>
      </trkpt>
      <trkpt lat="43.39444" lon="6.07897">
        <ele>288</ele>
        <time>2016-06-22T12:38:40Z</time>
      </trkpt>
      <trkpt lat="43.39444" lon="6.07896">
        <ele>288</ele>
        <time>2016-06-22T12:38:50Z</time>
      </trkpt>
      <trkpt lat="43.39444" lon="6.07892">
        <ele>287.39999389648</ele>
        <time>2016-06-22T12:39:06Z</time>
      </trkpt>
      <trkpt lat="43.39444" lon="6.07893">
        <ele>287.39999389648</ele>
        <time>2016-06-22T12:39:10Z</time>
      </trkpt>
      <trkpt lat="43.39442" lon="6.07896">
        <ele>287.39999389648</ele>
        <time>2016-06-22T12:39:20Z</time>
      </trkpt>
      <trkpt lat="43.39444" lon="6.07901">
        <ele>287.39999389648</ele>
        <time>2016-06-22T12:39:30Z</time>
      </trkpt>
      <trkpt lat="43.39441" lon="6.07925">
        <ele>287.60000610352</ele>
        <time>2016-06-22T12:39:40Z</time>
      </trkpt>
      <trkpt lat="43.39431" lon="6.07949">
        <ele>287</ele>
        <time>2016-06-22T12:39:46Z</time>
      </trkpt>
      <trkpt lat="43.3942" lon="6.07959">
        <ele>286.79998779297</ele>
        <time>2016-06-22T12:39:50Z</time>
      </trkpt>
      <trkpt lat="43.39407" lon="6.07962">
        <ele>287</ele>
        <time>2016-06-22T12:39:54Z</time>
      </trkpt>
      <trkpt lat="43.39401" lon="6.07961">
        <ele>287.39999389648</ele>
        <time>2016-06-22T12:39:56Z</time>
      </trkpt>
      <trkpt lat="43.39396" lon="6.07961">
        <ele>288.39999389648</ele>
        <time>2016-06-22T12:39:58Z</time>
      </trkpt>
      <trkpt lat="43.39392" lon="6.07961">
        <ele>289.39999389648</ele>
        <time>2016-06-22T12:40:00Z</time>
      </trkpt>
      <trkpt lat="43.39389" lon="6.07962">
        <ele>289.60000610352</ele>
        <time>2016-06-22T12:40:01Z</time>
      </trkpt>
      <trkpt lat="43.39378" lon="6.07981">
        <ele>289.60000610352</ele>
        <time>2016-06-22T12:40:10Z</time>
      </trkpt>
      <trkpt lat="43.39381" lon="6.07999">
        <ele>288.39999389648</ele>
        <time>2016-06-22T12:40:15Z</time>
      </trkpt>
      <trkpt lat="43.39386" lon="6.08001">
        <ele>287.79998779297</ele>
        <time>2016-06-22T12:40:19Z</time>
      </trkpt>
      <trkpt lat="43.39386" lon="6.08001">
        <ele>288</ele>
        <time>2016-06-22T12:40:20Z</time>
      </trkpt>
      <trkpt lat="43.39384" lon="6.08003">
        <ele>287.79998779297</ele>
        <time>2016-06-22T12:40:30Z</time>
      </trkpt>
      <trkpt lat="43.39389" lon="6.08005">
        <ele>287.79998779297</ele>
        <time>2016-06-22T12:40:37Z</time>
      </trkpt>
      <trkpt lat="43.39393" lon="6.08002">
        <ele>287.20001220703</ele>
        <time>2016-06-22T12:40:40Z</time>
      </trkpt>
      <trkpt lat="43.39398" lon="6.07997">
        <ele>286.20001220703</ele>
        <time>2016-06-22T12:40:42Z</time>
      </trkpt>
      <trkpt lat="43.3941" lon="6.07992">
        <ele>285.20001220703</ele>
        <time>2016-06-22T12:40:45Z</time>
      </trkpt>
      <trkpt lat="43.39418" lon="6.07988">
        <ele>285</ele>
        <time>2016-06-22T12:40:47Z</time>
      </trkpt>
      <trkpt lat="43.39432" lon="6.07983">
        <ele>284.60000610352</ele>
        <time>2016-06-22T12:40:50Z</time>
      </trkpt>
      <trkpt lat="43.39435" lon="6.07983">
        <ele>284.39999389648</ele>
        <time>2016-06-22T12:40:51Z</time>
      </trkpt>
      <trkpt lat="43.39433" lon="6.07984">
        <ele>284.39999389648</ele>
        <time>2016-06-22T12:40:54Z</time>
      </trkpt>
      <trkpt lat="43.39427" lon="6.07991">
        <ele>285.60000610352</ele>
        <time>2016-06-22T12:40:59Z</time>
      </trkpt>
      <trkpt lat="43.39426" lon="6.07992">
        <ele>285.60000610352</ele>
        <time>2016-06-22T12:41:00Z</time>
      </trkpt>
      <trkpt lat="43.3942" lon="6.07996">
        <ele>286</ele>
        <time>2016-06-22T12:41:04Z</time>
      </trkpt>
      <trkpt lat="43.39418" lon="6.07998">
        <ele>286.39999389648</ele>
        <time>2016-06-22T12:41:05Z</time>
      </trkpt>
      <trkpt lat="43.39413" lon="6.08002">
        <ele>287.79998779297</ele>
        <time>2016-06-22T12:41:08Z</time>
      </trkpt>
      <trkpt lat="43.39408" lon="6.08002">
        <ele>288.39999389648</ele>
        <time>2016-06-22T12:41:10Z</time>
      </trkpt>
      <trkpt lat="43.39402" lon="6.08004">
        <ele>288.79998779297</ele>
        <time>2016-06-22T12:41:13Z</time>
      </trkpt>
      <trkpt lat="43.39401" lon="6.08005">
        <ele>289</ele>
        <time>2016-06-22T12:41:14Z</time>
      </trkpt>
      <trkpt lat="43.39397" lon="6.08009">
        <ele>289.39999389648</ele>
        <time>2016-06-22T12:41:18Z</time>
      </trkpt>
      <trkpt lat="43.39397" lon="6.0801">
        <ele>289.60000610352</ele>
        <time>2016-06-22T12:41:19Z</time>
      </trkpt>
      <trkpt lat="43.39397" lon="6.08011">
        <ele>290</ele>
        <time>2016-06-22T12:41:20Z</time>
      </trkpt>
      <trkpt lat="43.39398" lon="6.08012">
        <ele>290.79998779297</ele>
        <time>2016-06-22T12:41:22Z</time>
      </trkpt>
      <trkpt lat="43.39397" lon="6.08014">
        <ele>291.20001220703</ele>
        <time>2016-06-22T12:41:23Z</time>
      </trkpt>
      <trkpt lat="43.39397" lon="6.08014">
        <ele>291.60000610352</ele>
        <time>2016-06-22T12:41:25Z</time>
      </trkpt>
      <trkpt lat="43.39397" lon="6.08015">
        <ele>292</ele>
        <time>2016-06-22T12:41:30Z</time>
      </trkpt>
      <trkpt lat="43.39396" lon="6.08014">
        <ele>291.79998779297</ele>
        <time>2016-06-22T12:41:33Z</time>
      </trkpt>
      <trkpt lat="43.39395" lon="6.08012">
        <ele>291.60000610352</ele>
        <time>2016-06-22T12:41:36Z</time>
      </trkpt>
      <trkpt lat="43.39394" lon="6.08011">
        <ele>291.39999389648</ele>
        <time>2016-06-22T12:41:39Z</time>
      </trkpt>
      <trkpt lat="43.39393" lon="6.08011">
        <ele>291.39999389648</ele>
        <time>2016-06-22T12:41:40Z</time>
      </trkpt>
      <trkpt lat="43.39394" lon="6.08015">
        <ele>291.60000610352</ele>
        <time>2016-06-22T12:41:50Z</time>
      </trkpt>
      <trkpt lat="43.39394" lon="6.08013">
        <ele>291.79998779297</ele>
        <time>2016-06-22T12:42:00Z</time>
      </trkpt>
      <trkpt lat="43.39393" lon="6.08011">
        <ele>291.60000610352</ele>
        <time>2016-06-22T12:42:03Z</time>
      </trkpt>
      <trkpt lat="43.39392" lon="6.0801">
        <ele>291.39999389648</ele>
        <time>2016-06-22T12:42:07Z</time>
      </trkpt>
      <trkpt lat="43.39393" lon="6.08011">
        <ele>291.60000610352</ele>
        <time>2016-06-22T12:42:10Z</time>
      </trkpt>
      <trkpt lat="43.39394" lon="6.08014">
        <ele>291.60000610352</ele>
        <time>2016-06-22T12:42:15Z</time>
      </trkpt>
      <trkpt lat="43.39396" lon="6.08013">
        <ele>291.20001220703</ele>
        <time>2016-06-22T12:42:20Z</time>
      </trkpt>
      <trkpt lat="43.39394" lon="6.08011">
        <ele>291.39999389648</ele>
        <time>2016-06-22T12:42:28Z</time>
      </trkpt>
      <trkpt lat="43.39393" lon="6.0801">
        <ele>291.39999389648</ele>
        <time>2016-06-22T12:42:30Z</time>
      </trkpt>
      <trkpt lat="43.39392" lon="6.08008">
        <ele>291.20001220703</ele>
        <time>2016-06-22T12:42:34Z</time>
      </trkpt>
      <trkpt lat="43.39391" lon="6.08011">
        <ele>291.39999389648</ele>
        <time>2016-06-22T12:42:40Z</time>
      </trkpt>
      <trkpt lat="43.39393" lon="6.08014">
        <ele>291.79998779297</ele>
        <time>2016-06-22T12:42:50Z</time>
      </trkpt>
      <trkpt lat="43.39393" lon="6.08014">
        <ele>291.60000610352</ele>
        <time>2016-06-22T12:42:57Z</time>
      </trkpt>
      <trkpt lat="43.39393" lon="6.08014">
        <ele>291.39999389648</ele>
        <time>2016-06-22T12:43:00Z</time>
      </trkpt>
      <trkpt lat="43.39396" lon="6.08016">
        <ele>291.39999389648</ele>
        <time>2016-06-22T12:43:10Z</time>
      </trkpt>
      <trkpt lat="43.39397" lon="6.08015">
        <ele>291.60000610352</ele>
        <time>2016-06-22T12:43:20Z</time>
      </trkpt>
      <trkpt lat="43.39396" lon="6.08018">
        <ele>291.39999389648</ele>
        <time>2016-06-22T12:43:30Z</time>
      </trkpt>
      <trkpt lat="43.39396" lon="6.08018">
        <ele>291.39999389648</ele>
        <time>2016-06-22T12:43:40Z</time>
      </trkpt>
      <trkpt lat="43.39395" lon="6.08017">
        <ele>291.39999389648</ele>
        <time>2016-06-22T12:43:45Z</time>
      </trkpt>
      <trkpt lat="43.39393" lon="6.08016">
        <ele>291.39999389648</ele>
        <time>2016-06-22T12:43:50Z</time>
      </trkpt>
      <trkpt lat="43.39393" lon="6.08015">
        <ele>291.39999389648</ele>
        <time>2016-06-22T12:44:00Z</time>
      </trkpt>
      <trkpt lat="43.39394" lon="6.08015">
        <ele>291.39999389648</ele>
        <time>2016-06-22T12:44:03Z</time>
      </trkpt>
      <trkpt lat="43.39394" lon="6.08014">
        <ele>291.39999389648</ele>
        <time>2016-06-22T12:44:10Z</time>
      </trkpt>
      <trkpt lat="43.39392" lon="6.08012">
        <ele>291.39999389648</ele>
        <time>2016-06-22T12:44:20Z</time>
      </trkpt>
      <trkpt lat="43.39392" lon="6.08012">
        <ele>291.39999389648</ele>
        <time>2016-06-22T12:44:25Z</time>
      </trkpt>
      <trkpt lat="43.39393" lon="6.08014">
        <ele>291.39999389648</ele>
        <time>2016-06-22T12:44:30Z</time>
      </trkpt>
      <trkpt lat="43.39392" lon="6.08012">
        <ele>291.39999389648</ele>
        <time>2016-06-22T12:44:40Z</time>
      </trkpt>
      <trkpt lat="43.39393" lon="6.08012">
        <ele>291.39999389648</ele>
        <time>2016-06-22T12:44:50Z</time>
      </trkpt>
      <trkpt lat="43.39392" lon="6.0801">
        <ele>291.39999389648</ele>
        <time>2016-06-22T12:44:52Z</time>
      </trkpt>
      <trkpt lat="43.39391" lon="6.08009">
        <ele>290</ele>
        <time>2016-06-22T12:44:53Z</time>
      </trkpt>
      <trkpt lat="43.39387" lon="6.08007">
        <ele>288.20001220703</ele>
        <time>2016-06-22T12:44:55Z</time>
      </trkpt>
      <trkpt lat="43.39381" lon="6.07996">
        <ele>287.79998779297</ele>
        <time>2016-06-22T12:45:00Z</time>
      </trkpt>
      <trkpt lat="43.39387" lon="6.08001">
        <ele>287.60000610352</ele>
        <time>2016-06-22T12:45:10Z</time>
      </trkpt>
      <trkpt lat="43.39389" lon="6.08004">
        <ele>287.20001220703</ele>
        <time>2016-06-22T12:45:13Z</time>
      </trkpt>
      <trkpt lat="43.39392" lon="6.08005">
        <ele>286.79998779297</ele>
        <time>2016-06-22T12:45:20Z</time>
      </trkpt>
      <trkpt lat="43.3939" lon="6.0801">
        <ele>287</ele>
        <time>2016-06-22T12:45:30Z</time>
      </trkpt>
      <trkpt lat="43.39392" lon="6.08011">
        <ele>286.79998779297</ele>
        <time>2016-06-22T12:45:40Z</time>
      </trkpt>
      <trkpt lat="43.39392" lon="6.08011">
        <ele>286.79998779297</ele>
        <time>2016-06-22T12:45:50Z</time>
      </trkpt>
      <trkpt lat="43.39392" lon="6.0801">
        <ele>287</ele>
        <time>2016-06-22T12:46:00Z</time>
      </trkpt>
      <trkpt lat="43.39391" lon="6.08012">
        <ele>287</ele>
        <time>2016-06-22T12:46:03Z</time>
      </trkpt>
      <trkpt lat="43.39387" lon="6.08013">
        <ele>287.20001220703</ele>
        <time>2016-06-22T12:46:10Z</time>
      </trkpt>
      <trkpt lat="43.39389" lon="6.08011">
        <ele>287.20001220703</ele>
        <time>2016-06-22T12:46:15Z</time>
      </trkpt>
      <trkpt lat="43.39388" lon="6.08011">
        <ele>287.20001220703</ele>
        <time>2016-06-22T12:46:20Z</time>
      </trkpt>
      <trkpt lat="43.39385" lon="6.08008">
        <ele>287.39999389648</ele>
        <time>2016-06-22T12:46:30Z</time>
      </trkpt>
      <trkpt lat="43.39383" lon="6.08006">
        <ele>287.60000610352</ele>
        <time>2016-06-22T12:46:40Z</time>
      </trkpt>
      <trkpt lat="43.39387" lon="6.08011">
        <ele>287.60000610352</ele>
        <time>2016-06-22T12:46:50Z</time>
      </trkpt>
      <trkpt lat="43.39387" lon="6.08011">
        <ele>287.60000610352</ele>
        <time>2016-06-22T12:46:56Z</time>
      </trkpt>
      <trkpt lat="43.3939" lon="6.08013">
        <ele>288</ele>
        <time>2016-06-22T12:47:00Z</time>
      </trkpt>
      <trkpt lat="43.39391" lon="6.08013">
        <ele>288.39999389648</ele>
        <time>2016-06-22T12:47:01Z</time>
      </trkpt>
      <trkpt lat="43.39391" lon="6.08013">
        <ele>288.60000610352</ele>
        <time>2016-06-22T12:47:02Z</time>
      </trkpt>
      <trkpt lat="43.39392" lon="6.08014">
        <ele>288.79998779297</ele>
        <time>2016-06-22T12:47:05Z</time>
      </trkpt>
      <trkpt lat="43.39394" lon="6.08012">
        <ele>289</ele>
        <time>2016-06-22T12:47:10Z</time>
      </trkpt>
      <trkpt lat="43.39396" lon="6.08012">
        <ele>289.39999389648</ele>
        <time>2016-06-22T12:47:16Z</time>
      </trkpt>
      <trkpt lat="43.39396" lon="6.08011">
        <ele>289.39999389648</ele>
        <time>2016-06-22T12:47:20Z</time>
      </trkpt>
      <trkpt lat="43.394" lon="6.08013">
        <ele>289.60000610352</ele>
        <time>2016-06-22T12:47:27Z</time>
      </trkpt>
      <trkpt lat="43.39399" lon="6.08013">
        <ele>290</ele>
        <time>2016-06-22T12:47:30Z</time>
      </trkpt>
      <trkpt lat="43.394" lon="6.08012">
        <ele>290.20001220703</ele>
        <time>2016-06-22T12:47:40Z</time>
      </trkpt>
      <trkpt lat="43.39399" lon="6.0801">
        <ele>289.20001220703</ele>
        <time>2016-06-22T12:47:50Z</time>
      </trkpt>
      <trkpt lat="43.39399" lon="6.0801">
        <ele>289</ele>
        <time>2016-06-22T12:47:54Z</time>
      </trkpt>
      <trkpt lat="43.39399" lon="6.08008">
        <ele>289</ele>
        <time>2016-06-22T12:47:57Z</time>
      </trkpt>
      <trkpt lat="43.39396" lon="6.08009">
        <ele>288.79998779297</ele>
        <time>2016-06-22T12:48:00Z</time>
      </trkpt>
      <trkpt lat="43.39388" lon="6.08011">
        <ele>288.39999389648</ele>
        <time>2016-06-22T12:48:05Z</time>
      </trkpt>
      <trkpt lat="43.39384" lon="6.08007">
        <ele>287.79998779297</ele>
        <time>2016-06-22T12:48:08Z</time>
      </trkpt>
      <trkpt lat="43.39386" lon="6.08006">
        <ele>287.79998779297</ele>
        <time>2016-06-22T12:48:10Z</time>
      </trkpt>
      <trkpt lat="43.39386" lon="6.08004">
        <ele>287.60000610352</ele>
        <time>2016-06-22T12:48:13Z</time>
      </trkpt>
      <trkpt lat="43.39382" lon="6.08001">
        <ele>287.60000610352</ele>
        <time>2016-06-22T12:48:20Z</time>
      </trkpt>
      <trkpt lat="43.39382" lon="6.07995">
        <ele>287.39999389648</ele>
        <time>2016-06-22T12:48:25Z</time>
      </trkpt>
      <trkpt lat="43.39381" lon="6.07999">
        <ele>287.39999389648</ele>
        <time>2016-06-22T12:48:30Z</time>
      </trkpt>
      <trkpt lat="43.39384" lon="6.07987">
        <ele>287.60000610352</ele>
        <time>2016-06-22T12:48:40Z</time>
      </trkpt>
      <trkpt lat="43.39394" lon="6.07981">
        <ele>287.39999389648</ele>
        <time>2016-06-22T12:48:50Z</time>
      </trkpt>
      <trkpt lat="43.39396" lon="6.07982">
        <ele>287.20001220703</ele>
        <time>2016-06-22T12:48:51Z</time>
      </trkpt>
      <trkpt lat="43.3941" lon="6.07976">
        <ele>286</ele>
        <time>2016-06-22T12:48:56Z</time>
      </trkpt>
      <trkpt lat="43.39423" lon="6.07973">
        <ele>285.20001220703</ele>
        <time>2016-06-22T12:49:00Z</time>
      </trkpt>
      <trkpt lat="43.39431" lon="6.07969">
        <ele>284.79998779297</ele>
        <time>2016-06-22T12:49:04Z</time>
      </trkpt>
      <trkpt lat="43.3944" lon="6.07962">
        <ele>283.79998779297</ele>
        <time>2016-06-22T12:49:07Z</time>
      </trkpt>
      <trkpt lat="43.39445" lon="6.07956">
        <ele>282.79998779297</ele>
        <time>2016-06-22T12:49:09Z</time>
      </trkpt>
      <trkpt lat="43.39447" lon="6.07954">
        <ele>282.60000610352</ele>
        <time>2016-06-22T12:49:10Z</time>
      </trkpt>
      <trkpt lat="43.39464" lon="6.07949">
        <ele>282.79998779297</ele>
        <time>2016-06-22T12:49:16Z</time>
      </trkpt>
      <trkpt lat="43.39471" lon="6.07955">
        <ele>282.20001220703</ele>
        <time>2016-06-22T12:49:20Z</time>
      </trkpt>
      <trkpt lat="43.39474" lon="6.07958">
        <ele>281.79998779297</ele>
        <time>2016-06-22T12:49:23Z</time>
      </trkpt>
      <trkpt lat="43.39478" lon="6.07961">
        <ele>281.60000610352</ele>
        <time>2016-06-22T12:49:25Z</time>
      </trkpt>
      <trkpt lat="43.3948" lon="6.07959">
        <ele>281.20001220703</ele>
        <time>2016-06-22T12:49:30Z</time>
      </trkpt>
      <trkpt lat="43.39481" lon="6.07956">
        <ele>281.79998779297</ele>
        <time>2016-06-22T12:49:40Z</time>
      </trkpt>
      <trkpt lat="43.39481" lon="6.07955">
        <ele>281.79998779297</ele>
        <time>2016-06-22T12:49:41Z</time>
      </trkpt>
      <trkpt lat="43.39479" lon="6.07953">
        <ele>281.79998779297</ele>
        <time>2016-06-22T12:49:45Z</time>
      </trkpt>
      <trkpt lat="43.39476" lon="6.07953">
        <ele>281.79998779297</ele>
        <time>2016-06-22T12:49:48Z</time>
      </trkpt>
      <trkpt lat="43.39473" lon="6.07952">
        <ele>282</ele>
        <time>2016-06-22T12:49:50Z</time>
      </trkpt>
      <trkpt lat="43.39468" lon="6.07953">
        <ele>282.39999389648</ele>
        <time>2016-06-22T12:49:53Z</time>
      </trkpt>
      <trkpt lat="43.39462" lon="6.07955">
        <ele>282.79998779297</ele>
        <time>2016-06-22T12:49:57Z</time>
      </trkpt>
      <trkpt lat="43.39458" lon="6.07956">
        <ele>282.79998779297</ele>
        <time>2016-06-22T12:49:59Z</time>
      </trkpt>
      <trkpt lat="43.39456" lon="6.07957">
        <ele>283</ele>
        <time>2016-06-22T12:50:00Z</time>
      </trkpt>
      <trkpt lat="43.39453" lon="6.07959">
        <ele>283.39999389648</ele>
        <time>2016-06-22T12:50:02Z</time>
      </trkpt>
      <trkpt lat="43.39447" lon="6.07962">
        <ele>283.60000610352</ele>
        <time>2016-06-22T12:50:05Z</time>
      </trkpt>
      <trkpt lat="43.39444" lon="6.07963">
        <ele>283.60000610352</ele>
        <time>2016-06-22T12:50:07Z</time>
      </trkpt>
      <trkpt lat="43.39444" lon="6.07958">
        <ele>283.60000610352</ele>
        <time>2016-06-22T12:50:10Z</time>
      </trkpt>
      <trkpt lat="43.39445" lon="6.07957">
        <ele>283.79998779297</ele>
        <time>2016-06-22T12:50:12Z</time>
      </trkpt>
      <trkpt lat="43.39446" lon="6.07954">
        <ele>283.79998779297</ele>
        <time>2016-06-22T12:50:14Z</time>
      </trkpt>
      <trkpt lat="43.39449" lon="6.07953">
        <ele>283.60000610352</ele>
        <time>2016-06-22T12:50:16Z</time>
      </trkpt>
      <trkpt lat="43.39449" lon="6.07957">
        <ele>283.60000610352</ele>
        <time>2016-06-22T12:50:20Z</time>
      </trkpt>
      <trkpt lat="43.39443" lon="6.07958">
        <ele>283.79998779297</ele>
        <time>2016-06-22T12:50:23Z</time>
      </trkpt>
      <trkpt lat="43.39439" lon="6.07958">
        <ele>283.79998779297</ele>
        <time>2016-06-22T12:50:24Z</time>
      </trkpt>
      <trkpt lat="43.39433" lon="6.07957">
        <ele>285</ele>
        <time>2016-06-22T12:50:27Z</time>
      </trkpt>
      <trkpt lat="43.39433" lon="6.07957">
        <ele>285.60000610352</ele>
        <time>2016-06-22T12:50:29Z</time>
      </trkpt>
      <trkpt lat="43.39433" lon="6.07958">
        <ele>285.79998779297</ele>
        <time>2016-06-22T12:50:30Z</time>
      </trkpt>
      <trkpt lat="43.39433" lon="6.07957">
        <ele>286</ele>
        <time>2016-06-22T12:50:32Z</time>
      </trkpt>
      <trkpt lat="43.39431" lon="6.07954">
        <ele>286</ele>
        <time>2016-06-22T12:50:36Z</time>
      </trkpt>
      <trkpt lat="43.39431" lon="6.07947">
        <ele>286</ele>
        <time>2016-06-22T12:50:40Z</time>
      </trkpt>
      <trkpt lat="43.39431" lon="6.07944">
        <ele>286.20001220703</ele>
        <time>2016-06-22T12:50:41Z</time>
      </trkpt>
      <trkpt lat="43.39435" lon="6.07939">
        <ele>287.20001220703</ele>
        <time>2016-06-22T12:50:46Z</time>
      </trkpt>
      <trkpt lat="43.39435" lon="6.07938">
        <ele>287.79998779297</ele>
        <time>2016-06-22T12:50:50Z</time>
      </trkpt>
      <trkpt lat="43.39434" lon="6.0794">
        <ele>288.20001220703</ele>
        <time>2016-06-22T12:50:59Z</time>
      </trkpt>
      <trkpt lat="43.39435" lon="6.0794">
        <ele>288.39999389648</ele>
        <time>2016-06-22T12:51:00Z</time>
      </trkpt>
      <trkpt lat="43.39435" lon="6.07944">
        <ele>288.20001220703</ele>
        <time>2016-06-22T12:51:10Z</time>
      </trkpt>
      <trkpt lat="43.39438" lon="6.07948">
        <ele>288</ele>
        <time>2016-06-22T12:51:20Z</time>
      </trkpt>
      <trkpt lat="43.39438" lon="6.07949">
        <ele>288.20001220703</ele>
        <time>2016-06-22T12:51:26Z</time>
      </trkpt>
      <trkpt lat="43.39438" lon="6.07951">
        <ele>288.20001220703</ele>
        <time>2016-06-22T12:51:30Z</time>
      </trkpt>
      <trkpt lat="43.39441" lon="6.07951">
        <ele>288.39999389648</ele>
        <time>2016-06-22T12:51:36Z</time>
      </trkpt>
      <trkpt lat="43.39441" lon="6.0795">
        <ele>288.39999389648</ele>
        <time>2016-06-22T12:51:40Z</time>
      </trkpt>
      <trkpt lat="43.39441" lon="6.0795">
        <ele>288.39999389648</ele>
        <time>2016-06-22T12:51:44Z</time>
      </trkpt>
      <trkpt lat="43.39441" lon="6.0795">
        <ele>288.60000610352</ele>
        <time>2016-06-22T12:51:46Z</time>
      </trkpt>
      <trkpt lat="43.39441" lon="6.0795">
        <ele>288.60000610352</ele>
        <time>2016-06-22T12:51:48Z</time>
      </trkpt>
      <trkpt lat="43.39441" lon="6.07951">
        <ele>288.60000610352</ele>
        <time>2016-06-22T12:51:50Z</time>
      </trkpt>
      <trkpt lat="43.39439" lon="6.0795">
        <ele>288.60000610352</ele>
        <time>2016-06-22T12:51:53Z</time>
      </trkpt>
      <trkpt lat="43.39439" lon="6.07951">
        <ele>288.79998779297</ele>
        <time>2016-06-22T12:51:59Z</time>
      </trkpt>
      <trkpt lat="43.39439" lon="6.07951">
        <ele>288.79998779297</ele>
        <time>2016-06-22T12:52:00Z</time>
      </trkpt>
      <trkpt lat="43.39437" lon="6.07951">
        <ele>288.79998779297</ele>
        <time>2016-06-22T12:52:08Z</time>
      </trkpt>
      <trkpt lat="43.39438" lon="6.0795">
        <ele>288.79998779297</ele>
        <time>2016-06-22T12:52:10Z</time>
      </trkpt>
      <trkpt lat="43.39435" lon="6.07947">
        <ele>288.79998779297</ele>
        <time>2016-06-22T12:52:20Z</time>
      </trkpt>
      <trkpt lat="43.39431" lon="6.07945">
        <ele>288.79998779297</ele>
        <time>2016-06-22T12:52:30Z</time>
      </trkpt>
      <trkpt lat="43.39429" lon="6.07946">
        <ele>288.79998779297</ele>
        <time>2016-06-22T12:52:40Z</time>
      </trkpt>
      <trkpt lat="43.39429" lon="6.07946">
        <ele>288.79998779297</ele>
        <time>2016-06-22T12:52:44Z</time>
      </trkpt>
      <trkpt lat="43.3943" lon="6.07944">
        <ele>288.79998779297</ele>
        <time>2016-06-22T12:52:47Z</time>
      </trkpt>
      <trkpt lat="43.39433" lon="6.07943">
        <ele>288.79998779297</ele>
        <time>2016-06-22T12:52:50Z</time>
      </trkpt>
      <trkpt lat="43.39434" lon="6.07943">
        <ele>288.79998779297</ele>
        <time>2016-06-22T12:52:53Z</time>
      </trkpt>
      <trkpt lat="43.39433" lon="6.07941">
        <ele>288.79998779297</ele>
        <time>2016-06-22T12:53:00Z</time>
      </trkpt>
      <trkpt lat="43.39433" lon="6.07942">
        <ele>288.79998779297</ele>
        <time>2016-06-22T12:53:03Z</time>
      </trkpt>
      <trkpt lat="43.39431" lon="6.07946">
        <ele>288.79998779297</ele>
        <time>2016-06-22T12:53:10Z</time>
      </trkpt>
      <trkpt lat="43.39432" lon="6.07944">
        <ele>288.79998779297</ele>
        <time>2016-06-22T12:53:20Z</time>
      </trkpt>
      <trkpt lat="43.39434" lon="6.07944">
        <ele>288.79998779297</ele>
        <time>2016-06-22T12:53:28Z</time>
      </trkpt>
      <trkpt lat="43.39434" lon="6.07944">
        <ele>288.79998779297</ele>
        <time>2016-06-22T12:53:30Z</time>
      </trkpt>
      <trkpt lat="43.39431" lon="6.07944">
        <ele>288.79998779297</ele>
        <time>2016-06-22T12:53:40Z</time>
      </trkpt>
      <trkpt lat="43.39437" lon="6.07949">
        <ele>288.79998779297</ele>
        <time>2016-06-22T12:53:47Z</time>
      </trkpt>
      <trkpt lat="43.39435" lon="6.07947">
        <ele>288.79998779297</ele>
        <time>2016-06-22T12:53:50Z</time>
      </trkpt>
      <trkpt lat="43.39434" lon="6.07945">
        <ele>288.79998779297</ele>
        <time>2016-06-22T12:54:00Z</time>
      </trkpt>
      <trkpt lat="43.39433" lon="6.07942">
        <ele>288.79998779297</ele>
        <time>2016-06-22T12:54:05Z</time>
      </trkpt>
      <trkpt lat="43.39433" lon="6.0794">
        <ele>288.20001220703</ele>
        <time>2016-06-22T12:54:07Z</time>
      </trkpt>
      <trkpt lat="43.39434" lon="6.0794">
        <ele>287.20001220703</ele>
        <time>2016-06-22T12:54:08Z</time>
      </trkpt>
      <trkpt lat="43.39436" lon="6.07942">
        <ele>286.39999389648</ele>
        <time>2016-06-22T12:54:12Z</time>
      </trkpt>
      <trkpt lat="43.3944" lon="6.07925">
        <ele>286.20001220703</ele>
        <time>2016-06-22T12:54:19Z</time>
      </trkpt>
      <trkpt lat="43.39442" lon="6.07924">
        <ele>286.20001220703</ele>
        <time>2016-06-22T12:54:20Z</time>
      </trkpt>
      <trkpt lat="43.39446" lon="6.07925">
        <ele>286</ele>
        <time>2016-06-22T12:54:23Z</time>
      </trkpt>
      <trkpt lat="43.39447" lon="6.07947">
        <ele>284.79998779297</ele>
        <time>2016-06-22T12:54:28Z</time>
      </trkpt>
      <trkpt lat="43.39447" lon="6.07956">
        <ele>284.60000610352</ele>
        <time>2016-06-22T12:54:30Z</time>
      </trkpt>
      <trkpt lat="43.39439" lon="6.07969">
        <ele>284.60000610352</ele>
        <time>2016-06-22T12:54:35Z</time>
      </trkpt>
      <trkpt lat="43.39433" lon="6.07971">
        <ele>285</ele>
        <time>2016-06-22T12:54:37Z</time>
      </trkpt>
      <trkpt lat="43.39428" lon="6.07973">
        <ele>285.39999389648</ele>
        <time>2016-06-22T12:54:39Z</time>
      </trkpt>
      <trkpt lat="43.39426" lon="6.07973">
        <ele>285.79998779297</ele>
        <time>2016-06-22T12:54:40Z</time>
      </trkpt>
      <trkpt lat="43.39425" lon="6.07972">
        <ele>286</ele>
        <time>2016-06-22T12:54:41Z</time>
      </trkpt>
      <trkpt lat="43.39424" lon="6.07969">
        <ele>286.39999389648</ele>
        <time>2016-06-22T12:54:43Z</time>
      </trkpt>
      <trkpt lat="43.39428" lon="6.07963">
        <ele>286.39999389648</ele>
        <time>2016-06-22T12:54:48Z</time>
      </trkpt>
      <trkpt lat="43.39429" lon="6.07957">
        <ele>286.60000610352</ele>
        <time>2016-06-22T12:54:50Z</time>
      </trkpt>
      <trkpt lat="43.39431" lon="6.07941">
        <ele>286.79998779297</ele>
        <time>2016-06-22T12:54:55Z</time>
      </trkpt>
      <trkpt lat="43.39432" lon="6.07937">
        <ele>287.20001220703</ele>
        <time>2016-06-22T12:54:57Z</time>
      </trkpt>
      <trkpt lat="43.39433" lon="6.07934">
        <ele>288</ele>
        <time>2016-06-22T12:55:00Z</time>
      </trkpt>
      <trkpt lat="43.39433" lon="6.07935">
        <ele>288.20001220703</ele>
        <time>2016-06-22T12:55:09Z</time>
      </trkpt>
      <trkpt lat="43.39433" lon="6.07935">
        <ele>288.39999389648</ele>
        <time>2016-06-22T12:55:10Z</time>
      </trkpt>
      <trkpt lat="43.39432" lon="6.07934">
        <ele>288.60000610352</ele>
        <time>2016-06-22T12:55:20Z</time>
      </trkpt>
      <trkpt lat="43.39433" lon="6.07933">
        <ele>288.79998779297</ele>
        <time>2016-06-22T12:55:30Z</time>
      </trkpt>
      <trkpt lat="43.39431" lon="6.07929">
        <ele>288.60000610352</ele>
        <time>2016-06-22T12:55:39Z</time>
      </trkpt>
      <trkpt lat="43.39431" lon="6.07929">
        <ele>288.60000610352</ele>
        <time>2016-06-22T12:55:40Z</time>
      </trkpt>
      <trkpt lat="43.39431" lon="6.0793">
        <ele>288.79998779297</ele>
        <time>2016-06-22T12:55:48Z</time>
      </trkpt>
      <trkpt lat="43.39432" lon="6.07929">
        <ele>288.79998779297</ele>
        <time>2016-06-22T12:55:50Z</time>
      </trkpt>
      <trkpt lat="43.39434" lon="6.07931">
        <ele>288.60000610352</ele>
        <time>2016-06-22T12:55:56Z</time>
      </trkpt>
      <trkpt lat="43.39433" lon="6.07933">
        <ele>288.39999389648</ele>
        <time>2016-06-22T12:55:59Z</time>
      </trkpt>
      <trkpt lat="43.39432" lon="6.07933">
        <ele>288.39999389648</ele>
        <time>2016-06-22T12:56:00Z</time>
      </trkpt>
      <trkpt lat="43.39434" lon="6.07931">
        <ele>288.39999389648</ele>
        <time>2016-06-22T12:56:10Z</time>
      </trkpt>
      <trkpt lat="43.39435" lon="6.07925">
        <ele>288.39999389648</ele>
        <time>2016-06-22T12:56:20Z</time>
      </trkpt>
      <trkpt lat="43.39435" lon="6.07925">
        <ele>288.20001220703</ele>
        <time>2016-06-22T12:56:23Z</time>
      </trkpt>
      <trkpt lat="43.39435" lon="6.07927">
        <ele>288</ele>
        <time>2016-06-22T12:56:29Z</time>
      </trkpt>
      <trkpt lat="43.39434" lon="6.07928">
        <ele>288</ele>
        <time>2016-06-22T12:56:30Z</time>
      </trkpt>
      <trkpt lat="43.39431" lon="6.07935">
        <ele>288.20001220703</ele>
        <time>2016-06-22T12:56:35Z</time>
      </trkpt>
      <trkpt lat="43.39428" lon="6.07942">
        <ele>288</ele>
        <time>2016-06-22T12:56:38Z</time>
      </trkpt>
      <trkpt lat="43.39426" lon="6.07946">
        <ele>288</ele>
        <time>2016-06-22T12:56:40Z</time>
      </trkpt>
      <trkpt lat="43.39424" lon="6.07947">
        <ele>288</ele>
        <time>2016-06-22T12:56:42Z</time>
      </trkpt>
      <trkpt lat="43.39424" lon="6.07951">
        <ele>287.79998779297</ele>
        <time>2016-06-22T12:56:50Z</time>
      </trkpt>
      <trkpt lat="43.39423" lon="6.07954">
        <ele>288</ele>
        <time>2016-06-22T12:56:53Z</time>
      </trkpt>
      <trkpt lat="43.39413" lon="6.07959">
        <ele>287.60000610352</ele>
        <time>2016-06-22T12:57:00Z</time>
      </trkpt>
      <trkpt lat="43.39396" lon="6.07964">
        <ele>287.79998779297</ele>
        <time>2016-06-22T12:57:06Z</time>
      </trkpt>
      <trkpt lat="43.39388" lon="6.07963">
        <ele>289.39999389648</ele>
        <time>2016-06-22T12:57:09Z</time>
      </trkpt>
      <trkpt lat="43.39386" lon="6.07964">
        <ele>289.79998779297</ele>
        <time>2016-06-22T12:57:10Z</time>
      </trkpt>
      <trkpt lat="43.39381" lon="6.07964">
        <ele>290.39999389648</ele>
        <time>2016-06-22T12:57:12Z</time>
      </trkpt>
      <trkpt lat="43.39378" lon="6.07966">
        <ele>290.39999389648</ele>
        <time>2016-06-22T12:57:14Z</time>
      </trkpt>
      <trkpt lat="43.39372" lon="6.07979">
        <ele>290.20001220703</ele>
        <time>2016-06-22T12:57:20Z</time>
      </trkpt>
      <trkpt lat="43.39359" lon="6.08015">
        <ele>290</ele>
        <time>2016-06-22T12:57:30Z</time>
      </trkpt>
      <trkpt lat="43.39354" lon="6.08024">
        <ele>290.39999389648</ele>
        <time>2016-06-22T12:57:33Z</time>
      </trkpt>
      <trkpt lat="43.39348" lon="6.08029">
        <ele>290.79998779297</ele>
        <time>2016-06-22T12:57:35Z</time>
      </trkpt>
      <trkpt lat="43.39341" lon="6.08034">
        <ele>291.79998779297</ele>
        <time>2016-06-22T12:57:38Z</time>
      </trkpt>
      <trkpt lat="43.39338" lon="6.08038">
        <ele>292</ele>
        <time>2016-06-22T12:57:40Z</time>
      </trkpt>
      <trkpt lat="43.39332" lon="6.0805">
        <ele>292.79998779297</ele>
        <time>2016-06-22T12:57:44Z</time>
      </trkpt>
      <trkpt lat="43.39325" lon="6.08064">
        <ele>293.20001220703</ele>
        <time>2016-06-22T12:57:48Z</time>
      </trkpt>
      <trkpt lat="43.39322" lon="6.08068">
        <ele>293.20001220703</ele>
        <time>2016-06-22T12:57:50Z</time>
      </trkpt>
      <trkpt lat="43.39314" lon="6.08076">
        <ele>292.79998779297</ele>
        <time>2016-06-22T12:57:54Z</time>
      </trkpt>
      <trkpt lat="43.39305" lon="6.08089">
        <ele>293.39999389648</ele>
        <time>2016-06-22T12:58:00Z</time>
      </trkpt>
      <trkpt lat="43.39303" lon="6.08094">
        <ele>293.79998779297</ele>
        <time>2016-06-22T12:58:02Z</time>
      </trkpt>
      <trkpt lat="43.39299" lon="6.08102">
        <ele>294.79998779297</ele>
        <time>2016-06-22T12:58:06Z</time>
      </trkpt>
      <trkpt lat="43.39295" lon="6.08111">
        <ele>294.60000610352</ele>
        <time>2016-06-22T12:58:10Z</time>
      </trkpt>
      <trkpt lat="43.39291" lon="6.08117">
        <ele>295</ele>
        <time>2016-06-22T12:58:13Z</time>
      </trkpt>
      <trkpt lat="43.39286" lon="6.08135">
        <ele>295.79998779297</ele>
        <time>2016-06-22T12:58:20Z</time>
      </trkpt>
      <trkpt lat="43.39285" lon="6.08136">
        <ele>296</ele>
        <time>2016-06-22T12:58:22Z</time>
      </trkpt>
      <trkpt lat="43.39284" lon="6.08137">
        <ele>296.39999389648</ele>
        <time>2016-06-22T12:58:28Z</time>
      </trkpt>
      <trkpt lat="43.39284" lon="6.08141">
        <ele>296.20001220703</ele>
        <time>2016-06-22T12:58:40Z</time>
      </trkpt>
      <trkpt lat="43.39286" lon="6.08142">
        <ele>296.60000610352</ele>
        <time>2016-06-22T12:58:50Z</time>
      </trkpt>
      <trkpt lat="43.39286" lon="6.08147">
        <ele>296.79998779297</ele>
        <time>2016-06-22T12:58:54Z</time>
      </trkpt>
      <trkpt lat="43.39286" lon="6.08149">
        <ele>296.79998779297</ele>
        <time>2016-06-22T12:58:59Z</time>
      </trkpt>
      <trkpt lat="43.39286" lon="6.08149">
        <ele>297</ele>
        <time>2016-06-22T12:59:00Z</time>
      </trkpt>
      <trkpt lat="43.39286" lon="6.08149">
        <ele>297</ele>
        <time>2016-06-22T12:59:01Z</time>
      </trkpt>
      <trkpt lat="43.39281" lon="6.08167">
        <ele>298</ele>
        <time>2016-06-22T12:59:10Z</time>
      </trkpt>
      <trkpt lat="43.39278" lon="6.08169">
        <ele>298.79998779297</ele>
        <time>2016-06-22T12:59:15Z</time>
      </trkpt>
      <trkpt lat="43.39277" lon="6.08177">
        <ele>299</ele>
        <time>2016-06-22T12:59:20Z</time>
      </trkpt>
      <trkpt lat="43.39277" lon="6.08179">
        <ele>299</ele>
        <time>2016-06-22T12:59:22Z</time>
      </trkpt>
      <trkpt lat="43.3928" lon="6.08182">
        <ele>299.39999389648</ele>
        <time>2016-06-22T12:59:30Z</time>
      </trkpt>
      <trkpt lat="43.39275" lon="6.08185">
        <ele>299.79998779297</ele>
        <time>2016-06-22T12:59:38Z</time>
      </trkpt>
      <trkpt lat="43.39273" lon="6.08188">
        <ele>300.20001220703</ele>
        <time>2016-06-22T12:59:44Z</time>
      </trkpt>
      <trkpt lat="43.39274" lon="6.08198">
        <ele>300.20001220703</ele>
        <time>2016-06-22T12:59:50Z</time>
      </trkpt>
      <trkpt lat="43.39271" lon="6.08219">
        <ele>301.20001220703</ele>
        <time>2016-06-22T12:59:59Z</time>
      </trkpt>
      <trkpt lat="43.3927" lon="6.08221">
        <ele>301.20001220703</ele>
        <time>2016-06-22T13:00:00Z</time>
      </trkpt>
      <trkpt lat="43.39268" lon="6.08232">
        <ele>302</ele>
        <time>2016-06-22T13:00:04Z</time>
      </trkpt>
      <trkpt lat="43.39267" lon="6.08234">
        <ele>302.39999389648</ele>
        <time>2016-06-22T13:00:05Z</time>
      </trkpt>
      <trkpt lat="43.39266" lon="6.08245">
        <ele>303</ele>
        <time>2016-06-22T13:00:10Z</time>
      </trkpt>
      <trkpt lat="43.39262" lon="6.08257">
        <ele>303.39999389648</ele>
        <time>2016-06-22T13:00:15Z</time>
      </trkpt>
      <trkpt lat="43.3926" lon="6.08259">
        <ele>303.60000610352</ele>
        <time>2016-06-22T13:00:16Z</time>
      </trkpt>
      <trkpt lat="43.39254" lon="6.08264">
        <ele>304.60000610352</ele>
        <time>2016-06-22T13:00:20Z</time>
      </trkpt>
      <trkpt lat="43.39248" lon="6.0827">
        <ele>305.39999389648</ele>
        <time>2016-06-22T13:00:25Z</time>
      </trkpt>
      <trkpt lat="43.39242" lon="6.08278">
        <ele>305.39999389648</ele>
        <time>2016-06-22T13:00:30Z</time>
      </trkpt>
      <trkpt lat="43.39241" lon="6.08282">
        <ele>305.39999389648</ele>
        <time>2016-06-22T13:00:32Z</time>
      </trkpt>
      <trkpt lat="43.39241" lon="6.08283">
        <ele>305.60000610352</ele>
        <time>2016-06-22T13:00:35Z</time>
      </trkpt>
      <trkpt lat="43.39243" lon="6.08284">
        <ele>306.39999389648</ele>
        <time>2016-06-22T13:00:40Z</time>
      </trkpt>
      <trkpt lat="43.39242" lon="6.08286">
        <ele>306.79998779297</ele>
        <time>2016-06-22T13:00:42Z</time>
      </trkpt>
      <trkpt lat="43.39241" lon="6.08289">
        <ele>307</ele>
        <time>2016-06-22T13:00:50Z</time>
      </trkpt>
      <trkpt lat="43.39238" lon="6.08291">
        <ele>307</ele>
        <time>2016-06-22T13:00:56Z</time>
      </trkpt>
      <trkpt lat="43.39234" lon="6.08298">
        <ele>307.20001220703</ele>
        <time>2016-06-22T13:01:00Z</time>
      </trkpt>
      <trkpt lat="43.39233" lon="6.08299">
        <ele>307.60000610352</ele>
        <time>2016-06-22T13:01:01Z</time>
      </trkpt>
      <trkpt lat="43.39233" lon="6.08301">
        <ele>307.79998779297</ele>
        <time>2016-06-22T13:01:02Z</time>
      </trkpt>
      <trkpt lat="43.39233" lon="6.08306">
        <ele>308.60000610352</ele>
        <time>2016-06-22T13:01:10Z</time>
      </trkpt>
      <trkpt lat="43.3923" lon="6.08309">
        <ele>308.79998779297</ele>
        <time>2016-06-22T13:01:15Z</time>
      </trkpt>
      <trkpt lat="43.3923" lon="6.08313">
        <ele>309</ele>
        <time>2016-06-22T13:01:20Z</time>
      </trkpt>
      <trkpt lat="43.3923" lon="6.08312">
        <ele>308.79998779297</ele>
        <time>2016-06-22T13:01:26Z</time>
      </trkpt>
      <trkpt lat="43.3923" lon="6.08313">
        <ele>309</ele>
        <time>2016-06-22T13:01:29Z</time>
      </trkpt>
      <trkpt lat="43.39229" lon="6.08313">
        <ele>309</ele>
        <time>2016-06-22T13:01:30Z</time>
      </trkpt>
      <trkpt lat="43.39229" lon="6.08318">
        <ele>309.39999389648</ele>
        <time>2016-06-22T13:01:33Z</time>
      </trkpt>
      <trkpt lat="43.3923" lon="6.08321">
        <ele>309.60000610352</ele>
        <time>2016-06-22T13:01:35Z</time>
      </trkpt>
      <trkpt lat="43.39229" lon="6.08322">
        <ele>310</ele>
        <time>2016-06-22T13:01:37Z</time>
      </trkpt>
      <trkpt lat="43.39227" lon="6.08322">
        <ele>310</ele>
        <time>2016-06-22T13:01:40Z</time>
      </trkpt>
      <trkpt lat="43.3922" lon="6.08327">
        <ele>311</ele>
        <time>2016-06-22T13:01:46Z</time>
      </trkpt>
      <trkpt lat="43.39219" lon="6.08335">
        <ele>311.60000610352</ele>
        <time>2016-06-22T13:01:50Z</time>
      </trkpt>
      <trkpt lat="43.39219" lon="6.08342">
        <ele>311.79998779297</ele>
        <time>2016-06-22T13:01:54Z</time>
      </trkpt>
      <trkpt lat="43.39218" lon="6.08347">
        <ele>312</ele>
        <time>2016-06-22T13:01:56Z</time>
      </trkpt>
      <trkpt lat="43.39217" lon="6.08357">
        <ele>312.39999389648</ele>
        <time>2016-06-22T13:02:00Z</time>
      </trkpt>
      <trkpt lat="43.39217" lon="6.0837">
        <ele>313.20001220703</ele>
        <time>2016-06-22T13:02:06Z</time>
      </trkpt>
      <trkpt lat="43.39212" lon="6.08379">
        <ele>314</ele>
        <time>2016-06-22T13:02:10Z</time>
      </trkpt>
      <trkpt lat="43.39211" lon="6.08379">
        <ele>314.39999389648</ele>
        <time>2016-06-22T13:02:11Z</time>
      </trkpt>
      <trkpt lat="43.39212" lon="6.08382">
        <ele>314.79998779297</ele>
        <time>2016-06-22T13:02:16Z</time>
      </trkpt>
      <trkpt lat="43.39212" lon="6.08382">
        <ele>314.79998779297</ele>
        <time>2016-06-22T13:02:20Z</time>
      </trkpt>
      <trkpt lat="43.39214" lon="6.08403">
        <ele>315</ele>
        <time>2016-06-22T13:02:30Z</time>
      </trkpt>
      <trkpt lat="43.39212" lon="6.08405">
        <ele>315.39999389648</ele>
        <time>2016-06-22T13:02:31Z</time>
      </trkpt>
      <trkpt lat="43.39208" lon="6.08411">
        <ele>316.60000610352</ele>
        <time>2016-06-22T13:02:34Z</time>
      </trkpt>
      <trkpt lat="43.39204" lon="6.08424">
        <ele>317.20001220703</ele>
        <time>2016-06-22T13:02:40Z</time>
      </trkpt>
      <trkpt lat="43.39202" lon="6.08429">
        <ele>317.79998779297</ele>
        <time>2016-06-22T13:02:43Z</time>
      </trkpt>
      <trkpt lat="43.39202" lon="6.08429">
        <ele>318</ele>
        <time>2016-06-22T13:02:44Z</time>
      </trkpt>
      <trkpt lat="43.39201" lon="6.08429">
        <ele>318.20001220703</ele>
        <time>2016-06-22T13:02:50Z</time>
      </trkpt>
      <trkpt lat="43.39201" lon="6.0843">
        <ele>318.79998779297</ele>
        <time>2016-06-22T13:02:54Z</time>
      </trkpt>
      <trkpt lat="43.39201" lon="6.08436">
        <ele>318.79998779297</ele>
        <time>2016-06-22T13:03:00Z</time>
      </trkpt>
      <trkpt lat="43.39203" lon="6.08435">
        <ele>319</ele>
        <time>2016-06-22T13:03:04Z</time>
      </trkpt>
      <trkpt lat="43.39203" lon="6.08435">
        <ele>319.39999389648</ele>
        <time>2016-06-22T13:03:10Z</time>
      </trkpt>
      <trkpt lat="43.39201" lon="6.08454">
        <ele>319</ele>
        <time>2016-06-22T13:03:19Z</time>
      </trkpt>
      <trkpt lat="43.39201" lon="6.08456">
        <ele>319.20001220703</ele>
        <time>2016-06-22T13:03:20Z</time>
      </trkpt>
      <trkpt lat="43.39199" lon="6.08465">
        <ele>319.79998779297</ele>
        <time>2016-06-22T13:03:24Z</time>
      </trkpt>
      <trkpt lat="43.39198" lon="6.08477">
        <ele>320.79998779297</ele>
        <time>2016-06-22T13:03:30Z</time>
      </trkpt>
      <trkpt lat="43.39198" lon="6.0848">
        <ele>321</ele>
        <time>2016-06-22T13:03:31Z</time>
      </trkpt>
      <trkpt lat="43.39198" lon="6.0849">
        <ele>321.60000610352</ele>
        <time>2016-06-22T13:03:40Z</time>
      </trkpt>
      <trkpt lat="43.39196" lon="6.08494">
        <ele>321.79998779297</ele>
        <time>2016-06-22T13:03:48Z</time>
      </trkpt>
      <trkpt lat="43.39196" lon="6.08495">
        <ele>321.79998779297</ele>
        <time>2016-06-22T13:03:55Z</time>
      </trkpt>
      <trkpt lat="43.39195" lon="6.08496">
        <ele>321.79998779297</ele>
        <time>2016-06-22T13:04:00Z</time>
      </trkpt>
      <trkpt lat="43.39191" lon="6.08499">
        <ele>321.79998779297</ele>
        <time>2016-06-22T13:04:08Z</time>
      </trkpt>
      <trkpt lat="43.3919" lon="6.08499">
        <ele>321.79998779297</ele>
        <time>2016-06-22T13:04:15Z</time>
      </trkpt>
      <trkpt lat="43.3919" lon="6.085">
        <ele>322</ele>
        <time>2016-06-22T13:04:18Z</time>
      </trkpt>
      <trkpt lat="43.3919" lon="6.08499">
        <ele>322</ele>
        <time>2016-06-22T13:04:20Z</time>
      </trkpt>
      <trkpt lat="43.3919" lon="6.08499">
        <ele>322</ele>
        <time>2016-06-22T13:04:24Z</time>
      </trkpt>
      <trkpt lat="43.3919" lon="6.085">
        <ele>322</ele>
        <time>2016-06-22T13:04:27Z</time>
      </trkpt>
      <trkpt lat="43.39191" lon="6.085">
        <ele>322</ele>
        <time>2016-06-22T13:04:30Z</time>
      </trkpt>
      <trkpt lat="43.39191" lon="6.08499">
        <ele>322</ele>
        <time>2016-06-22T13:04:32Z</time>
      </trkpt>
      <trkpt lat="43.39191" lon="6.08499">
        <ele>322</ele>
        <time>2016-06-22T13:04:40Z</time>
      </trkpt>
      <trkpt lat="43.39192" lon="6.08497">
        <ele>322.39999389648</ele>
        <time>2016-06-22T13:04:50Z</time>
      </trkpt>
      <trkpt lat="43.39194" lon="6.08497">
        <ele>322.20001220703</ele>
        <time>2016-06-22T13:05:00Z</time>
      </trkpt>
      <trkpt lat="43.39193" lon="6.08499">
        <ele>322.20001220703</ele>
        <time>2016-06-22T13:05:10Z</time>
      </trkpt>
      <trkpt lat="43.39192" lon="6.08499">
        <ele>322.20001220703</ele>
        <time>2016-06-22T13:05:20Z</time>
      </trkpt>
      <trkpt lat="43.3919" lon="6.08499">
        <ele>322.20001220703</ele>
        <time>2016-06-22T13:05:28Z</time>
      </trkpt>
      <trkpt lat="43.39193" lon="6.085">
        <ele>322</ele>
        <time>2016-06-22T13:05:40Z</time>
      </trkpt>
      <trkpt lat="43.39193" lon="6.085">
        <ele>322</ele>
        <time>2016-06-22T13:05:48Z</time>
      </trkpt>
      <trkpt lat="43.39194" lon="6.085">
        <ele>322</ele>
        <time>2016-06-22T13:05:54Z</time>
      </trkpt>
      <trkpt lat="43.39194" lon="6.08499">
        <ele>322</ele>
        <time>2016-06-22T13:06:00Z</time>
      </trkpt>
      <trkpt lat="43.39194" lon="6.08499">
        <ele>322</ele>
        <time>2016-06-22T13:06:04Z</time>
      </trkpt>
      <trkpt lat="43.39194" lon="6.08499">
        <ele>322</ele>
        <time>2016-06-22T13:06:10Z</time>
      </trkpt>
      <trkpt lat="43.39194" lon="6.08499">
        <ele>322.20001220703</ele>
        <time>2016-06-22T13:06:20Z</time>
      </trkpt>
      <trkpt lat="43.39194" lon="6.08497">
        <ele>322.20001220703</ele>
        <time>2016-06-22T13:06:40Z</time>
      </trkpt>
      <trkpt lat="43.39194" lon="6.08498">
        <ele>322.79998779297</ele>
        <time>2016-06-22T13:06:49Z</time>
      </trkpt>
      <trkpt lat="43.39194" lon="6.08498">
        <ele>322.79998779297</ele>
        <time>2016-06-22T13:06:50Z</time>
      </trkpt>
      <trkpt lat="43.39194" lon="6.08498">
        <ele>322.60000610352</ele>
        <time>2016-06-22T13:07:00Z</time>
      </trkpt>
      <trkpt lat="43.39193" lon="6.08498">
        <ele>322.60000610352</ele>
        <time>2016-06-22T13:07:10Z</time>
      </trkpt>
      <trkpt lat="43.39194" lon="6.08499">
        <ele>322</ele>
        <time>2016-06-22T13:07:30Z</time>
      </trkpt>
      <trkpt lat="43.39195" lon="6.08499">
        <ele>322</ele>
        <time>2016-06-22T13:07:36Z</time>
      </trkpt>
      <trkpt lat="43.39194" lon="6.085">
        <ele>322.20001220703</ele>
        <time>2016-06-22T13:07:40Z</time>
      </trkpt>
      <trkpt lat="43.39194" lon="6.085">
        <ele>322</ele>
        <time>2016-06-22T13:07:47Z</time>
      </trkpt>
      <trkpt lat="43.39194" lon="6.08498">
        <ele>322</ele>
        <time>2016-06-22T13:07:50Z</time>
      </trkpt>
      <trkpt lat="43.39193" lon="6.08497">
        <ele>322</ele>
        <time>2016-06-22T13:08:00Z</time>
      </trkpt>
      <trkpt lat="43.39192" lon="6.08497">
        <ele>322.39999389648</ele>
        <time>2016-06-22T13:08:10Z</time>
      </trkpt>
      <trkpt lat="43.39193" lon="6.08495">
        <ele>322.39999389648</ele>
        <time>2016-06-22T13:08:20Z</time>
      </trkpt>
      <trkpt lat="43.39193" lon="6.08494">
        <ele>322</ele>
        <time>2016-06-22T13:08:30Z</time>
      </trkpt>
      <trkpt lat="43.39193" lon="6.08495">
        <ele>321.79998779297</ele>
        <time>2016-06-22T13:08:40Z</time>
      </trkpt>
      <trkpt lat="43.39194" lon="6.08497">
        <ele>321.79998779297</ele>
        <time>2016-06-22T13:08:50Z</time>
      </trkpt>
      <trkpt lat="43.39196" lon="6.08498">
        <ele>321.79998779297</ele>
        <time>2016-06-22T13:09:06Z</time>
      </trkpt>
      <trkpt lat="43.39194" lon="6.08497">
        <ele>321.79998779297</ele>
        <time>2016-06-22T13:09:10Z</time>
      </trkpt>
      <trkpt lat="43.39193" lon="6.08497">
        <ele>321.79998779297</ele>
        <time>2016-06-22T13:09:13Z</time>
      </trkpt>
      <trkpt lat="43.39193" lon="6.08496">
        <ele>321.79998779297</ele>
        <time>2016-06-22T13:09:17Z</time>
      </trkpt>
      <trkpt lat="43.39193" lon="6.08496">
        <ele>321.79998779297</ele>
        <time>2016-06-22T13:09:20Z</time>
      </trkpt>
      <trkpt lat="43.39192" lon="6.08495">
        <ele>321.79998779297</ele>
        <time>2016-06-22T13:09:30Z</time>
      </trkpt>
      <trkpt lat="43.39193" lon="6.08494">
        <ele>321.79998779297</ele>
        <time>2016-06-22T13:09:33Z</time>
      </trkpt>
      <trkpt lat="43.39194" lon="6.08494">
        <ele>321.79998779297</ele>
        <time>2016-06-22T13:09:38Z</time>
      </trkpt>
      <trkpt lat="43.39194" lon="6.08494">
        <ele>321.79998779297</ele>
        <time>2016-06-22T13:09:40Z</time>
      </trkpt>
      <trkpt lat="43.39195" lon="6.08498">
        <ele>321.79998779297</ele>
        <time>2016-06-22T13:09:50Z</time>
      </trkpt>
      <trkpt lat="43.39196" lon="6.08498">
        <ele>321.79998779297</ele>
        <time>2016-06-22T13:10:00Z</time>
      </trkpt>
      <trkpt lat="43.39197" lon="6.08498">
        <ele>321.79998779297</ele>
        <time>2016-06-22T13:10:10Z</time>
      </trkpt>
      <trkpt lat="43.39196" lon="6.08498">
        <ele>321.79998779297</ele>
        <time>2016-06-22T13:10:20Z</time>
      </trkpt>
      <trkpt lat="43.39193" lon="6.08501">
        <ele>321.79998779297</ele>
        <time>2016-06-22T13:10:30Z</time>
      </trkpt>
      <trkpt lat="43.39193" lon="6.08501">
        <ele>321.79998779297</ele>
        <time>2016-06-22T13:10:40Z</time>
      </trkpt>
      <trkpt lat="43.39193" lon="6.08499">
        <ele>321.79998779297</ele>
        <time>2016-06-22T13:10:50Z</time>
      </trkpt>
      <trkpt lat="43.39194" lon="6.08498">
        <ele>321.79998779297</ele>
        <time>2016-06-22T13:11:00Z</time>
      </trkpt>
      <trkpt lat="43.39195" lon="6.08498">
        <ele>321.79998779297</ele>
        <time>2016-06-22T13:11:10Z</time>
      </trkpt>
      <trkpt lat="43.39193" lon="6.08498">
        <ele>321.79998779297</ele>
        <time>2016-06-22T13:11:18Z</time>
      </trkpt>
      <trkpt lat="43.39191" lon="6.08497">
        <ele>321.79998779297</ele>
        <time>2016-06-22T13:11:20Z</time>
      </trkpt>
      <trkpt lat="43.39189" lon="6.08496">
        <ele>321.79998779297</ele>
        <time>2016-06-22T13:11:30Z</time>
      </trkpt>
      <trkpt lat="43.3919" lon="6.08496">
        <ele>321.79998779297</ele>
        <time>2016-06-22T13:11:40Z</time>
      </trkpt>
      <trkpt lat="43.39194" lon="6.08497">
        <ele>321.79998779297</ele>
        <time>2016-06-22T13:11:50Z</time>
      </trkpt>
      <trkpt lat="43.39194" lon="6.08497">
        <ele>321.79998779297</ele>
        <time>2016-06-22T13:12:00Z</time>
      </trkpt>
      <trkpt lat="43.39194" lon="6.08498">
        <ele>321.79998779297</ele>
        <time>2016-06-22T13:12:10Z</time>
      </trkpt>
      <trkpt lat="43.39194" lon="6.085">
        <ele>321.79998779297</ele>
        <time>2016-06-22T13:12:20Z</time>
      </trkpt>
      <trkpt lat="43.39193" lon="6.085">
        <ele>321.79998779297</ele>
        <time>2016-06-22T13:12:30Z</time>
      </trkpt>
      <trkpt lat="43.39193" lon="6.08502">
        <ele>321.79998779297</ele>
        <time>2016-06-22T13:12:40Z</time>
      </trkpt>
      <trkpt lat="43.39193" lon="6.08499">
        <ele>321.79998779297</ele>
        <time>2016-06-22T13:12:50Z</time>
      </trkpt>
      <trkpt lat="43.39195" lon="6.08499">
        <ele>321.79998779297</ele>
        <time>2016-06-22T13:13:00Z</time>
      </trkpt>
      <trkpt lat="43.39199" lon="6.08501">
        <ele>321.79998779297</ele>
        <time>2016-06-22T13:13:10Z</time>
      </trkpt>
      <trkpt lat="43.39204" lon="6.08504">
        <ele>321.79998779297</ele>
        <time>2016-06-22T13:13:20Z</time>
      </trkpt>
      <trkpt lat="43.39206" lon="6.08502">
        <ele>321.79998779297</ele>
        <time>2016-06-22T13:13:30Z</time>
      </trkpt>
      <trkpt lat="43.39206" lon="6.08503">
        <ele>321.79998779297</ele>
        <time>2016-06-22T13:13:40Z</time>
      </trkpt>
      <trkpt lat="43.39199" lon="6.08501">
        <ele>321.79998779297</ele>
        <time>2016-06-22T13:14:00Z</time>
      </trkpt>
      <trkpt lat="43.3919" lon="6.08512">
        <ele>321.60000610352</ele>
        <time>2016-06-22T13:14:10Z</time>
      </trkpt>
      <trkpt lat="43.39183" lon="6.08533">
        <ele>320.79998779297</ele>
        <time>2016-06-22T13:14:17Z</time>
      </trkpt>
      <trkpt lat="43.3918" lon="6.08545">
        <ele>320.20001220703</ele>
        <time>2016-06-22T13:14:20Z</time>
      </trkpt>
      <trkpt lat="43.39174" lon="6.08562">
        <ele>319.79998779297</ele>
        <time>2016-06-22T13:14:24Z</time>
      </trkpt>
      <trkpt lat="43.3917" lon="6.08592">
        <ele>319.79998779297</ele>
        <time>2016-06-22T13:14:30Z</time>
      </trkpt>
      <trkpt lat="43.39162" lon="6.08626">
        <ele>318.79998779297</ele>
        <time>2016-06-22T13:14:37Z</time>
      </trkpt>
      <trkpt lat="43.39158" lon="6.08641">
        <ele>318.39999389648</ele>
        <time>2016-06-22T13:14:40Z</time>
      </trkpt>
      <trkpt lat="43.39157" lon="6.0866">
        <ele>318.60000610352</ele>
        <time>2016-06-22T13:14:44Z</time>
      </trkpt>
      <trkpt lat="43.39151" lon="6.0869">
        <ele>319.39999389648</ele>
        <time>2016-06-22T13:14:50Z</time>
      </trkpt>
      <trkpt lat="43.39148" lon="6.08722">
        <ele>319.20001220703</ele>
        <time>2016-06-22T13:14:57Z</time>
      </trkpt>
      <trkpt lat="43.39145" lon="6.08735">
        <ele>319.60000610352</ele>
        <time>2016-06-22T13:15:00Z</time>
      </trkpt>
      <trkpt lat="43.39144" lon="6.0874">
        <ele>320</ele>
        <time>2016-06-22T13:15:01Z</time>
      </trkpt>
      <trkpt lat="43.3914" lon="6.08758">
        <ele>320.79998779297</ele>
        <time>2016-06-22T13:15:05Z</time>
      </trkpt>
      <trkpt lat="43.39135" lon="6.08779">
        <ele>320.79998779297</ele>
        <time>2016-06-22T13:15:10Z</time>
      </trkpt>
      <trkpt lat="43.39134" lon="6.08787">
        <ele>321</ele>
        <time>2016-06-22T13:15:12Z</time>
      </trkpt>
      <trkpt lat="43.39125" lon="6.08819">
        <ele>321</ele>
        <time>2016-06-22T13:15:20Z</time>
      </trkpt>
      <trkpt lat="43.39119" lon="6.08846">
        <ele>321.39999389648</ele>
        <time>2016-06-22T13:15:26Z</time>
      </trkpt>
      <trkpt lat="43.39116" lon="6.08859">
        <ele>322</ele>
        <time>2016-06-22T13:15:29Z</time>
      </trkpt>
      <trkpt lat="43.39116" lon="6.08863">
        <ele>322.20001220703</ele>
        <time>2016-06-22T13:15:30Z</time>
      </trkpt>
      <trkpt lat="43.39107" lon="6.08897">
        <ele>322.79998779297</ele>
        <time>2016-06-22T13:15:40Z</time>
      </trkpt>
      <trkpt lat="43.39106" lon="6.08906">
        <ele>323</ele>
        <time>2016-06-22T13:15:42Z</time>
      </trkpt>
      <trkpt lat="43.39099" lon="6.08937">
        <ele>322.60000610352</ele>
        <time>2016-06-22T13:15:50Z</time>
      </trkpt>
      <trkpt lat="43.39093" lon="6.08961">
        <ele>324.20001220703</ele>
        <time>2016-06-22T13:15:56Z</time>
      </trkpt>
      <trkpt lat="43.39088" lon="6.08976">
        <ele>324.60000610352</ele>
        <time>2016-06-22T13:16:00Z</time>
      </trkpt>
      <trkpt lat="43.39077" lon="6.09">
        <ele>325.20001220703</ele>
        <time>2016-06-22T13:16:07Z</time>
      </trkpt>
      <trkpt lat="43.39072" lon="6.09009">
        <ele>325.39999389648</ele>
        <time>2016-06-22T13:16:10Z</time>
      </trkpt>
      <trkpt lat="43.39055" lon="6.09045">
        <ele>325.60000610352</ele>
        <time>2016-06-22T13:16:20Z</time>
      </trkpt>
      <trkpt lat="43.39041" lon="6.0908">
        <ele>326.20001220703</ele>
        <time>2016-06-22T13:16:30Z</time>
      </trkpt>
      <trkpt lat="43.39037" lon="6.09091">
        <ele>326.39999389648</ele>
        <time>2016-06-22T13:16:33Z</time>
      </trkpt>
      <trkpt lat="43.3903" lon="6.09113">
        <ele>326.79998779297</ele>
        <time>2016-06-22T13:16:40Z</time>
      </trkpt>
      <trkpt lat="43.39019" lon="6.09154">
        <ele>326.79998779297</ele>
        <time>2016-06-22T13:16:50Z</time>
      </trkpt>
      <trkpt lat="43.39012" lon="6.09179">
        <ele>327.39999389648</ele>
        <time>2016-06-22T13:16:57Z</time>
      </trkpt>
      <trkpt lat="43.39002" lon="6.09237">
        <ele>327.79998779297</ele>
        <time>2016-06-22T13:17:10Z</time>
      </trkpt>
      <trkpt lat="43.38997" lon="6.09254">
        <ele>328.39999389648</ele>
        <time>2016-06-22T13:17:14Z</time>
      </trkpt>
      <trkpt lat="43.3899" lon="6.09274">
        <ele>328.79998779297</ele>
        <time>2016-06-22T13:17:20Z</time>
      </trkpt>
      <trkpt lat="43.38984" lon="6.09286">
        <ele>329.60000610352</ele>
        <time>2016-06-22T13:17:24Z</time>
      </trkpt>
      <trkpt lat="43.38976" lon="6.09299">
        <ele>330.20001220703</ele>
        <time>2016-06-22T13:17:30Z</time>
      </trkpt>
      <trkpt lat="43.38966" lon="6.09312">
        <ele>330.79998779297</ele>
        <time>2016-06-22T13:17:36Z</time>
      </trkpt>
      <trkpt lat="43.38961" lon="6.09324">
        <ele>331.39999389648</ele>
        <time>2016-06-22T13:17:40Z</time>
      </trkpt>
      <trkpt lat="43.38951" lon="6.09339">
        <ele>331.60000610352</ele>
        <time>2016-06-22T13:17:46Z</time>
      </trkpt>
      <trkpt lat="43.38942" lon="6.09348">
        <ele>331.60000610352</ele>
        <time>2016-06-22T13:17:50Z</time>
      </trkpt>
      <trkpt lat="43.38927" lon="6.09364">
        <ele>331.79998779297</ele>
        <time>2016-06-22T13:17:57Z</time>
      </trkpt>
      <trkpt lat="43.38921" lon="6.09369">
        <ele>332.79998779297</ele>
        <time>2016-06-22T13:18:00Z</time>
      </trkpt>
      <trkpt lat="43.3892" lon="6.0937">
        <ele>333</ele>
        <time>2016-06-22T13:18:01Z</time>
      </trkpt>
      <trkpt lat="43.38918" lon="6.09373">
        <ele>333.39999389648</ele>
        <time>2016-06-22T13:18:03Z</time>
      </trkpt>
      <trkpt lat="43.38913" lon="6.0938">
        <ele>334.20001220703</ele>
        <time>2016-06-22T13:18:06Z</time>
      </trkpt>
      <trkpt lat="43.38909" lon="6.09385">
        <ele>335</ele>
        <time>2016-06-22T13:18:09Z</time>
      </trkpt>
      <trkpt lat="43.38907" lon="6.09386">
        <ele>335</ele>
        <time>2016-06-22T13:18:10Z</time>
      </trkpt>
      <trkpt lat="43.38905" lon="6.09388">
        <ele>335</ele>
        <time>2016-06-22T13:18:11Z</time>
      </trkpt>
      <trkpt lat="43.38901" lon="6.09393">
        <ele>335.39999389648</ele>
        <time>2016-06-22T13:18:13Z</time>
      </trkpt>
      <trkpt lat="43.38899" lon="6.09397">
        <ele>335.79998779297</ele>
        <time>2016-06-22T13:18:15Z</time>
      </trkpt>
      <trkpt lat="43.38896" lon="6.09401">
        <ele>336</ele>
        <time>2016-06-22T13:18:17Z</time>
      </trkpt>
      <trkpt lat="43.38894" lon="6.09409">
        <ele>336.60000610352</ele>
        <time>2016-06-22T13:18:20Z</time>
      </trkpt>
      <trkpt lat="43.38892" lon="6.09411">
        <ele>336.79998779297</ele>
        <time>2016-06-22T13:18:21Z</time>
      </trkpt>
      <trkpt lat="43.38888" lon="6.09414">
        <ele>337.20001220703</ele>
        <time>2016-06-22T13:18:23Z</time>
      </trkpt>
      <trkpt lat="43.38886" lon="6.09413">
        <ele>337.60000610352</ele>
        <time>2016-06-22T13:18:27Z</time>
      </trkpt>
      <trkpt lat="43.38885" lon="6.09416">
        <ele>337.39999389648</ele>
        <time>2016-06-22T13:18:30Z</time>
      </trkpt>
      <trkpt lat="43.38881" lon="6.09419">
        <ele>337.79998779297</ele>
        <time>2016-06-22T13:18:39Z</time>
      </trkpt>
      <trkpt lat="43.38881" lon="6.0942">
        <ele>337.79998779297</ele>
        <time>2016-06-22T13:18:40Z</time>
      </trkpt>
      <trkpt lat="43.3888" lon="6.09423">
        <ele>338.60000610352</ele>
        <time>2016-06-22T13:18:46Z</time>
      </trkpt>
      <trkpt lat="43.38881" lon="6.09423">
        <ele>338.60000610352</ele>
        <time>2016-06-22T13:18:50Z</time>
      </trkpt>
      <trkpt lat="43.38881" lon="6.09422">
        <ele>338.60000610352</ele>
        <time>2016-06-22T13:18:54Z</time>
      </trkpt>
      <trkpt lat="43.38881" lon="6.09422">
        <ele>338.79998779297</ele>
        <time>2016-06-22T13:18:58Z</time>
      </trkpt>
      <trkpt lat="43.38881" lon="6.09421">
        <ele>338.79998779297</ele>
        <time>2016-06-22T13:19:00Z</time>
      </trkpt>
      <trkpt lat="43.38879" lon="6.09423">
        <ele>338.79998779297</ele>
        <time>2016-06-22T13:19:10Z</time>
      </trkpt>
      <trkpt lat="43.38879" lon="6.09422">
        <ele>338.79998779297</ele>
        <time>2016-06-22T13:19:15Z</time>
      </trkpt>
      <trkpt lat="43.3888" lon="6.09424">
        <ele>339</ele>
        <time>2016-06-22T13:19:18Z</time>
      </trkpt>
      <trkpt lat="43.3888" lon="6.09424">
        <ele>339.20001220703</ele>
        <time>2016-06-22T13:19:20Z</time>
      </trkpt>
      <trkpt lat="43.38881" lon="6.09425">
        <ele>339.20001220703</ele>
        <time>2016-06-22T13:19:23Z</time>
      </trkpt>
      <trkpt lat="43.38883" lon="6.09427">
        <ele>339.39999389648</ele>
        <time>2016-06-22T13:19:29Z</time>
      </trkpt>
      <trkpt lat="43.38883" lon="6.09427">
        <ele>339.39999389648</ele>
        <time>2016-06-22T13:19:30Z</time>
      </trkpt>
      <trkpt lat="43.38883" lon="6.09428">
        <ele>339.20001220703</ele>
        <time>2016-06-22T13:19:34Z</time>
      </trkpt>
      <trkpt lat="43.38883" lon="6.09429">
        <ele>339</ele>
        <time>2016-06-22T13:19:37Z</time>
      </trkpt>
      <trkpt lat="43.38883" lon="6.09429">
        <ele>339</ele>
        <time>2016-06-22T13:19:40Z</time>
      </trkpt>
      <trkpt lat="43.38884" lon="6.0943">
        <ele>339</ele>
        <time>2016-06-22T13:19:50Z</time>
      </trkpt>
      <trkpt lat="43.38884" lon="6.0943">
        <ele>339</ele>
        <time>2016-06-22T13:19:53Z</time>
      </trkpt>
      <trkpt lat="43.38885" lon="6.09431">
        <ele>338.79998779297</ele>
        <time>2016-06-22T13:20:00Z</time>
      </trkpt>
      <trkpt lat="43.38884" lon="6.09431">
        <ele>338.79998779297</ele>
        <time>2016-06-22T13:20:10Z</time>
      </trkpt>
      <trkpt lat="43.38885" lon="6.09432">
        <ele>339</ele>
        <time>2016-06-22T13:20:20Z</time>
      </trkpt>
      <trkpt lat="43.38885" lon="6.09432">
        <ele>339</ele>
        <time>2016-06-22T13:20:29Z</time>
      </trkpt>
      <trkpt lat="43.38885" lon="6.09432">
        <ele>338.79998779297</ele>
        <time>2016-06-22T13:20:30Z</time>
      </trkpt>
      <trkpt lat="43.38885" lon="6.09431">
        <ele>338.79998779297</ele>
        <time>2016-06-22T13:20:35Z</time>
      </trkpt>
      <trkpt lat="43.38885" lon="6.09431">
        <ele>338.79998779297</ele>
        <time>2016-06-22T13:20:40Z</time>
      </trkpt>
      <trkpt lat="43.38886" lon="6.0943">
        <ele>338.79998779297</ele>
        <time>2016-06-22T13:20:48Z</time>
      </trkpt>
      <trkpt lat="43.38886" lon="6.0943">
        <ele>338.79998779297</ele>
        <time>2016-06-22T13:20:50Z</time>
      </trkpt>
      <trkpt lat="43.38885" lon="6.0943">
        <ele>338.79998779297</ele>
        <time>2016-06-22T13:21:00Z</time>
      </trkpt>
      <trkpt lat="43.38886" lon="6.09431">
        <ele>338.79998779297</ele>
        <time>2016-06-22T13:21:09Z</time>
      </trkpt>
      <trkpt lat="43.38885" lon="6.0943">
        <ele>338.79998779297</ele>
        <time>2016-06-22T13:21:20Z</time>
      </trkpt>
      <trkpt lat="43.38884" lon="6.09429">
        <ele>338.79998779297</ele>
        <time>2016-06-22T13:21:40Z</time>
      </trkpt>
      <trkpt lat="43.38883" lon="6.09427">
        <ele>338.79998779297</ele>
        <time>2016-06-22T13:21:50Z</time>
      </trkpt>
      <trkpt lat="43.38883" lon="6.09427">
        <ele>338.79998779297</ele>
        <time>2016-06-22T13:22:00Z</time>
      </trkpt>
      <trkpt lat="43.38884" lon="6.09431">
        <ele>338.79998779297</ele>
        <time>2016-06-22T13:22:10Z</time>
      </trkpt>
      <trkpt lat="43.38882" lon="6.0943">
        <ele>338.79998779297</ele>
        <time>2016-06-22T13:22:20Z</time>
      </trkpt>
      <trkpt lat="43.3888" lon="6.0943">
        <ele>338.79998779297</ele>
        <time>2016-06-22T13:22:30Z</time>
      </trkpt>
      <trkpt lat="43.3888" lon="6.0943">
        <ele>338.79998779297</ele>
        <time>2016-06-22T13:22:40Z</time>
      </trkpt>
      <trkpt lat="43.3888" lon="6.09431">
        <ele>338.79998779297</ele>
        <time>2016-06-22T13:22:50Z</time>
      </trkpt>
      <trkpt lat="43.3888" lon="6.09431">
        <ele>338.79998779297</ele>
        <time>2016-06-22T13:22:55Z</time>
      </trkpt>
      <trkpt lat="43.38881" lon="6.09432">
        <ele>338.79998779297</ele>
        <time>2016-06-22T13:23:00Z</time>
      </trkpt>
      <trkpt lat="43.38884" lon="6.0943">
        <ele>338.79998779297</ele>
        <time>2016-06-22T13:23:09Z</time>
      </trkpt>
      <trkpt lat="43.38884" lon="6.09431">
        <ele>338.79998779297</ele>
        <time>2016-06-22T13:23:10Z</time>
      </trkpt>
      <trkpt lat="43.38884" lon="6.09431">
        <ele>338.79998779297</ele>
        <time>2016-06-22T13:23:17Z</time>
      </trkpt>
      <trkpt lat="43.38884" lon="6.09431">
        <ele>338.79998779297</ele>
        <time>2016-06-22T13:23:20Z</time>
      </trkpt>
      <trkpt lat="43.38884" lon="6.0943">
        <ele>338.79998779297</ele>
        <time>2016-06-22T13:23:30Z</time>
      </trkpt>
      <trkpt lat="43.38884" lon="6.09426">
        <ele>338.79998779297</ele>
        <time>2016-06-22T13:23:35Z</time>
      </trkpt>
      <trkpt lat="43.38884" lon="6.09424">
        <ele>338.79998779297</ele>
        <time>2016-06-22T13:23:40Z</time>
      </trkpt>
      <trkpt lat="43.38884" lon="6.09422">
        <ele>338.79998779297</ele>
        <time>2016-06-22T13:23:50Z</time>
      </trkpt>
      <trkpt lat="43.38885" lon="6.09423">
        <ele>338.79998779297</ele>
        <time>2016-06-22T13:24:00Z</time>
      </trkpt>
      <trkpt lat="43.38879" lon="6.09425">
        <ele>338.79998779297</ele>
        <time>2016-06-22T13:24:10Z</time>
      </trkpt>
      <trkpt lat="43.38879" lon="6.09424">
        <ele>338.79998779297</ele>
        <time>2016-06-22T13:24:15Z</time>
      </trkpt>
      <trkpt lat="43.38878" lon="6.09426">
        <ele>338.79998779297</ele>
        <time>2016-06-22T13:24:20Z</time>
      </trkpt>
      <trkpt lat="43.3888" lon="6.09426">
        <ele>338.79998779297</ele>
        <time>2016-06-22T13:24:24Z</time>
      </trkpt>
      <trkpt lat="43.38881" lon="6.09425">
        <ele>338.79998779297</ele>
        <time>2016-06-22T13:24:30Z</time>
      </trkpt>
      <trkpt lat="43.38881" lon="6.09426">
        <ele>338.79998779297</ele>
        <time>2016-06-22T13:24:33Z</time>
      </trkpt>
      <trkpt lat="43.38885" lon="6.09428">
        <ele>338.79998779297</ele>
        <time>2016-06-22T13:24:40Z</time>
      </trkpt>
      <trkpt lat="43.38885" lon="6.09429">
        <ele>338.79998779297</ele>
        <time>2016-06-22T13:24:50Z</time>
      </trkpt>
      <trkpt lat="43.38886" lon="6.0943">
        <ele>338.79998779297</ele>
        <time>2016-06-22T13:24:57Z</time>
      </trkpt>
      <trkpt lat="43.38885" lon="6.09431">
        <ele>338.79998779297</ele>
        <time>2016-06-22T13:25:00Z</time>
      </trkpt>
      <trkpt lat="43.38887" lon="6.09432">
        <ele>338.79998779297</ele>
        <time>2016-06-22T13:25:10Z</time>
      </trkpt>
      <trkpt lat="43.38884" lon="6.0943">
        <ele>338.79998779297</ele>
        <time>2016-06-22T13:25:20Z</time>
      </trkpt>
      <trkpt lat="43.38881" lon="6.09431">
        <ele>338.79998779297</ele>
        <time>2016-06-22T13:25:34Z</time>
      </trkpt>
      <trkpt lat="43.38881" lon="6.09431">
        <ele>338.79998779297</ele>
        <time>2016-06-22T13:25:40Z</time>
      </trkpt>
      <trkpt lat="43.38884" lon="6.09428">
        <ele>338.79998779297</ele>
        <time>2016-06-22T13:25:50Z</time>
      </trkpt>
      <trkpt lat="43.38879" lon="6.09427">
        <ele>338.79998779297</ele>
        <time>2016-06-22T13:25:57Z</time>
      </trkpt>
      <trkpt lat="43.38879" lon="6.09426">
        <ele>338.79998779297</ele>
        <time>2016-06-22T13:26:00Z</time>
      </trkpt>
      <trkpt lat="43.38878" lon="6.09428">
        <ele>338.79998779297</ele>
        <time>2016-06-22T13:26:10Z</time>
      </trkpt>
      <trkpt lat="43.38878" lon="6.09427">
        <ele>338.79998779297</ele>
        <time>2016-06-22T13:26:20Z</time>
      </trkpt>
      <trkpt lat="43.38877" lon="6.09429">
        <ele>338.79998779297</ele>
        <time>2016-06-22T13:26:30Z</time>
      </trkpt>
      <trkpt lat="43.38877" lon="6.0943">
        <ele>338.79998779297</ele>
        <time>2016-06-22T13:26:37Z</time>
      </trkpt>
      <trkpt lat="43.38877" lon="6.09431">
        <ele>338.79998779297</ele>
        <time>2016-06-22T13:26:40Z</time>
      </trkpt>
      <trkpt lat="43.38877" lon="6.09432">
        <ele>338.79998779297</ele>
        <time>2016-06-22T13:26:47Z</time>
      </trkpt>
      <trkpt lat="43.38877" lon="6.09431">
        <ele>338.79998779297</ele>
        <time>2016-06-22T13:26:50Z</time>
      </trkpt>
      <trkpt lat="43.38879" lon="6.09433">
        <ele>338.79998779297</ele>
        <time>2016-06-22T13:27:00Z</time>
      </trkpt>
      <trkpt lat="43.38878" lon="6.09433">
        <ele>338.79998779297</ele>
        <time>2016-06-22T13:27:07Z</time>
      </trkpt>
      <trkpt lat="43.38877" lon="6.0943">
        <ele>338.79998779297</ele>
        <time>2016-06-22T13:27:10Z</time>
      </trkpt>
      <trkpt lat="43.38876" lon="6.09426">
        <ele>338.79998779297</ele>
        <time>2016-06-22T13:27:20Z</time>
      </trkpt>
      <trkpt lat="43.38878" lon="6.0943">
        <ele>338.79998779297</ele>
        <time>2016-06-22T13:27:30Z</time>
      </trkpt>
      <trkpt lat="43.3888" lon="6.09434">
        <ele>338.79998779297</ele>
        <time>2016-06-22T13:27:40Z</time>
      </trkpt>
      <trkpt lat="43.38884" lon="6.0943">
        <ele>338.79998779297</ele>
        <time>2016-06-22T13:27:50Z</time>
      </trkpt>
      <trkpt lat="43.38884" lon="6.09427">
        <ele>338.79998779297</ele>
        <time>2016-06-22T13:28:00Z</time>
      </trkpt>
      <trkpt lat="43.38883" lon="6.09427">
        <ele>338.79998779297</ele>
        <time>2016-06-22T13:28:07Z</time>
      </trkpt>
      <trkpt lat="43.38883" lon="6.09429">
        <ele>338.79998779297</ele>
        <time>2016-06-22T13:28:10Z</time>
      </trkpt>
      <trkpt lat="43.38884" lon="6.09429">
        <ele>338.79998779297</ele>
        <time>2016-06-22T13:28:19Z</time>
      </trkpt>
      <trkpt lat="43.38884" lon="6.09429">
        <ele>338.79998779297</ele>
        <time>2016-06-22T13:28:20Z</time>
      </trkpt>
      <trkpt lat="43.38879" lon="6.09433">
        <ele>338.79998779297</ele>
        <time>2016-06-22T13:28:30Z</time>
      </trkpt>
      <trkpt lat="43.38879" lon="6.09427">
        <ele>338.79998779297</ele>
        <time>2016-06-22T13:28:40Z</time>
      </trkpt>
      <trkpt lat="43.38882" lon="6.09429">
        <ele>338.79998779297</ele>
        <time>2016-06-22T13:28:50Z</time>
      </trkpt>
      <trkpt lat="43.38882" lon="6.09429">
        <ele>338.79998779297</ele>
        <time>2016-06-22T13:29:00Z</time>
      </trkpt>
      <trkpt lat="43.38881" lon="6.09432">
        <ele>338.79998779297</ele>
        <time>2016-06-22T13:29:10Z</time>
      </trkpt>
      <trkpt lat="43.38881" lon="6.09436">
        <ele>338.79998779297</ele>
        <time>2016-06-22T13:29:20Z</time>
      </trkpt>
      <trkpt lat="43.3888" lon="6.09435">
        <ele>338.79998779297</ele>
        <time>2016-06-22T13:29:30Z</time>
      </trkpt>
      <trkpt lat="43.38881" lon="6.09434">
        <ele>338.79998779297</ele>
        <time>2016-06-22T13:29:40Z</time>
      </trkpt>
      <trkpt lat="43.38881" lon="6.09435">
        <ele>338.79998779297</ele>
        <time>2016-06-22T13:29:50Z</time>
      </trkpt>
      <trkpt lat="43.38881" lon="6.09436">
        <ele>338.79998779297</ele>
        <time>2016-06-22T13:30:00Z</time>
      </trkpt>
      <trkpt lat="43.38881" lon="6.09435">
        <ele>338.79998779297</ele>
        <time>2016-06-22T13:30:10Z</time>
      </trkpt>
      <trkpt lat="43.38882" lon="6.09432">
        <ele>338.79998779297</ele>
        <time>2016-06-22T13:30:20Z</time>
      </trkpt>
      <trkpt lat="43.38882" lon="6.09432">
        <ele>338.79998779297</ele>
        <time>2016-06-22T13:30:30Z</time>
      </trkpt>
      <trkpt lat="43.38882" lon="6.0943">
        <ele>338.79998779297</ele>
        <time>2016-06-22T13:30:40Z</time>
      </trkpt>
      <trkpt lat="43.38882" lon="6.0943">
        <ele>338.79998779297</ele>
        <time>2016-06-22T13:30:50Z</time>
      </trkpt>
      <trkpt lat="43.38882" lon="6.0943">
        <ele>338.79998779297</ele>
        <time>2016-06-22T13:31:00Z</time>
      </trkpt>
      <trkpt lat="43.38879" lon="6.09432">
        <ele>338.79998779297</ele>
        <time>2016-06-22T13:31:10Z</time>
      </trkpt>
      <trkpt lat="43.38879" lon="6.09432">
        <ele>338.79998779297</ele>
        <time>2016-06-22T13:31:20Z</time>
      </trkpt>
      <trkpt lat="43.38878" lon="6.09431">
        <ele>338.79998779297</ele>
        <time>2016-06-22T13:31:30Z</time>
      </trkpt>
      <trkpt lat="43.38879" lon="6.09429">
        <ele>338.79998779297</ele>
        <time>2016-06-22T13:31:40Z</time>
      </trkpt>
      <trkpt lat="43.38878" lon="6.09427">
        <ele>338.79998779297</ele>
        <time>2016-06-22T13:31:42Z</time>
      </trkpt>
      <trkpt lat="43.38878" lon="6.09427">
        <ele>338.79998779297</ele>
        <time>2016-06-22T13:31:43Z</time>
      </trkpt>
      <trkpt lat="43.38879" lon="6.09429">
        <ele>338.79998779297</ele>
        <time>2016-06-22T13:31:50Z</time>
      </trkpt>
      <trkpt lat="43.38877" lon="6.0943">
        <ele>338.79998779297</ele>
        <time>2016-06-22T13:31:59Z</time>
      </trkpt>
      <trkpt lat="43.38878" lon="6.09431">
        <ele>338.79998779297</ele>
        <time>2016-06-22T13:32:00Z</time>
      </trkpt>
      <trkpt lat="43.38878" lon="6.09431">
        <ele>338.79998779297</ele>
        <time>2016-06-22T13:32:10Z</time>
      </trkpt>
      <trkpt lat="43.38879" lon="6.09431">
        <ele>338.79998779297</ele>
        <time>2016-06-22T13:32:20Z</time>
      </trkpt>
      <trkpt lat="43.38879" lon="6.09431">
        <ele>338.79998779297</ele>
        <time>2016-06-22T13:32:23Z</time>
      </trkpt>
      <trkpt lat="43.38879" lon="6.09432">
        <ele>338.79998779297</ele>
        <time>2016-06-22T13:32:30Z</time>
      </trkpt>
      <trkpt lat="43.3888" lon="6.09433">
        <ele>338.79998779297</ele>
        <time>2016-06-22T13:32:37Z</time>
      </trkpt>
      <trkpt lat="43.38881" lon="6.09433">
        <ele>338.79998779297</ele>
        <time>2016-06-22T13:32:46Z</time>
      </trkpt>
      <trkpt lat="43.3888" lon="6.09433">
        <ele>338.79998779297</ele>
        <time>2016-06-22T13:32:50Z</time>
      </trkpt>
      <trkpt lat="43.38879" lon="6.09433">
        <ele>338.79998779297</ele>
        <time>2016-06-22T13:33:00Z</time>
      </trkpt>
      <trkpt lat="43.38881" lon="6.09433">
        <ele>338.79998779297</ele>
        <time>2016-06-22T13:33:07Z</time>
      </trkpt>
      <trkpt lat="43.38882" lon="6.09433">
        <ele>338.79998779297</ele>
        <time>2016-06-22T13:33:10Z</time>
      </trkpt>
      <trkpt lat="43.38882" lon="6.09436">
        <ele>338.79998779297</ele>
        <time>2016-06-22T13:33:20Z</time>
      </trkpt>
      <trkpt lat="43.38882" lon="6.09435">
        <ele>338.79998779297</ele>
        <time>2016-06-22T13:33:30Z</time>
      </trkpt>
      <trkpt lat="43.38884" lon="6.09433">
        <ele>338.79998779297</ele>
        <time>2016-06-22T13:33:40Z</time>
      </trkpt>
      <trkpt lat="43.38884" lon="6.09435">
        <ele>338.79998779297</ele>
        <time>2016-06-22T13:33:50Z</time>
      </trkpt>
      <trkpt lat="43.38884" lon="6.09433">
        <ele>338.79998779297</ele>
        <time>2016-06-22T13:34:00Z</time>
      </trkpt>
      <trkpt lat="43.38883" lon="6.09432">
        <ele>338.79998779297</ele>
        <time>2016-06-22T13:34:10Z</time>
      </trkpt>
      <trkpt lat="43.38882" lon="6.09433">
        <ele>338.79998779297</ele>
        <time>2016-06-22T13:34:20Z</time>
      </trkpt>
      <trkpt lat="43.38882" lon="6.09434">
        <ele>338.79998779297</ele>
        <time>2016-06-22T13:34:30Z</time>
      </trkpt>
      <trkpt lat="43.38881" lon="6.09437">
        <ele>338.79998779297</ele>
        <time>2016-06-22T13:34:40Z</time>
      </trkpt>
      <trkpt lat="43.38881" lon="6.09437">
        <ele>338.79998779297</ele>
        <time>2016-06-22T13:34:50Z</time>
      </trkpt>
      <trkpt lat="43.38881" lon="6.09434">
        <ele>338.79998779297</ele>
        <time>2016-06-22T13:35:00Z</time>
      </trkpt>
      <trkpt lat="43.38881" lon="6.09433">
        <ele>338.79998779297</ele>
        <time>2016-06-22T13:35:04Z</time>
      </trkpt>
      <trkpt lat="43.38881" lon="6.09433">
        <ele>338.79998779297</ele>
        <time>2016-06-22T13:35:10Z</time>
      </trkpt>
      <trkpt lat="43.38881" lon="6.09433">
        <ele>338.79998779297</ele>
        <time>2016-06-22T13:35:20Z</time>
      </trkpt>
      <trkpt lat="43.38881" lon="6.09431">
        <ele>338.79998779297</ele>
        <time>2016-06-22T13:35:30Z</time>
      </trkpt>
      <trkpt lat="43.38879" lon="6.09431">
        <ele>338.79998779297</ele>
        <time>2016-06-22T13:35:40Z</time>
      </trkpt>
      <trkpt lat="43.38876" lon="6.09432">
        <ele>338.79998779297</ele>
        <time>2016-06-22T13:35:50Z</time>
      </trkpt>
      <trkpt lat="43.38879" lon="6.09428">
        <ele>338.79998779297</ele>
        <time>2016-06-22T13:36:00Z</time>
      </trkpt>
      <trkpt lat="43.38877" lon="6.09428">
        <ele>338.79998779297</ele>
        <time>2016-06-22T13:36:10Z</time>
      </trkpt>
      <trkpt lat="43.38875" lon="6.0943">
        <ele>338.79998779297</ele>
        <time>2016-06-22T13:36:20Z</time>
      </trkpt>
      <trkpt lat="43.38874" lon="6.09431">
        <ele>338.79998779297</ele>
        <time>2016-06-22T13:36:24Z</time>
      </trkpt>
      <trkpt lat="43.38874" lon="6.09432">
        <ele>338.79998779297</ele>
        <time>2016-06-22T13:36:30Z</time>
      </trkpt>
      <trkpt lat="43.38874" lon="6.09432">
        <ele>338.79998779297</ele>
        <time>2016-06-22T13:36:36Z</time>
      </trkpt>
      <trkpt lat="43.38874" lon="6.09432">
        <ele>338.79998779297</ele>
        <time>2016-06-22T13:36:40Z</time>
      </trkpt>
      <trkpt lat="43.38873" lon="6.09431">
        <ele>338.79998779297</ele>
        <time>2016-06-22T13:36:47Z</time>
      </trkpt>
      <trkpt lat="43.38873" lon="6.0943">
        <ele>338.79998779297</ele>
        <time>2016-06-22T13:36:50Z</time>
      </trkpt>
      <trkpt lat="43.38874" lon="6.09432">
        <ele>338.79998779297</ele>
        <time>2016-06-22T13:37:00Z</time>
      </trkpt>
      <trkpt lat="43.38874" lon="6.09433">
        <ele>338.79998779297</ele>
        <time>2016-06-22T13:37:10Z</time>
      </trkpt>
      <trkpt lat="43.38874" lon="6.0943">
        <ele>338.79998779297</ele>
        <time>2016-06-22T13:37:18Z</time>
      </trkpt>
      <trkpt lat="43.38874" lon="6.0943">
        <ele>338.79998779297</ele>
        <time>2016-06-22T13:37:20Z</time>
      </trkpt>
      <trkpt lat="43.38877" lon="6.09428">
        <ele>338.79998779297</ele>
        <time>2016-06-22T13:37:29Z</time>
      </trkpt>
      <trkpt lat="43.38877" lon="6.09428">
        <ele>338.79998779297</ele>
        <time>2016-06-22T13:37:30Z</time>
      </trkpt>
      <trkpt lat="43.38879" lon="6.09427">
        <ele>338.79998779297</ele>
        <time>2016-06-22T13:37:32Z</time>
      </trkpt>
      <trkpt lat="43.38879" lon="6.09426">
        <ele>338.79998779297</ele>
        <time>2016-06-22T13:37:34Z</time>
      </trkpt>
      <trkpt lat="43.38882" lon="6.09423">
        <ele>337.20001220703</ele>
        <time>2016-06-22T13:37:37Z</time>
      </trkpt>
      <trkpt lat="43.38883" lon="6.09423">
        <ele>336</ele>
        <time>2016-06-22T13:37:39Z</time>
      </trkpt>
      <trkpt lat="43.38884" lon="6.09422">
        <ele>335.60000610352</ele>
        <time>2016-06-22T13:37:40Z</time>
      </trkpt>
      <trkpt lat="43.38884" lon="6.09418">
        <ele>335.60000610352</ele>
        <time>2016-06-22T13:37:44Z</time>
      </trkpt>
      <trkpt lat="43.38887" lon="6.09412">
        <ele>336.39999389648</ele>
        <time>2016-06-22T13:37:50Z</time>
      </trkpt>
      <trkpt lat="43.3889" lon="6.09406">
        <ele>335.79998779297</ele>
        <time>2016-06-22T13:37:54Z</time>
      </trkpt>
      <trkpt lat="43.38899" lon="6.09396">
        <ele>335.39999389648</ele>
        <time>2016-06-22T13:38:00Z</time>
      </trkpt>
      <trkpt lat="43.38902" lon="6.09392">
        <ele>334.79998779297</ele>
        <time>2016-06-22T13:38:02Z</time>
      </trkpt>
      <trkpt lat="43.38909" lon="6.09383">
        <ele>333.79998779297</ele>
        <time>2016-06-22T13:38:06Z</time>
      </trkpt>
      <trkpt lat="43.38919" lon="6.09375">
        <ele>333</ele>
        <time>2016-06-22T13:38:10Z</time>
      </trkpt>
      <trkpt lat="43.38927" lon="6.09366">
        <ele>332.79998779297</ele>
        <time>2016-06-22T13:38:13Z</time>
      </trkpt>
      <trkpt lat="43.38945" lon="6.09347">
        <ele>332.20001220703</ele>
        <time>2016-06-22T13:38:20Z</time>
      </trkpt>
      <trkpt lat="43.38961" lon="6.0932">
        <ele>331.60000610352</ele>
        <time>2016-06-22T13:38:26Z</time>
      </trkpt>
      <trkpt lat="43.38972" lon="6.09299">
        <ele>331</ele>
        <time>2016-06-22T13:38:30Z</time>
      </trkpt>
      <trkpt lat="43.38976" lon="6.09294">
        <ele>330.60000610352</ele>
        <time>2016-06-22T13:38:31Z</time>
      </trkpt>
      <trkpt lat="43.38981" lon="6.09284">
        <ele>330</ele>
        <time>2016-06-22T13:38:33Z</time>
      </trkpt>
      <trkpt lat="43.38983" lon="6.09278">
        <ele>329.60000610352</ele>
        <time>2016-06-22T13:38:34Z</time>
      </trkpt>
      <trkpt lat="43.38994" lon="6.09244">
        <ele>329</ele>
        <time>2016-06-22T13:38:40Z</time>
      </trkpt>
      <trkpt lat="43.39004" lon="6.09187">
        <ele>329.20001220703</ele>
        <time>2016-06-22T13:38:50Z</time>
      </trkpt>
      <trkpt lat="43.39009" lon="6.09171">
        <ele>328.39999389648</ele>
        <time>2016-06-22T13:38:53Z</time>
      </trkpt>
      <trkpt lat="43.39014" lon="6.09153">
        <ele>327.79998779297</ele>
        <time>2016-06-22T13:38:56Z</time>
      </trkpt>
      <trkpt lat="43.39015" lon="6.09147">
        <ele>327.39999389648</ele>
        <time>2016-06-22T13:38:57Z</time>
      </trkpt>
      <trkpt lat="43.39019" lon="6.09128">
        <ele>327</ele>
        <time>2016-06-22T13:39:00Z</time>
      </trkpt>
      <trkpt lat="43.39037" lon="6.09077">
        <ele>326.60000610352</ele>
        <time>2016-06-22T13:39:10Z</time>
      </trkpt>
      <trkpt lat="43.39038" lon="6.09072">
        <ele>326.39999389648</ele>
        <time>2016-06-22T13:39:11Z</time>
      </trkpt>
      <trkpt lat="43.39056" lon="6.09034">
        <ele>325.39999389648</ele>
        <time>2016-06-22T13:39:20Z</time>
      </trkpt>
      <trkpt lat="43.39075" lon="6.08993">
        <ele>325.20001220703</ele>
        <time>2016-06-22T13:39:30Z</time>
      </trkpt>
      <trkpt lat="43.3909" lon="6.08956">
        <ele>324.79998779297</ele>
        <time>2016-06-22T13:39:40Z</time>
      </trkpt>
      <trkpt lat="43.39095" lon="6.08931">
        <ele>324.20001220703</ele>
        <time>2016-06-22T13:39:45Z</time>
      </trkpt>
      <trkpt lat="43.39108" lon="6.08861">
        <ele>323.20001220703</ele>
        <time>2016-06-22T13:40:00Z</time>
      </trkpt>
      <trkpt lat="43.39109" lon="6.08856">
        <ele>323</ele>
        <time>2016-06-22T13:40:01Z</time>
      </trkpt>
      <trkpt lat="43.39116" lon="6.08823">
        <ele>322.79998779297</ele>
        <time>2016-06-22T13:40:07Z</time>
      </trkpt>
      <trkpt lat="43.3912" lon="6.08808">
        <ele>322.39999389648</ele>
        <time>2016-06-22T13:40:10Z</time>
      </trkpt>
      <trkpt lat="43.39123" lon="6.08794">
        <ele>322</ele>
        <time>2016-06-22T13:40:13Z</time>
      </trkpt>
      <trkpt lat="43.39132" lon="6.08753">
        <ele>321.79998779297</ele>
        <time>2016-06-22T13:40:20Z</time>
      </trkpt>
      <trkpt lat="43.3914" lon="6.08697">
        <ele>321</ele>
        <time>2016-06-22T13:40:30Z</time>
      </trkpt>
      <trkpt lat="43.39148" lon="6.0865">
        <ele>320.20001220703</ele>
        <time>2016-06-22T13:40:40Z</time>
      </trkpt>
      <trkpt lat="43.39161" lon="6.08597">
        <ele>320.60000610352</ele>
        <time>2016-06-22T13:40:50Z</time>
      </trkpt>
      <trkpt lat="43.39171" lon="6.08556">
        <ele>322</ele>
        <time>2016-06-22T13:41:00Z</time>
      </trkpt>
      <trkpt lat="43.39176" lon="6.08542">
        <ele>322</ele>
        <time>2016-06-22T13:41:07Z</time>
      </trkpt>
      <trkpt lat="43.39179" lon="6.08536">
        <ele>322.20001220703</ele>
        <time>2016-06-22T13:41:10Z</time>
      </trkpt>
      <trkpt lat="43.3918" lon="6.08534">
        <ele>322.20001220703</ele>
        <time>2016-06-22T13:41:11Z</time>
      </trkpt>
      <trkpt lat="43.39181" lon="6.08531">
        <ele>322.20001220703</ele>
        <time>2016-06-22T13:41:12Z</time>
      </trkpt>
      <trkpt lat="43.39186" lon="6.08517">
        <ele>322.79998779297</ele>
        <time>2016-06-22T13:41:17Z</time>
      </trkpt>
      <trkpt lat="43.39187" lon="6.08514">
        <ele>323.20001220703</ele>
        <time>2016-06-22T13:41:18Z</time>
      </trkpt>
      <trkpt lat="43.39188" lon="6.0851">
        <ele>323.20001220703</ele>
        <time>2016-06-22T13:41:20Z</time>
      </trkpt>
      <trkpt lat="43.3919" lon="6.08503">
        <ele>323.39999389648</ele>
        <time>2016-06-22T13:41:24Z</time>
      </trkpt>
      <trkpt lat="43.39192" lon="6.085">
        <ele>323.39999389648</ele>
        <time>2016-06-22T13:41:30Z</time>
      </trkpt>
      <trkpt lat="43.39194" lon="6.085">
        <ele>323.39999389648</ele>
        <time>2016-06-22T13:41:37Z</time>
      </trkpt>
      <trkpt lat="43.39194" lon="6.08499">
        <ele>322</ele>
        <time>2016-06-22T13:41:38Z</time>
      </trkpt>
      <trkpt lat="43.39195" lon="6.08496">
        <ele>323</ele>
        <time>2016-06-22T13:41:40Z</time>
      </trkpt>
      <trkpt lat="43.39197" lon="6.08465">
        <ele>321.39999389648</ele>
        <time>2016-06-22T13:41:50Z</time>
      </trkpt>
      <trkpt lat="43.39199" lon="6.08455">
        <ele>320.79998779297</ele>
        <time>2016-06-22T13:41:52Z</time>
      </trkpt>
      <trkpt lat="43.39201" lon="6.08442">
        <ele>319.60000610352</ele>
        <time>2016-06-22T13:41:55Z</time>
      </trkpt>
      <trkpt lat="43.39201" lon="6.08435">
        <ele>319</ele>
        <time>2016-06-22T13:42:00Z</time>
      </trkpt>
      <trkpt lat="43.39201" lon="6.08429">
        <ele>317.79998779297</ele>
        <time>2016-06-22T13:42:02Z</time>
      </trkpt>
      <trkpt lat="43.39204" lon="6.08418">
        <ele>316.60000610352</ele>
        <time>2016-06-22T13:42:05Z</time>
      </trkpt>
      <trkpt lat="43.39209" lon="6.08407">
        <ele>316.39999389648</ele>
        <time>2016-06-22T13:42:10Z</time>
      </trkpt>
      <trkpt lat="43.39209" lon="6.08388">
        <ele>315.60000610352</ele>
        <time>2016-06-22T13:42:15Z</time>
      </trkpt>
      <trkpt lat="43.39211" lon="6.08374">
        <ele>314.60000610352</ele>
        <time>2016-06-22T13:42:20Z</time>
      </trkpt>
      <trkpt lat="43.39215" lon="6.08352">
        <ele>313.39999389648</ele>
        <time>2016-06-22T13:42:25Z</time>
      </trkpt>
      <trkpt lat="43.39217" lon="6.08339">
        <ele>312.60000610352</ele>
        <time>2016-06-22T13:42:30Z</time>
      </trkpt>
      <trkpt lat="43.39217" lon="6.08336">
        <ele>312.39999389648</ele>
        <time>2016-06-22T13:42:31Z</time>
      </trkpt>
      <trkpt lat="43.39224" lon="6.08318">
        <ele>311.39999389648</ele>
        <time>2016-06-22T13:42:39Z</time>
      </trkpt>
      <trkpt lat="43.39225" lon="6.08318">
        <ele>311</ele>
        <time>2016-06-22T13:42:40Z</time>
      </trkpt>
      <trkpt lat="43.39225" lon="6.08317">
        <ele>310.20001220703</ele>
        <time>2016-06-22T13:42:42Z</time>
      </trkpt>
      <trkpt lat="43.39227" lon="6.08315">
        <ele>309.60000610352</ele>
        <time>2016-06-22T13:42:50Z</time>
      </trkpt>
      <trkpt lat="43.39227" lon="6.08315">
        <ele>309.39999389648</ele>
        <time>2016-06-22T13:42:54Z</time>
      </trkpt>
      <trkpt lat="43.39227" lon="6.08315">
        <ele>309.39999389648</ele>
        <time>2016-06-22T13:43:00Z</time>
      </trkpt>
      <trkpt lat="43.39229" lon="6.08312">
        <ele>309.20001220703</ele>
        <time>2016-06-22T13:43:08Z</time>
      </trkpt>
      <trkpt lat="43.3923" lon="6.08311">
        <ele>309.20001220703</ele>
        <time>2016-06-22T13:43:09Z</time>
      </trkpt>
      <trkpt lat="43.3923" lon="6.0831">
        <ele>309</ele>
        <time>2016-06-22T13:43:10Z</time>
      </trkpt>
      <trkpt lat="43.39232" lon="6.08302">
        <ele>308</ele>
        <time>2016-06-22T13:43:15Z</time>
      </trkpt>
      <trkpt lat="43.39238" lon="6.0829">
        <ele>307</ele>
        <time>2016-06-22T13:43:20Z</time>
      </trkpt>
      <trkpt lat="43.39244" lon="6.08275">
        <ele>305.79998779297</ele>
        <time>2016-06-22T13:43:26Z</time>
      </trkpt>
      <trkpt lat="43.39252" lon="6.08267">
        <ele>304.60000610352</ele>
        <time>2016-06-22T13:43:30Z</time>
      </trkpt>
      <trkpt lat="43.39263" lon="6.08246">
        <ele>303.60000610352</ele>
        <time>2016-06-22T13:43:37Z</time>
      </trkpt>
      <trkpt lat="43.39264" lon="6.08237">
        <ele>303</ele>
        <time>2016-06-22T13:43:40Z</time>
      </trkpt>
      <trkpt lat="43.39264" lon="6.08232">
        <ele>302.60000610352</ele>
        <time>2016-06-22T13:43:42Z</time>
      </trkpt>
      <trkpt lat="43.39267" lon="6.08217">
        <ele>301.39999389648</ele>
        <time>2016-06-22T13:43:47Z</time>
      </trkpt>
      <trkpt lat="43.39269" lon="6.08207">
        <ele>300.79998779297</ele>
        <time>2016-06-22T13:43:50Z</time>
      </trkpt>
      <trkpt lat="43.39269" lon="6.08202">
        <ele>300.20001220703</ele>
        <time>2016-06-22T13:43:52Z</time>
      </trkpt>
      <trkpt lat="43.39268" lon="6.08191">
        <ele>299.79998779297</ele>
        <time>2016-06-22T13:43:58Z</time>
      </trkpt>
      <trkpt lat="43.39271" lon="6.08189">
        <ele>299.39999389648</ele>
        <time>2016-06-22T13:44:00Z</time>
      </trkpt>
      <trkpt lat="43.39272" lon="6.08187">
        <ele>299.39999389648</ele>
        <time>2016-06-22T13:44:01Z</time>
      </trkpt>
      <trkpt lat="43.39273" lon="6.08185">
        <ele>299.20001220703</ele>
        <time>2016-06-22T13:44:02Z</time>
      </trkpt>
      <trkpt lat="43.39275" lon="6.08176">
        <ele>298.20001220703</ele>
        <time>2016-06-22T13:44:07Z</time>
      </trkpt>
      <trkpt lat="43.39275" lon="6.08174">
        <ele>298.20001220703</ele>
        <time>2016-06-22T13:44:08Z</time>
      </trkpt>
      <trkpt lat="43.39277" lon="6.08171">
        <ele>297.60000610352</ele>
        <time>2016-06-22T13:44:10Z</time>
      </trkpt>
      <trkpt lat="43.39279" lon="6.08163">
        <ele>297</ele>
        <time>2016-06-22T13:44:13Z</time>
      </trkpt>
      <trkpt lat="43.39282" lon="6.08152">
        <ele>296.60000610352</ele>
        <time>2016-06-22T13:44:17Z</time>
      </trkpt>
      <trkpt lat="43.39282" lon="6.08147">
        <ele>296</ele>
        <time>2016-06-22T13:44:20Z</time>
      </trkpt>
      <trkpt lat="43.39282" lon="6.08146">
        <ele>296</ele>
        <time>2016-06-22T13:44:21Z</time>
      </trkpt>
      <trkpt lat="43.39281" lon="6.08142">
        <ele>295.39999389648</ele>
        <time>2016-06-22T13:44:30Z</time>
      </trkpt>
      <trkpt lat="43.39286" lon="6.08125">
        <ele>294.79998779297</ele>
        <time>2016-06-22T13:44:39Z</time>
      </trkpt>
      <trkpt lat="43.39288" lon="6.08123">
        <ele>295</ele>
        <time>2016-06-22T13:44:40Z</time>
      </trkpt>
      <trkpt lat="43.39302" lon="6.08099">
        <ele>294.39999389648</ele>
        <time>2016-06-22T13:44:50Z</time>
      </trkpt>
      <trkpt lat="43.39308" lon="6.08087">
        <ele>293.60000610352</ele>
        <time>2016-06-22T13:44:54Z</time>
      </trkpt>
      <trkpt lat="43.39319" lon="6.08073">
        <ele>292.79998779297</ele>
        <time>2016-06-22T13:45:00Z</time>
      </trkpt>
      <trkpt lat="43.39325" lon="6.08065">
        <ele>292.60000610352</ele>
        <time>2016-06-22T13:45:03Z</time>
      </trkpt>
      <trkpt lat="43.39336" lon="6.08045">
        <ele>292</ele>
        <time>2016-06-22T13:45:10Z</time>
      </trkpt>
      <trkpt lat="43.3935" lon="6.08032">
        <ele>291.20001220703</ele>
        <time>2016-06-22T13:45:18Z</time>
      </trkpt>
      <trkpt lat="43.39354" lon="6.08026">
        <ele>290.60000610352</ele>
        <time>2016-06-22T13:45:20Z</time>
      </trkpt>
      <trkpt lat="43.39359" lon="6.08022">
        <ele>290</ele>
        <time>2016-06-22T13:45:23Z</time>
      </trkpt>
      <trkpt lat="43.39365" lon="6.08015">
        <ele>289.39999389648</ele>
        <time>2016-06-22T13:45:27Z</time>
      </trkpt>
      <trkpt lat="43.39367" lon="6.08012">
        <ele>289.20001220703</ele>
        <time>2016-06-22T13:45:28Z</time>
      </trkpt>
      <trkpt lat="43.3937" lon="6.0801">
        <ele>289</ele>
        <time>2016-06-22T13:45:29Z</time>
      </trkpt>
      <trkpt lat="43.39372" lon="6.08007">
        <ele>288.79998779297</ele>
        <time>2016-06-22T13:45:30Z</time>
      </trkpt>
      <trkpt lat="43.39375" lon="6.08003">
        <ele>288</ele>
        <time>2016-06-22T13:45:37Z</time>
      </trkpt>
      <trkpt lat="43.39375" lon="6.08004">
        <ele>288</ele>
        <time>2016-06-22T13:45:40Z</time>
      </trkpt>
      <trkpt lat="43.39373" lon="6.08003">
        <ele>288</ele>
        <time>2016-06-22T13:45:48Z</time>
      </trkpt>
      <trkpt lat="43.39373" lon="6.08003">
        <ele>288.20001220703</ele>
        <time>2016-06-22T13:45:50Z</time>
      </trkpt>
      <trkpt lat="43.39376" lon="6.08">
        <ele>288</ele>
        <time>2016-06-22T13:46:00Z</time>
      </trkpt>
      <trkpt lat="43.39376" lon="6.07999">
        <ele>288</ele>
        <time>2016-06-22T13:46:04Z</time>
      </trkpt>
      <trkpt lat="43.39376" lon="6.07999">
        <ele>288.20001220703</ele>
        <time>2016-06-22T13:46:10Z</time>
      </trkpt>
      <trkpt lat="43.39375" lon="6.07999">
        <ele>288.20001220703</ele>
        <time>2016-06-22T13:46:20Z</time>
      </trkpt>
      <trkpt lat="43.39375" lon="6.07999">
        <ele>288</ele>
        <time>2016-06-22T13:46:30Z</time>
      </trkpt>
      <trkpt lat="43.39374" lon="6.07998">
        <ele>288.39999389648</ele>
        <time>2016-06-22T13:46:40Z</time>
      </trkpt>
      <trkpt lat="43.39375" lon="6.07998">
        <ele>288.39999389648</ele>
        <time>2016-06-22T13:46:50Z</time>
      </trkpt>
      <trkpt lat="43.39376" lon="6.07999">
        <ele>288.39999389648</ele>
        <time>2016-06-22T13:47:00Z</time>
      </trkpt>
      <trkpt lat="43.39378" lon="6.08">
        <ele>288.39999389648</ele>
        <time>2016-06-22T13:47:10Z</time>
      </trkpt>
      <trkpt lat="43.39378" lon="6.08">
        <ele>288.39999389648</ele>
        <time>2016-06-22T13:47:20Z</time>
      </trkpt>
      <trkpt lat="43.39377" lon="6.08">
        <ele>288.39999389648</ele>
        <time>2016-06-22T13:47:30Z</time>
      </trkpt>
      <trkpt lat="43.39377" lon="6.07999">
        <ele>288.39999389648</ele>
        <time>2016-06-22T13:47:50Z</time>
      </trkpt>
      <trkpt lat="43.39377" lon="6.08">
        <ele>288.39999389648</ele>
        <time>2016-06-22T13:48:00Z</time>
      </trkpt>
      <trkpt lat="43.39377" lon="6.07996">
        <ele>288.39999389648</ele>
        <time>2016-06-22T13:48:10Z</time>
      </trkpt>
      <trkpt lat="43.39376" lon="6.07992">
        <ele>288.39999389648</ele>
        <time>2016-06-22T13:48:20Z</time>
      </trkpt>
      <trkpt lat="43.39378" lon="6.07994">
        <ele>288.39999389648</ele>
        <time>2016-06-22T13:48:30Z</time>
      </trkpt>
      <trkpt lat="43.39376" lon="6.07994">
        <ele>288.39999389648</ele>
        <time>2016-06-22T13:48:40Z</time>
      </trkpt>
      <trkpt lat="43.39376" lon="6.07996">
        <ele>288.39999389648</ele>
        <time>2016-06-22T13:48:50Z</time>
      </trkpt>
      <trkpt lat="43.39377" lon="6.07997">
        <ele>288.39999389648</ele>
        <time>2016-06-22T13:49:00Z</time>
      </trkpt>
      <trkpt lat="43.39378" lon="6.07999">
        <ele>288.39999389648</ele>
        <time>2016-06-22T13:49:10Z</time>
      </trkpt>
      <trkpt lat="43.3938" lon="6.07998">
        <ele>288.39999389648</ele>
        <time>2016-06-22T13:49:20Z</time>
      </trkpt>
      <trkpt lat="43.39381" lon="6.08">
        <ele>288.39999389648</ele>
        <time>2016-06-22T13:49:30Z</time>
      </trkpt>
      <trkpt lat="43.39381" lon="6.08001">
        <ele>288.39999389648</ele>
        <time>2016-06-22T13:49:39Z</time>
      </trkpt>
      <trkpt lat="43.3938" lon="6.08">
        <ele>288.39999389648</ele>
        <time>2016-06-22T13:49:50Z</time>
      </trkpt>
      <trkpt lat="43.39381" lon="6.08">
        <ele>288.39999389648</ele>
        <time>2016-06-22T13:50:00Z</time>
      </trkpt>
      <trkpt lat="43.39381" lon="6.08">
        <ele>288.39999389648</ele>
        <time>2016-06-22T13:50:20Z</time>
      </trkpt>
      <trkpt lat="43.39379" lon="6.07999">
        <ele>288.39999389648</ele>
        <time>2016-06-22T13:50:40Z</time>
      </trkpt>
      <trkpt lat="43.39379" lon="6.07999">
        <ele>288.39999389648</ele>
        <time>2016-06-22T13:50:50Z</time>
      </trkpt>
      <trkpt lat="43.39376" lon="6.07999">
        <ele>288.39999389648</ele>
        <time>2016-06-22T13:51:10Z</time>
      </trkpt>
      <trkpt lat="43.39376" lon="6.07997">
        <ele>288.39999389648</ele>
        <time>2016-06-22T13:51:16Z</time>
      </trkpt>
      <trkpt lat="43.39373" lon="6.07995">
        <ele>288.39999389648</ele>
        <time>2016-06-22T13:51:19Z</time>
      </trkpt>
      <trkpt lat="43.39372" lon="6.07994">
        <ele>289.20001220703</ele>
        <time>2016-06-22T13:51:20Z</time>
      </trkpt>
      <trkpt lat="43.39369" lon="6.0799">
        <ele>290.60000610352</ele>
        <time>2016-06-22T13:51:23Z</time>
      </trkpt>
      <trkpt lat="43.39368" lon="6.07986">
        <ele>291.79998779297</ele>
        <time>2016-06-22T13:51:25Z</time>
      </trkpt>
      <trkpt lat="43.39367" lon="6.0798">
        <ele>291.20001220703</ele>
        <time>2016-06-22T13:51:28Z</time>
      </trkpt>
      <trkpt lat="43.39368" lon="6.07975">
        <ele>291.60000610352</ele>
        <time>2016-06-22T13:51:30Z</time>
      </trkpt>
      <trkpt lat="43.39366" lon="6.07973">
        <ele>292</ele>
        <time>2016-06-22T13:51:32Z</time>
      </trkpt>
      <trkpt lat="43.39365" lon="6.07973">
        <ele>293</ele>
        <time>2016-06-22T13:51:35Z</time>
      </trkpt>
      <trkpt lat="43.39364" lon="6.07975">
        <ele>293.20001220703</ele>
        <time>2016-06-22T13:51:37Z</time>
      </trkpt>
      <trkpt lat="43.39363" lon="6.07977">
        <ele>293.39999389648</ele>
        <time>2016-06-22T13:51:38Z</time>
      </trkpt>
      <trkpt lat="43.39362" lon="6.07981">
        <ele>293.39999389648</ele>
        <time>2016-06-22T13:51:40Z</time>
      </trkpt>
      <trkpt lat="43.39361" lon="6.07983">
        <ele>293.20001220703</ele>
        <time>2016-06-22T13:51:42Z</time>
      </trkpt>
      <trkpt lat="43.39361" lon="6.07982">
        <ele>292.79998779297</ele>
        <time>2016-06-22T13:51:50Z</time>
      </trkpt>
      <trkpt lat="43.39361" lon="6.07987">
        <ele>292.79998779297</ele>
        <time>2016-06-22T13:51:55Z</time>
      </trkpt>
      <trkpt lat="43.3936" lon="6.07988">
        <ele>292.79998779297</ele>
        <time>2016-06-22T13:51:56Z</time>
      </trkpt>
      <trkpt lat="43.3936" lon="6.07989">
        <ele>292.79998779297</ele>
        <time>2016-06-22T13:51:58Z</time>
      </trkpt>
      <trkpt lat="43.3936" lon="6.0799">
        <ele>292.60000610352</ele>
        <time>2016-06-22T13:52:00Z</time>
      </trkpt>
      <trkpt lat="43.3936" lon="6.0799">
        <ele>292.20001220703</ele>
        <time>2016-06-22T13:52:03Z</time>
      </trkpt>
      <trkpt lat="43.39362" lon="6.07989">
        <ele>292.60000610352</ele>
        <time>2016-06-22T13:52:10Z</time>
      </trkpt>
      <trkpt lat="43.39361" lon="6.07989">
        <ele>292.79998779297</ele>
        <time>2016-06-22T13:52:20Z</time>
      </trkpt>
      <trkpt lat="43.3936" lon="6.07986">
        <ele>293.20001220703</ele>
        <time>2016-06-22T13:52:30Z</time>
      </trkpt>
      <trkpt lat="43.39358" lon="6.07986">
        <ele>293.39999389648</ele>
        <time>2016-06-22T13:52:36Z</time>
      </trkpt>
      <trkpt lat="43.39357" lon="6.07985">
        <ele>293.20001220703</ele>
        <time>2016-06-22T13:52:38Z</time>
      </trkpt>
      <trkpt lat="43.39357" lon="6.07986">
        <ele>293</ele>
        <time>2016-06-22T13:52:40Z</time>
      </trkpt>
      <trkpt lat="43.39357" lon="6.07986">
        <ele>292.60000610352</ele>
        <time>2016-06-22T13:52:44Z</time>
      </trkpt>
      <trkpt lat="43.39357" lon="6.07984">
        <ele>293</ele>
        <time>2016-06-22T13:52:49Z</time>
      </trkpt>
      <trkpt lat="43.39357" lon="6.07983">
        <ele>293.20001220703</ele>
        <time>2016-06-22T13:52:50Z</time>
      </trkpt>
      <trkpt lat="43.39361" lon="6.07984">
        <ele>293.39999389648</ele>
        <time>2016-06-22T13:53:00Z</time>
      </trkpt>
      <trkpt lat="43.39365" lon="6.07976">
        <ele>293.20001220703</ele>
        <time>2016-06-22T13:53:10Z</time>
      </trkpt>
      <trkpt lat="43.39367" lon="6.07979">
        <ele>293.39999389648</ele>
        <time>2016-06-22T13:53:20Z</time>
      </trkpt>
      <trkpt lat="43.39365" lon="6.07984">
        <ele>293.39999389648</ele>
        <time>2016-06-22T13:53:27Z</time>
      </trkpt>
      <trkpt lat="43.39362" lon="6.07993">
        <ele>293.20001220703</ele>
        <time>2016-06-22T13:53:30Z</time>
      </trkpt>
      <trkpt lat="43.3936" lon="6.07994">
        <ele>292.60000610352</ele>
        <time>2016-06-22T13:53:33Z</time>
      </trkpt>
      <trkpt lat="43.39361" lon="6.0799">
        <ele>292.39999389648</ele>
        <time>2016-06-22T13:53:40Z</time>
      </trkpt>
      <trkpt lat="43.39362" lon="6.07987">
        <ele>293</ele>
        <time>2016-06-22T13:53:46Z</time>
      </trkpt>
      <trkpt lat="43.39363" lon="6.07985">
        <ele>293</ele>
        <time>2016-06-22T13:53:50Z</time>
      </trkpt>
      <trkpt lat="43.39364" lon="6.0798">
        <ele>293</ele>
        <time>2016-06-22T13:53:54Z</time>
      </trkpt>
      <trkpt lat="43.39365" lon="6.07977">
        <ele>293.20001220703</ele>
        <time>2016-06-22T13:54:00Z</time>
      </trkpt>
      <trkpt lat="43.39365" lon="6.07977">
        <ele>293.39999389648</ele>
        <time>2016-06-22T13:54:10Z</time>
      </trkpt>
      <trkpt lat="43.39363" lon="6.07982">
        <ele>293.39999389648</ele>
        <time>2016-06-22T13:54:20Z</time>
      </trkpt>
      <trkpt lat="43.39359" lon="6.07995">
        <ele>293.39999389648</ele>
        <time>2016-06-22T13:54:23Z</time>
      </trkpt>
      <trkpt lat="43.39357" lon="6.08">
        <ele>292.79998779297</ele>
        <time>2016-06-22T13:54:25Z</time>
      </trkpt>
      <trkpt lat="43.39358" lon="6.08">
        <ele>292.60000610352</ele>
        <time>2016-06-22T13:54:26Z</time>
      </trkpt>
      <trkpt lat="43.39358" lon="6.07999">
        <ele>292.60000610352</ele>
        <time>2016-06-22T13:54:27Z</time>
      </trkpt>
      <trkpt lat="43.39358" lon="6.07998">
        <ele>292.60000610352</ele>
        <time>2016-06-22T13:54:28Z</time>
      </trkpt>
      <trkpt lat="43.39358" lon="6.07995">
        <ele>292.60000610352</ele>
        <time>2016-06-22T13:54:30Z</time>
      </trkpt>
      <trkpt lat="43.39358" lon="6.07994">
        <ele>292.60000610352</ele>
        <time>2016-06-22T13:54:32Z</time>
      </trkpt>
      <trkpt lat="43.39359" lon="6.07993">
        <ele>292.60000610352</ele>
        <time>2016-06-22T13:54:35Z</time>
      </trkpt>
      <trkpt lat="43.39358" lon="6.07993">
        <ele>292.60000610352</ele>
        <time>2016-06-22T13:54:36Z</time>
      </trkpt>
      <trkpt lat="43.39358" lon="6.07993">
        <ele>292.60000610352</ele>
        <time>2016-06-22T13:54:37Z</time>
      </trkpt>
      <trkpt lat="43.39357" lon="6.07992">
        <ele>292.60000610352</ele>
        <time>2016-06-22T13:54:42Z</time>
      </trkpt>
      <trkpt lat="43.39357" lon="6.07991">
        <ele>292.79998779297</ele>
        <time>2016-06-22T13:54:44Z</time>
      </trkpt>
      <trkpt lat="43.39357" lon="6.07991">
        <ele>292.79998779297</ele>
        <time>2016-06-22T13:54:47Z</time>
      </trkpt>
      <trkpt lat="43.39357" lon="6.07991">
        <ele>292.60000610352</ele>
        <time>2016-06-22T13:54:53Z</time>
      </trkpt>
      <trkpt lat="43.39357" lon="6.07991">
        <ele>292.79998779297</ele>
        <time>2016-06-22T13:54:55Z</time>
      </trkpt>
      <trkpt lat="43.39357" lon="6.07991">
        <ele>292.60000610352</ele>
        <time>2016-06-22T13:55:00Z</time>
      </trkpt>
      <trkpt lat="43.39357" lon="6.07991">
        <ele>292.79998779297</ele>
        <time>2016-06-22T13:55:07Z</time>
      </trkpt>
      <trkpt lat="43.3936" lon="6.07992">
        <ele>292.60000610352</ele>
        <time>2016-06-22T13:55:20Z</time>
      </trkpt>
      <trkpt lat="43.39362" lon="6.07988">
        <ele>292.60000610352</ele>
        <time>2016-06-22T13:55:30Z</time>
      </trkpt>
      <trkpt lat="43.3936" lon="6.07986">
        <ele>292.60000610352</ele>
        <time>2016-06-22T13:55:38Z</time>
      </trkpt>
      <trkpt lat="43.39357" lon="6.07983">
        <ele>292.60000610352</ele>
        <time>2016-06-22T13:55:46Z</time>
      </trkpt>
      <trkpt lat="43.39358" lon="6.07983">
        <ele>292.60000610352</ele>
        <time>2016-06-22T13:55:50Z</time>
      </trkpt>
      <trkpt lat="43.39361" lon="6.07982">
        <ele>292.60000610352</ele>
        <time>2016-06-22T13:55:54Z</time>
      </trkpt>
      <trkpt lat="43.39362" lon="6.07981">
        <ele>292.60000610352</ele>
        <time>2016-06-22T13:55:58Z</time>
      </trkpt>
      <trkpt lat="43.39363" lon="6.0798">
        <ele>292.60000610352</ele>
        <time>2016-06-22T13:56:00Z</time>
      </trkpt>
      <trkpt lat="43.39363" lon="6.07979">
        <ele>292.60000610352</ele>
        <time>2016-06-22T13:56:05Z</time>
      </trkpt>
      <trkpt lat="43.39364" lon="6.07979">
        <ele>292.60000610352</ele>
        <time>2016-06-22T13:56:10Z</time>
      </trkpt>
      <trkpt lat="43.39363" lon="6.0798">
        <ele>292.60000610352</ele>
        <time>2016-06-22T13:56:20Z</time>
      </trkpt>
      <trkpt lat="43.39362" lon="6.07981">
        <ele>292.60000610352</ele>
        <time>2016-06-22T13:56:30Z</time>
      </trkpt>
      <trkpt lat="43.39362" lon="6.0798">
        <ele>292.60000610352</ele>
        <time>2016-06-22T13:56:40Z</time>
      </trkpt>
      <trkpt lat="43.39362" lon="6.0798">
        <ele>292.60000610352</ele>
        <time>2016-06-22T13:56:50Z</time>
      </trkpt>
      <trkpt lat="43.39363" lon="6.0798">
        <ele>292.60000610352</ele>
        <time>2016-06-22T13:57:10Z</time>
      </trkpt>
      <trkpt lat="43.39363" lon="6.07978">
        <ele>292.60000610352</ele>
        <time>2016-06-22T13:57:17Z</time>
      </trkpt>
      <trkpt lat="43.39364" lon="6.07977">
        <ele>292.39999389648</ele>
        <time>2016-06-22T13:57:23Z</time>
      </trkpt>
      <trkpt lat="43.39365" lon="6.07975">
        <ele>291.60000610352</ele>
        <time>2016-06-22T13:57:25Z</time>
      </trkpt>
      <trkpt lat="43.39369" lon="6.07975">
        <ele>290.60000610352</ele>
        <time>2016-06-22T13:57:27Z</time>
      </trkpt>
      <trkpt lat="43.3937" lon="6.0798">
        <ele>290.20001220703</ele>
        <time>2016-06-22T13:57:30Z</time>
      </trkpt>
      <trkpt lat="43.3937" lon="6.07986">
        <ele>289.39999389648</ele>
        <time>2016-06-22T13:57:34Z</time>
      </trkpt>
      <trkpt lat="43.39371" lon="6.07986">
        <ele>289.20001220703</ele>
        <time>2016-06-22T13:57:40Z</time>
      </trkpt>
      <trkpt lat="43.39369" lon="6.07987">
        <ele>290.20001220703</ele>
        <time>2016-06-22T13:57:50Z</time>
      </trkpt>
      <trkpt lat="43.39369" lon="6.07987">
        <ele>290</ele>
        <time>2016-06-22T13:57:56Z</time>
      </trkpt>
      <trkpt lat="43.3937" lon="6.0799">
        <ele>289.39999389648</ele>
        <time>2016-06-22T13:58:00Z</time>
      </trkpt>
      <trkpt lat="43.39373" lon="6.07995">
        <ele>288</ele>
        <time>2016-06-22T13:58:02Z</time>
      </trkpt>
      <trkpt lat="43.39381" lon="6.08001">
        <ele>288.20001220703</ele>
        <time>2016-06-22T13:58:09Z</time>
      </trkpt>
      <trkpt lat="43.39381" lon="6.08001">
        <ele>288.20001220703</ele>
        <time>2016-06-22T13:58:10Z</time>
      </trkpt>
      <trkpt lat="43.39381" lon="6.08002">
        <ele>288</ele>
        <time>2016-06-22T13:58:17Z</time>
      </trkpt>
      <trkpt lat="43.39381" lon="6.08002">
        <ele>288</ele>
        <time>2016-06-22T13:58:20Z</time>
      </trkpt>
      <trkpt lat="43.3938" lon="6.08004">
        <ele>288</ele>
        <time>2016-06-22T13:58:30Z</time>
      </trkpt>
      <trkpt lat="43.3938" lon="6.08002">
        <ele>288</ele>
        <time>2016-06-22T13:58:40Z</time>
      </trkpt>
      <trkpt lat="43.39381" lon="6.08001">
        <ele>288.20001220703</ele>
        <time>2016-06-22T13:58:50Z</time>
      </trkpt>
      <trkpt lat="43.39382" lon="6.08005">
        <ele>288.20001220703</ele>
        <time>2016-06-22T13:59:00Z</time>
      </trkpt>
      <trkpt lat="43.39383" lon="6.08008">
        <ele>288</ele>
        <time>2016-06-22T13:59:10Z</time>
      </trkpt>
      <trkpt lat="43.39383" lon="6.08007">
        <ele>288.20001220703</ele>
        <time>2016-06-22T13:59:20Z</time>
      </trkpt>
      <trkpt lat="43.39386" lon="6.08006">
        <ele>287.79998779297</ele>
        <time>2016-06-22T13:59:27Z</time>
      </trkpt>
      <trkpt lat="43.39391" lon="6.08003">
        <ele>287.60000610352</ele>
        <time>2016-06-22T13:59:30Z</time>
      </trkpt>
      <trkpt lat="43.39402" lon="6.07996">
        <ele>286.79998779297</ele>
        <time>2016-06-22T13:59:34Z</time>
      </trkpt>
      <trkpt lat="43.39412" lon="6.07992">
        <ele>285.79998779297</ele>
        <time>2016-06-22T13:59:36Z</time>
      </trkpt>
      <trkpt lat="43.39429" lon="6.07985">
        <ele>284.39999389648</ele>
        <time>2016-06-22T13:59:39Z</time>
      </trkpt>
      <trkpt lat="43.39435" lon="6.07982">
        <ele>284</ele>
        <time>2016-06-22T13:59:40Z</time>
      </trkpt>
      <trkpt lat="43.39447" lon="6.07978">
        <ele>283.20001220703</ele>
        <time>2016-06-22T13:59:42Z</time>
      </trkpt>
      <trkpt lat="43.39476" lon="6.07967">
        <ele>282</ele>
        <time>2016-06-22T13:59:46Z</time>
      </trkpt>
      <trkpt lat="43.39489" lon="6.07962">
        <ele>281.20001220703</ele>
        <time>2016-06-22T13:59:48Z</time>
      </trkpt>
      <trkpt lat="43.39503" lon="6.07959">
        <ele>280.60000610352</ele>
        <time>2016-06-22T13:59:50Z</time>
      </trkpt>
      <trkpt lat="43.39534" lon="6.07948">
        <ele>279.79998779297</ele>
        <time>2016-06-22T13:59:54Z</time>
      </trkpt>
      <trkpt lat="43.39549" lon="6.0794">
        <ele>278.60000610352</ele>
        <time>2016-06-22T13:59:56Z</time>
      </trkpt>
      <trkpt lat="43.39561" lon="6.07936">
        <ele>277</ele>
        <time>2016-06-22T13:59:58Z</time>
      </trkpt>
      <trkpt lat="43.39571" lon="6.07933">
        <ele>275.79998779297</ele>
        <time>2016-06-22T14:00:00Z</time>
      </trkpt>
      <trkpt lat="43.39579" lon="6.0793">
        <ele>274.60000610352</ele>
        <time>2016-06-22T14:00:02Z</time>
      </trkpt>
      <trkpt lat="43.39587" lon="6.07929">
        <ele>273.60000610352</ele>
        <time>2016-06-22T14:00:04Z</time>
      </trkpt>
      <trkpt lat="43.39594" lon="6.07927">
        <ele>272.39999389648</ele>
        <time>2016-06-22T14:00:06Z</time>
      </trkpt>
      <trkpt lat="43.396" lon="6.07923">
        <ele>271.20001220703</ele>
        <time>2016-06-22T14:00:09Z</time>
      </trkpt>
      <trkpt lat="43.39602" lon="6.07922">
        <ele>271</ele>
        <time>2016-06-22T14:00:10Z</time>
      </trkpt>
      <trkpt lat="43.39612" lon="6.07917">
        <ele>270.20001220703</ele>
        <time>2016-06-22T14:00:13Z</time>
      </trkpt>
      <trkpt lat="43.39625" lon="6.07909">
        <ele>269.20001220703</ele>
        <time>2016-06-22T14:00:17Z</time>
      </trkpt>
      <trkpt lat="43.39635" lon="6.07897">
        <ele>268.39999389648</ele>
        <time>2016-06-22T14:00:20Z</time>
      </trkpt>
      <trkpt lat="43.39637" lon="6.07894">
        <ele>268</ele>
        <time>2016-06-22T14:00:21Z</time>
      </trkpt>
      <trkpt lat="43.39666" lon="6.07891">
        <ele>267.60000610352</ele>
        <time>2016-06-22T14:00:30Z</time>
      </trkpt>
      <trkpt lat="43.39672" lon="6.07892">
        <ele>267</ele>
        <time>2016-06-22T14:00:34Z</time>
      </trkpt>
      <trkpt lat="43.39678" lon="6.07894">
        <ele>266.79998779297</ele>
        <time>2016-06-22T14:00:39Z</time>
      </trkpt>
      <trkpt lat="43.39679" lon="6.07895">
        <ele>266.79998779297</ele>
        <time>2016-06-22T14:00:40Z</time>
      </trkpt>
      <trkpt lat="43.3968" lon="6.07899">
        <ele>266.39999389648</ele>
        <time>2016-06-22T14:00:43Z</time>
      </trkpt>
      <trkpt lat="43.39676" lon="6.079">
        <ele>265.60000610352</ele>
        <time>2016-06-22T14:00:45Z</time>
      </trkpt>
      <trkpt lat="43.39668" lon="6.07898">
        <ele>265.60000610352</ele>
        <time>2016-06-22T14:00:49Z</time>
      </trkpt>
      <trkpt lat="43.39666" lon="6.07897">
        <ele>265.60000610352</ele>
        <time>2016-06-22T14:00:50Z</time>
      </trkpt>
      <trkpt lat="43.39653" lon="6.07902">
        <ele>266</ele>
        <time>2016-06-22T14:00:55Z</time>
      </trkpt>
      <trkpt lat="43.39645" lon="6.07907">
        <ele>266.60000610352</ele>
        <time>2016-06-22T14:00:58Z</time>
      </trkpt>
      <trkpt lat="43.39643" lon="6.07908">
        <ele>266.79998779297</ele>
        <time>2016-06-22T14:00:59Z</time>
      </trkpt>
      <trkpt lat="43.3964" lon="6.07909">
        <ele>267</ele>
        <time>2016-06-22T14:01:00Z</time>
      </trkpt>
      <trkpt lat="43.39634" lon="6.07911">
        <ele>268</ele>
        <time>2016-06-22T14:01:03Z</time>
      </trkpt>
      <trkpt lat="43.39622" lon="6.07913">
        <ele>268.60000610352</ele>
        <time>2016-06-22T14:01:08Z</time>
      </trkpt>
      <trkpt lat="43.39618" lon="6.07915">
        <ele>269</ele>
        <time>2016-06-22T14:01:10Z</time>
      </trkpt>
      <trkpt lat="43.39607" lon="6.07918">
        <ele>269.79998779297</ele>
        <time>2016-06-22T14:01:15Z</time>
      </trkpt>
      <trkpt lat="43.39604" lon="6.07919">
        <ele>270</ele>
        <time>2016-06-22T14:01:17Z</time>
      </trkpt>
      <trkpt lat="43.396" lon="6.0792">
        <ele>270.60000610352</ele>
        <time>2016-06-22T14:01:20Z</time>
      </trkpt>
      <trkpt lat="43.39598" lon="6.0792">
        <ele>271</ele>
        <time>2016-06-22T14:01:21Z</time>
      </trkpt>
      <trkpt lat="43.39597" lon="6.07921">
        <ele>271.20001220703</ele>
        <time>2016-06-22T14:01:22Z</time>
      </trkpt>
      <trkpt lat="43.3959" lon="6.07923">
        <ele>271.60000610352</ele>
        <time>2016-06-22T14:01:26Z</time>
      </trkpt>
      <trkpt lat="43.39588" lon="6.07924">
        <ele>272</ele>
        <time>2016-06-22T14:01:27Z</time>
      </trkpt>
      <trkpt lat="43.39586" lon="6.07924">
        <ele>272.39999389648</ele>
        <time>2016-06-22T14:01:28Z</time>
      </trkpt>
      <trkpt lat="43.39583" lon="6.07926">
        <ele>272.79998779297</ele>
        <time>2016-06-22T14:01:30Z</time>
      </trkpt>
      <trkpt lat="43.39582" lon="6.07925">
        <ele>273.39999389648</ele>
        <time>2016-06-22T14:01:38Z</time>
      </trkpt>
      <trkpt lat="43.39582" lon="6.07926">
        <ele>273.39999389648</ele>
        <time>2016-06-22T14:01:40Z</time>
      </trkpt>
      <trkpt lat="43.39583" lon="6.07931">
        <ele>273.20001220703</ele>
        <time>2016-06-22T14:01:48Z</time>
      </trkpt>
      <trkpt lat="43.39583" lon="6.07931">
        <ele>273.20001220703</ele>
        <time>2016-06-22T14:01:50Z</time>
      </trkpt>
      <trkpt lat="43.39587" lon="6.07932">
        <ele>273</ele>
        <time>2016-06-22T14:01:58Z</time>
      </trkpt>
      <trkpt lat="43.39587" lon="6.07931">
        <ele>272.79998779297</ele>
        <time>2016-06-22T14:02:00Z</time>
      </trkpt>
      <trkpt lat="43.39591" lon="6.07927">
        <ele>272.20001220703</ele>
        <time>2016-06-22T14:02:02Z</time>
      </trkpt>
      <trkpt lat="43.396" lon="6.07923">
        <ele>271.20001220703</ele>
        <time>2016-06-22T14:02:06Z</time>
      </trkpt>
      <trkpt lat="43.39611" lon="6.07918">
        <ele>270.39999389648</ele>
        <time>2016-06-22T14:02:10Z</time>
      </trkpt>
      <trkpt lat="43.39613" lon="6.07916">
        <ele>270.20001220703</ele>
        <time>2016-06-22T14:02:11Z</time>
      </trkpt>
      <trkpt lat="43.39624" lon="6.07909">
        <ele>269.20001220703</ele>
        <time>2016-06-22T14:02:14Z</time>
      </trkpt>
      <trkpt lat="43.39627" lon="6.07905">
        <ele>268.79998779297</ele>
        <time>2016-06-22T14:02:15Z</time>
      </trkpt>
      <trkpt lat="43.39634" lon="6.07898">
        <ele>268.60000610352</ele>
        <time>2016-06-22T14:02:17Z</time>
      </trkpt>
      <trkpt lat="43.39641" lon="6.0789">
        <ele>268.39999389648</ele>
        <time>2016-06-22T14:02:20Z</time>
      </trkpt>
      <trkpt lat="43.3965" lon="6.07888">
        <ele>267.79998779297</ele>
        <time>2016-06-22T14:02:23Z</time>
      </trkpt>
      <trkpt lat="43.39663" lon="6.0789">
        <ele>267.60000610352</ele>
        <time>2016-06-22T14:02:26Z</time>
      </trkpt>
      <trkpt lat="43.39672" lon="6.07892">
        <ele>267</ele>
        <time>2016-06-22T14:02:28Z</time>
      </trkpt>
      <trkpt lat="43.39682" lon="6.07897">
        <ele>266.60000610352</ele>
        <time>2016-06-22T14:02:30Z</time>
      </trkpt>
      <trkpt lat="43.39693" lon="6.07908">
        <ele>265.79998779297</ele>
        <time>2016-06-22T14:02:32Z</time>
      </trkpt>
      <trkpt lat="43.39698" lon="6.07914">
        <ele>265.20001220703</ele>
        <time>2016-06-22T14:02:33Z</time>
      </trkpt>
      <trkpt lat="43.39705" lon="6.07922">
        <ele>264</ele>
        <time>2016-06-22T14:02:34Z</time>
      </trkpt>
      <trkpt lat="43.39711" lon="6.0793">
        <ele>263</ele>
        <time>2016-06-22T14:02:35Z</time>
      </trkpt>
      <trkpt lat="43.39718" lon="6.07938">
        <ele>262</ele>
        <time>2016-06-22T14:02:36Z</time>
      </trkpt>
      <trkpt lat="43.39732" lon="6.07954">
        <ele>260.39999389648</ele>
        <time>2016-06-22T14:02:38Z</time>
      </trkpt>
      <trkpt lat="43.39746" lon="6.07965">
        <ele>259.39999389648</ele>
        <time>2016-06-22T14:02:40Z</time>
      </trkpt>
      <trkpt lat="43.39754" lon="6.0797">
        <ele>258.79998779297</ele>
        <time>2016-06-22T14:02:41Z</time>
      </trkpt>
      <trkpt lat="43.39761" lon="6.07974">
        <ele>258.20001220703</ele>
        <time>2016-06-22T14:02:42Z</time>
      </trkpt>
      <trkpt lat="43.39769" lon="6.07978">
        <ele>257.60000610352</ele>
        <time>2016-06-22T14:02:43Z</time>
      </trkpt>
      <trkpt lat="43.39786" lon="6.07986">
        <ele>256.39999389648</ele>
        <time>2016-06-22T14:02:45Z</time>
      </trkpt>
      <trkpt lat="43.39811" lon="6.07996">
        <ele>255.39999389648</ele>
        <time>2016-06-22T14:02:48Z</time>
      </trkpt>
      <trkpt lat="43.39827" lon="6.08003">
        <ele>255.19999694824</ele>
        <time>2016-06-22T14:02:50Z</time>
      </trkpt>
      <trkpt lat="43.39841" lon="6.08011">
        <ele>255.19999694824</ele>
        <time>2016-06-22T14:02:52Z</time>
      </trkpt>
      <trkpt lat="43.39879" lon="6.08042">
        <ele>255.80000305176</ele>
        <time>2016-06-22T14:02:59Z</time>
      </trkpt>
      <trkpt lat="43.39883" lon="6.08048">
        <ele>255.60000610352</ele>
        <time>2016-06-22T14:03:00Z</time>
      </trkpt>
      <trkpt lat="43.39899" lon="6.08068">
        <ele>253.60000610352</ele>
        <time>2016-06-22T14:03:03Z</time>
      </trkpt>
      <trkpt lat="43.39906" lon="6.08072">
        <ele>252.19999694824</ele>
        <time>2016-06-22T14:03:05Z</time>
      </trkpt>
      <trkpt lat="43.39907" lon="6.08071">
        <ele>252</ele>
        <time>2016-06-22T14:03:09Z</time>
      </trkpt>
      <trkpt lat="43.39907" lon="6.08071">
        <ele>252</ele>
        <time>2016-06-22T14:03:10Z</time>
      </trkpt>
      <trkpt lat="43.39907" lon="6.0807">
        <ele>252.19999694824</ele>
        <time>2016-06-22T14:03:18Z</time>
      </trkpt>
      <trkpt lat="43.39907" lon="6.08069">
        <ele>252.39999389648</ele>
        <time>2016-06-22T14:03:30Z</time>
      </trkpt>
      <trkpt lat="43.39908" lon="6.08071">
        <ele>252.39999389648</ele>
        <time>2016-06-22T14:03:40Z</time>
      </trkpt>
      <trkpt lat="43.39908" lon="6.0807">
        <ele>252.39999389648</ele>
        <time>2016-06-22T14:03:50Z</time>
      </trkpt>
      <trkpt lat="43.39908" lon="6.08071">
        <ele>251.60000610352</ele>
        <time>2016-06-22T14:04:00Z</time>
      </trkpt>
      <trkpt lat="43.3991" lon="6.08073">
        <ele>251.60000610352</ele>
        <time>2016-06-22T14:04:20Z</time>
      </trkpt>
      <trkpt lat="43.39911" lon="6.08077">
        <ele>251.19999694824</ele>
        <time>2016-06-22T14:04:22Z</time>
      </trkpt>
      <trkpt lat="43.39913" lon="6.08082">
        <ele>251</ele>
        <time>2016-06-22T14:04:30Z</time>
      </trkpt>
      <trkpt lat="43.3992" lon="6.0809">
        <ele>250.80000305176</ele>
        <time>2016-06-22T14:04:40Z</time>
      </trkpt>
      <trkpt lat="43.3993" lon="6.08104">
        <ele>250.19999694824</ele>
        <time>2016-06-22T14:04:49Z</time>
      </trkpt>
      <trkpt lat="43.39931" lon="6.08105">
        <ele>250.19999694824</ele>
        <time>2016-06-22T14:04:50Z</time>
      </trkpt>
      <trkpt lat="43.39946" lon="6.08122">
        <ele>249.80000305176</ele>
        <time>2016-06-22T14:05:00Z</time>
      </trkpt>
      <trkpt lat="43.39956" lon="6.08137">
        <ele>249.39999389648</ele>
        <time>2016-06-22T14:05:04Z</time>
      </trkpt>
      <trkpt lat="43.39961" lon="6.08148">
        <ele>248.80000305176</ele>
        <time>2016-06-22T14:05:06Z</time>
      </trkpt>
      <trkpt lat="43.39972" lon="6.08165">
        <ele>247.80000305176</ele>
        <time>2016-06-22T14:05:09Z</time>
      </trkpt>
      <trkpt lat="43.39977" lon="6.08169">
        <ele>247.60000610352</ele>
        <time>2016-06-22T14:05:10Z</time>
      </trkpt>
      <trkpt lat="43.39988" lon="6.08177">
        <ele>247.19999694824</ele>
        <time>2016-06-22T14:05:12Z</time>
      </trkpt>
      <trkpt lat="43.40001" lon="6.0818">
        <ele>246.39999389648</ele>
        <time>2016-06-22T14:05:14Z</time>
      </trkpt>
      <trkpt lat="43.40037" lon="6.08185">
        <ele>245.60000610352</ele>
        <time>2016-06-22T14:05:20Z</time>
      </trkpt>
      <trkpt lat="43.40041" lon="6.08187">
        <ele>245.39999389648</ele>
        <time>2016-06-22T14:05:23Z</time>
      </trkpt>
      <trkpt lat="43.4005" lon="6.08185">
        <ele>245.19999694824</ele>
        <time>2016-06-22T14:05:30Z</time>
      </trkpt>
      <trkpt lat="43.40053" lon="6.08181">
        <ele>244.80000305176</ele>
        <time>2016-06-22T14:05:31Z</time>
      </trkpt>
      <trkpt lat="43.4006" lon="6.08172">
        <ele>244.19999694824</ele>
        <time>2016-06-22T14:05:33Z</time>
      </trkpt>
      <trkpt lat="43.40065" lon="6.08168">
        <ele>243.80000305176</ele>
        <time>2016-06-22T14:05:34Z</time>
      </trkpt>
      <trkpt lat="43.40076" lon="6.08162">
        <ele>243.19999694824</ele>
        <time>2016-06-22T14:05:36Z</time>
      </trkpt>
      <trkpt lat="43.40082" lon="6.0816">
        <ele>243</ele>
        <time>2016-06-22T14:05:37Z</time>
      </trkpt>
      <trkpt lat="43.40102" lon="6.08157">
        <ele>242.19999694824</ele>
        <time>2016-06-22T14:05:40Z</time>
      </trkpt>
      <trkpt lat="43.4011" lon="6.08156">
        <ele>241.80000305176</ele>
        <time>2016-06-22T14:05:41Z</time>
      </trkpt>
      <trkpt lat="43.40133" lon="6.08153">
        <ele>240.80000305176</ele>
        <time>2016-06-22T14:05:44Z</time>
      </trkpt>
      <trkpt lat="43.40148" lon="6.0815">
        <ele>239.80000305176</ele>
        <time>2016-06-22T14:05:46Z</time>
      </trkpt>
      <trkpt lat="43.40173" lon="6.08142">
        <ele>238.60000610352</ele>
        <time>2016-06-22T14:05:49Z</time>
      </trkpt>
      <trkpt lat="43.4018" lon="6.08136">
        <ele>238.39999389648</ele>
        <time>2016-06-22T14:05:50Z</time>
      </trkpt>
      <trkpt lat="43.40188" lon="6.08117">
        <ele>237.39999389648</ele>
        <time>2016-06-22T14:05:52Z</time>
      </trkpt>
      <trkpt lat="43.40193" lon="6.08082">
        <ele>236.19999694824</ele>
        <time>2016-06-22T14:05:55Z</time>
      </trkpt>
      <trkpt lat="43.40201" lon="6.08061">
        <ele>235.80000305176</ele>
        <time>2016-06-22T14:05:57Z</time>
      </trkpt>
      <trkpt lat="43.40219" lon="6.08035">
        <ele>235.19999694824</ele>
        <time>2016-06-22T14:06:00Z</time>
      </trkpt>
      <trkpt lat="43.40257" lon="6.07986">
        <ele>234.19999694824</ele>
        <time>2016-06-22T14:06:06Z</time>
      </trkpt>
      <trkpt lat="43.40278" lon="6.07948">
        <ele>233.19999694824</ele>
        <time>2016-06-22T14:06:10Z</time>
      </trkpt>
      <trkpt lat="43.40282" lon="6.07938">
        <ele>233</ele>
        <time>2016-06-22T14:06:11Z</time>
      </trkpt>
      <trkpt lat="43.40289" lon="6.07906">
        <ele>231.80000305176</ele>
        <time>2016-06-22T14:06:14Z</time>
      </trkpt>
      <trkpt lat="43.40291" lon="6.07895">
        <ele>231.19999694824</ele>
        <time>2016-06-22T14:06:15Z</time>
      </trkpt>
      <trkpt lat="43.40294" lon="6.07874">
        <ele>230.60000610352</ele>
        <time>2016-06-22T14:06:17Z</time>
      </trkpt>
      <trkpt lat="43.40302" lon="6.078">
        <ele>229.80000305176</ele>
        <time>2016-06-22T14:06:24Z</time>
      </trkpt>
      <trkpt lat="43.40305" lon="6.07769">
        <ele>229.60000610352</ele>
        <time>2016-06-22T14:06:27Z</time>
      </trkpt>
      <trkpt lat="43.40309" lon="6.07739">
        <ele>229.19999694824</ele>
        <time>2016-06-22T14:06:30Z</time>
      </trkpt>
      <trkpt lat="43.40318" lon="6.0771">
        <ele>228.60000610352</ele>
        <time>2016-06-22T14:06:33Z</time>
      </trkpt>
      <trkpt lat="43.40322" lon="6.07702">
        <ele>228</ele>
        <time>2016-06-22T14:06:34Z</time>
      </trkpt>
      <trkpt lat="43.40327" lon="6.07694">
        <ele>227.60000610352</ele>
        <time>2016-06-22T14:06:35Z</time>
      </trkpt>
      <trkpt lat="43.40344" lon="6.07673">
        <ele>227</ele>
        <time>2016-06-22T14:06:38Z</time>
      </trkpt>
      <trkpt lat="43.40355" lon="6.07659">
        <ele>227</ele>
        <time>2016-06-22T14:06:40Z</time>
      </trkpt>
      <trkpt lat="43.40364" lon="6.07642">
        <ele>227.39999389648</ele>
        <time>2016-06-22T14:06:42Z</time>
      </trkpt>
      <trkpt lat="43.40372" lon="6.07597">
        <ele>227.60000610352</ele>
        <time>2016-06-22T14:06:47Z</time>
      </trkpt>
      <trkpt lat="43.40372" lon="6.07544">
        <ele>228.19999694824</ele>
        <time>2016-06-22T14:06:53Z</time>
      </trkpt>
      <trkpt lat="43.40374" lon="6.07512">
        <ele>228.39999389648</ele>
        <time>2016-06-22T14:06:57Z</time>
      </trkpt>
      <trkpt lat="43.40379" lon="6.07486">
        <ele>228.39999389648</ele>
        <time>2016-06-22T14:07:00Z</time>
      </trkpt>
      <trkpt lat="43.40385" lon="6.07441">
        <ele>228.60000610352</ele>
        <time>2016-06-22T14:07:05Z</time>
      </trkpt>
      <trkpt lat="43.40388" lon="6.07392">
        <ele>228.60000610352</ele>
        <time>2016-06-22T14:07:10Z</time>
      </trkpt>
      <trkpt lat="43.40378" lon="6.07313">
        <ele>227</ele>
        <time>2016-06-22T14:07:18Z</time>
      </trkpt>
      <trkpt lat="43.40378" lon="6.07303">
        <ele>226.80000305176</ele>
        <time>2016-06-22T14:07:19Z</time>
      </trkpt>
      <trkpt lat="43.40379" lon="6.07294">
        <ele>226.60000610352</ele>
        <time>2016-06-22T14:07:20Z</time>
      </trkpt>
      <trkpt lat="43.40382" lon="6.07287">
        <ele>226.19999694824</ele>
        <time>2016-06-22T14:07:21Z</time>
      </trkpt>
      <trkpt lat="43.40388" lon="6.07281">
        <ele>225.80000305176</ele>
        <time>2016-06-22T14:07:22Z</time>
      </trkpt>
      <trkpt lat="43.40394" lon="6.07278">
        <ele>225.39999389648</ele>
        <time>2016-06-22T14:07:23Z</time>
      </trkpt>
      <trkpt lat="43.40409" lon="6.0728">
        <ele>224.80000305176</ele>
        <time>2016-06-22T14:07:25Z</time>
      </trkpt>
      <trkpt lat="43.40442" lon="6.0728">
        <ele>223.19999694824</ele>
        <time>2016-06-22T14:07:29Z</time>
      </trkpt>
      <trkpt lat="43.4045" lon="6.0728">
        <ele>222.60000610352</ele>
        <time>2016-06-22T14:07:30Z</time>
      </trkpt>
      <trkpt lat="43.40458" lon="6.0728">
        <ele>222</ele>
        <time>2016-06-22T14:07:31Z</time>
      </trkpt>
      <trkpt lat="43.40466" lon="6.0728">
        <ele>221.60000610352</ele>
        <time>2016-06-22T14:07:32Z</time>
      </trkpt>
      <trkpt lat="43.4049" lon="6.07279">
        <ele>221</ele>
        <time>2016-06-22T14:07:35Z</time>
      </trkpt>
      <trkpt lat="43.40496" lon="6.0728">
        <ele>221</ele>
        <time>2016-06-22T14:07:36Z</time>
      </trkpt>
      <trkpt lat="43.40509" lon="6.07287">
        <ele>221</ele>
        <time>2016-06-22T14:07:39Z</time>
      </trkpt>
      <trkpt lat="43.40511" lon="6.07291">
        <ele>221</ele>
        <time>2016-06-22T14:07:40Z</time>
      </trkpt>
      <trkpt lat="43.40515" lon="6.07299">
        <ele>221.19999694824</ele>
        <time>2016-06-22T14:07:43Z</time>
      </trkpt>
      <trkpt lat="43.40535" lon="6.07301">
        <ele>221.19999694824</ele>
        <time>2016-06-22T14:07:50Z</time>
      </trkpt>
      <trkpt lat="43.40547" lon="6.07304">
        <ele>220.80000305176</ele>
        <time>2016-06-22T14:07:54Z</time>
      </trkpt>
      <trkpt lat="43.40556" lon="6.07304">
        <ele>221</ele>
        <time>2016-06-22T14:07:59Z</time>
      </trkpt>
      <trkpt lat="43.40557" lon="6.07305">
        <ele>221</ele>
        <time>2016-06-22T14:08:00Z</time>
      </trkpt>
      <trkpt lat="43.40559" lon="6.07305">
        <ele>221</ele>
        <time>2016-06-22T14:08:10Z</time>
      </trkpt>
      <trkpt lat="43.40559" lon="6.07306">
        <ele>220.60000610352</ele>
        <time>2016-06-22T14:08:20Z</time>
      </trkpt>
      <trkpt lat="43.4056" lon="6.07306">
        <ele>220.60000610352</ele>
        <time>2016-06-22T14:08:30Z</time>
      </trkpt>
      <trkpt lat="43.4056" lon="6.07306">
        <ele>220.60000610352</ele>
        <time>2016-06-22T14:08:40Z</time>
      </trkpt>
      <trkpt lat="43.40561" lon="6.07306">
        <ele>220.80000305176</ele>
        <time>2016-06-22T14:08:50Z</time>
      </trkpt>
      <trkpt lat="43.40572" lon="6.07305">
        <ele>220.60000610352</ele>
        <time>2016-06-22T14:08:55Z</time>
      </trkpt>
      <trkpt lat="43.40589" lon="6.07299">
        <ele>220.19999694824</ele>
        <time>2016-06-22T14:08:59Z</time>
      </trkpt>
      <trkpt lat="43.40594" lon="6.07299">
        <ele>219.80000305176</ele>
        <time>2016-06-22T14:09:00Z</time>
      </trkpt>
      <trkpt lat="43.40599" lon="6.07302">
        <ele>219.60000610352</ele>
        <time>2016-06-22T14:09:01Z</time>
      </trkpt>
      <trkpt lat="43.40609" lon="6.07312">
        <ele>219</ele>
        <time>2016-06-22T14:09:03Z</time>
      </trkpt>
      <trkpt lat="43.40613" lon="6.07319">
        <ele>218.80000305176</ele>
        <time>2016-06-22T14:09:04Z</time>
      </trkpt>
      <trkpt lat="43.40617" lon="6.07325">
        <ele>218.39999389648</ele>
        <time>2016-06-22T14:09:05Z</time>
      </trkpt>
      <trkpt lat="43.40624" lon="6.07338">
        <ele>218.19999694824</ele>
        <time>2016-06-22T14:09:07Z</time>
      </trkpt>
      <trkpt lat="43.40634" lon="6.07339">
        <ele>218</ele>
        <time>2016-06-22T14:09:09Z</time>
      </trkpt>
      <trkpt lat="43.40639" lon="6.07334">
        <ele>218</ele>
        <time>2016-06-22T14:09:10Z</time>
      </trkpt>
      <trkpt lat="43.40643" lon="6.07327">
        <ele>218</ele>
        <time>2016-06-22T14:09:11Z</time>
      </trkpt>
      <trkpt lat="43.40652" lon="6.07317">
        <ele>217.60000610352</ele>
        <time>2016-06-22T14:09:13Z</time>
      </trkpt>
      <trkpt lat="43.40672" lon="6.07305">
        <ele>216.60000610352</ele>
        <time>2016-06-22T14:09:16Z</time>
      </trkpt>
      <trkpt lat="43.40679" lon="6.07301">
        <ele>216.39999389648</ele>
        <time>2016-06-22T14:09:17Z</time>
      </trkpt>
      <trkpt lat="43.40702" lon="6.07288">
        <ele>215.60000610352</ele>
        <time>2016-06-22T14:09:20Z</time>
      </trkpt>
      <trkpt lat="43.40726" lon="6.07275">
        <ele>215.19999694824</ele>
        <time>2016-06-22T14:09:23Z</time>
      </trkpt>
      <trkpt lat="43.4075" lon="6.0726">
        <ele>214.19999694824</ele>
        <time>2016-06-22T14:09:26Z</time>
      </trkpt>
      <trkpt lat="43.40759" lon="6.07256">
        <ele>214</ele>
        <time>2016-06-22T14:09:27Z</time>
      </trkpt>
      <trkpt lat="43.40783" lon="6.0724">
        <ele>213.80000305176</ele>
        <time>2016-06-22T14:09:30Z</time>
      </trkpt>
      <trkpt lat="43.4079" lon="6.07233">
        <ele>214</ele>
        <time>2016-06-22T14:09:31Z</time>
      </trkpt>
      <trkpt lat="43.40815" lon="6.07201">
        <ele>213.80000305176</ele>
        <time>2016-06-22T14:09:35Z</time>
      </trkpt>
      <trkpt lat="43.40833" lon="6.07162">
        <ele>213.60000610352</ele>
        <time>2016-06-22T14:09:39Z</time>
      </trkpt>
      <trkpt lat="43.40837" lon="6.07152">
        <ele>213.39999389648</ele>
        <time>2016-06-22T14:09:40Z</time>
      </trkpt>
      <trkpt lat="43.4084" lon="6.07141">
        <ele>213.39999389648</ele>
        <time>2016-06-22T14:09:41Z</time>
      </trkpt>
      <trkpt lat="43.40846" lon="6.0711">
        <ele>213.39999389648</ele>
        <time>2016-06-22T14:09:44Z</time>
      </trkpt>
      <trkpt lat="43.40849" lon="6.0709">
        <ele>213.39999389648</ele>
        <time>2016-06-22T14:09:46Z</time>
      </trkpt>
      <trkpt lat="43.40849" lon="6.0708">
        <ele>213.60000610352</ele>
        <time>2016-06-22T14:09:47Z</time>
      </trkpt>
      <trkpt lat="43.40847" lon="6.07054">
        <ele>214.19999694824</ele>
        <time>2016-06-22T14:09:50Z</time>
      </trkpt>
      <trkpt lat="43.40842" lon="6.07017">
        <ele>214.19999694824</ele>
        <time>2016-06-22T14:09:55Z</time>
      </trkpt>
      <trkpt lat="43.40848" lon="6.07007">
        <ele>214</ele>
        <time>2016-06-22T14:09:57Z</time>
      </trkpt>
      <trkpt lat="43.40858" lon="6.07004">
        <ele>213.80000305176</ele>
        <time>2016-06-22T14:09:59Z</time>
      </trkpt>
      <trkpt lat="43.4088" lon="6.06999">
        <ele>214</ele>
        <time>2016-06-22T14:10:03Z</time>
      </trkpt>
      <trkpt lat="43.40892" lon="6.06995">
        <ele>214</ele>
        <time>2016-06-22T14:10:05Z</time>
      </trkpt>
      <trkpt lat="43.40903" lon="6.06988">
        <ele>214</ele>
        <time>2016-06-22T14:10:07Z</time>
      </trkpt>
      <trkpt lat="43.40907" lon="6.06974">
        <ele>214</ele>
        <time>2016-06-22T14:10:09Z</time>
      </trkpt>
      <trkpt lat="43.40908" lon="6.06965">
        <ele>214</ele>
        <time>2016-06-22T14:10:10Z</time>
      </trkpt>
      <trkpt lat="43.40911" lon="6.06959">
        <ele>213.80000305176</ele>
        <time>2016-06-22T14:10:11Z</time>
      </trkpt>
      <trkpt lat="43.4092" lon="6.06951">
        <ele>213.80000305176</ele>
        <time>2016-06-22T14:10:13Z</time>
      </trkpt>
      <trkpt lat="43.40963" lon="6.06942">
        <ele>213.39999389648</ele>
        <time>2016-06-22T14:10:20Z</time>
      </trkpt>
      <trkpt lat="43.4099" lon="6.06931">
        <ele>213</ele>
        <time>2016-06-22T14:10:24Z</time>
      </trkpt>
      <trkpt lat="43.41008" lon="6.0692">
        <ele>213.39999389648</ele>
        <time>2016-06-22T14:10:27Z</time>
      </trkpt>
      <trkpt lat="43.41016" lon="6.06909">
        <ele>213.80000305176</ele>
        <time>2016-06-22T14:10:29Z</time>
      </trkpt>
      <trkpt lat="43.41019" lon="6.06903">
        <ele>214</ele>
        <time>2016-06-22T14:10:30Z</time>
      </trkpt>
      <trkpt lat="43.41023" lon="6.06891">
        <ele>214.19999694824</ele>
        <time>2016-06-22T14:10:32Z</time>
      </trkpt>
      <trkpt lat="43.4103" lon="6.06884">
        <ele>214.19999694824</ele>
        <time>2016-06-22T14:10:34Z</time>
      </trkpt>
      <trkpt lat="43.41038" lon="6.0688">
        <ele>214.80000305176</ele>
        <time>2016-06-22T14:10:36Z</time>
      </trkpt>
      <trkpt lat="43.41042" lon="6.06878">
        <ele>215</ele>
        <time>2016-06-22T14:10:37Z</time>
      </trkpt>
      <trkpt lat="43.41051" lon="6.06874">
        <ele>215.60000610352</ele>
        <time>2016-06-22T14:10:40Z</time>
      </trkpt>
      <trkpt lat="43.41064" lon="6.06867">
        <ele>215.60000610352</ele>
        <time>2016-06-22T14:10:45Z</time>
      </trkpt>
      <trkpt lat="43.41064" lon="6.06863">
        <ele>215.39999389648</ele>
        <time>2016-06-22T14:10:46Z</time>
      </trkpt>
      <trkpt lat="43.41066" lon="6.06837">
        <ele>214.19999694824</ele>
        <time>2016-06-22T14:10:50Z</time>
      </trkpt>
      <trkpt lat="43.41068" lon="6.06824">
        <ele>214</ele>
        <time>2016-06-22T14:10:52Z</time>
      </trkpt>
      <trkpt lat="43.41069" lon="6.06818">
        <ele>214</ele>
        <time>2016-06-22T14:10:53Z</time>
      </trkpt>
      <trkpt lat="43.41079" lon="6.06787">
        <ele>214</ele>
        <time>2016-06-22T14:10:59Z</time>
      </trkpt>
      <trkpt lat="43.41079" lon="6.06782">
        <ele>214</ele>
        <time>2016-06-22T14:11:00Z</time>
      </trkpt>
      <trkpt lat="43.41092" lon="6.06746">
        <ele>214.19999694824</ele>
        <time>2016-06-22T14:11:09Z</time>
      </trkpt>
      <trkpt lat="43.41095" lon="6.06744">
        <ele>214.39999389648</ele>
        <time>2016-06-22T14:11:10Z</time>
      </trkpt>
      <trkpt lat="43.41116" lon="6.0673">
        <ele>214.60000610352</ele>
        <time>2016-06-22T14:11:20Z</time>
      </trkpt>
      <trkpt lat="43.41134" lon="6.06724">
        <ele>214.19999694824</ele>
        <time>2016-06-22T14:11:30Z</time>
      </trkpt>
      <trkpt lat="43.41151" lon="6.06717">
        <ele>214.80000305176</ele>
        <time>2016-06-22T14:11:40Z</time>
      </trkpt>
      <trkpt lat="43.41175" lon="6.06719">
        <ele>213.80000305176</ele>
        <time>2016-06-22T14:11:50Z</time>
      </trkpt>
      <trkpt lat="43.41198" lon="6.0672">
        <ele>214.60000610352</ele>
        <time>2016-06-22T14:11:58Z</time>
      </trkpt>
      <trkpt lat="43.41203" lon="6.0672">
        <ele>214.39999389648</ele>
        <time>2016-06-22T14:12:00Z</time>
      </trkpt>
      <trkpt lat="43.4123" lon="6.06716">
        <ele>214.60000610352</ele>
        <time>2016-06-22T14:12:08Z</time>
      </trkpt>
      <trkpt lat="43.41235" lon="6.06715">
        <ele>215.19999694824</ele>
        <time>2016-06-22T14:12:10Z</time>
      </trkpt>
      <trkpt lat="43.41247" lon="6.06714">
        <ele>216.19999694824</ele>
        <time>2016-06-22T14:12:19Z</time>
      </trkpt>
      <trkpt lat="43.41249" lon="6.06715">
        <ele>216</ele>
        <time>2016-06-22T14:12:20Z</time>
      </trkpt>
      <trkpt lat="43.41254" lon="6.06719">
        <ele>216</ele>
        <time>2016-06-22T14:12:24Z</time>
      </trkpt>
      <trkpt lat="43.41262" lon="6.06735">
        <ele>216.19999694824</ele>
        <time>2016-06-22T14:12:29Z</time>
      </trkpt>
      <trkpt lat="43.41264" lon="6.06739">
        <ele>216.19999694824</ele>
        <time>2016-06-22T14:12:30Z</time>
      </trkpt>
      <trkpt lat="43.41282" lon="6.06771">
        <ele>217</ele>
        <time>2016-06-22T14:12:38Z</time>
      </trkpt>
      <trkpt lat="43.4129" lon="6.06782">
        <ele>217.39999389648</ele>
        <time>2016-06-22T14:12:41Z</time>
      </trkpt>
      <trkpt lat="43.41312" lon="6.06803">
        <ele>218.39999389648</ele>
        <time>2016-06-22T14:12:48Z</time>
      </trkpt>
      <trkpt lat="43.41319" lon="6.06809">
        <ele>218.39999389648</ele>
        <time>2016-06-22T14:12:50Z</time>
      </trkpt>
      <trkpt lat="43.41357" lon="6.06829">
        <ele>219.19999694824</ele>
        <time>2016-06-22T14:13:00Z</time>
      </trkpt>
      <trkpt lat="43.414" lon="6.06859">
        <ele>218.39999389648</ele>
        <time>2016-06-22T14:13:10Z</time>
      </trkpt>
      <trkpt lat="43.41408" lon="6.0687">
        <ele>218.19999694824</ele>
        <time>2016-06-22T14:13:12Z</time>
      </trkpt>
      <trkpt lat="43.41413" lon="6.06882">
        <ele>218.19999694824</ele>
        <time>2016-06-22T14:13:14Z</time>
      </trkpt>
      <trkpt lat="43.41419" lon="6.06903">
        <ele>218.39999389648</ele>
        <time>2016-06-22T14:13:17Z</time>
      </trkpt>
      <trkpt lat="43.41425" lon="6.06915">
        <ele>218.60000610352</ele>
        <time>2016-06-22T14:13:19Z</time>
      </trkpt>
      <trkpt lat="43.41429" lon="6.0692">
        <ele>218.80000305176</ele>
        <time>2016-06-22T14:13:20Z</time>
      </trkpt>
      <trkpt lat="43.41434" lon="6.06923">
        <ele>218.80000305176</ele>
        <time>2016-06-22T14:13:21Z</time>
      </trkpt>
      <trkpt lat="43.41444" lon="6.06926">
        <ele>219</ele>
        <time>2016-06-22T14:13:23Z</time>
      </trkpt>
      <trkpt lat="43.41455" lon="6.06928">
        <ele>219</ele>
        <time>2016-06-22T14:13:25Z</time>
      </trkpt>
      <trkpt lat="43.41464" lon="6.06936">
        <ele>218.39999389648</ele>
        <time>2016-06-22T14:13:27Z</time>
      </trkpt>
      <trkpt lat="43.41471" lon="6.06947">
        <ele>218</ele>
        <time>2016-06-22T14:13:30Z</time>
      </trkpt>
      <trkpt lat="43.41486" lon="6.06967">
        <ele>218</ele>
        <time>2016-06-22T14:13:36Z</time>
      </trkpt>
      <trkpt lat="43.41493" lon="6.06968">
        <ele>218</ele>
        <time>2016-06-22T14:13:38Z</time>
      </trkpt>
      <trkpt lat="43.41499" lon="6.06966">
        <ele>218.19999694824</ele>
        <time>2016-06-22T14:13:40Z</time>
      </trkpt>
      <trkpt lat="43.41526" lon="6.06972">
        <ele>218.39999389648</ele>
        <time>2016-06-22T14:13:50Z</time>
      </trkpt>
      <trkpt lat="43.41559" lon="6.06965">
        <ele>219.39999389648</ele>
        <time>2016-06-22T14:14:00Z</time>
      </trkpt>
      <trkpt lat="43.41569" lon="6.06965">
        <ele>219.80000305176</ele>
        <time>2016-06-22T14:14:04Z</time>
      </trkpt>
      <trkpt lat="43.41572" lon="6.06985">
        <ele>219.19999694824</ele>
        <time>2016-06-22T14:14:10Z</time>
      </trkpt>
      <trkpt lat="43.41578" lon="6.07021">
        <ele>219.19999694824</ele>
        <time>2016-06-22T14:14:20Z</time>
      </trkpt>
      <trkpt lat="43.41581" lon="6.07033">
        <ele>219.39999389648</ele>
        <time>2016-06-22T14:14:25Z</time>
      </trkpt>
      <trkpt lat="43.41581" lon="6.07035">
        <ele>219.60000610352</ele>
        <time>2016-06-22T14:14:30Z</time>
      </trkpt>
    </trkseg>
  </trk>
</gpx>